Provisional Data: Chemung River at West Elmira, NY


Please select a monitoring station.
Please select start date.
Please select start date.

Toggle Unit: C/F Toggle Unit: C/F
Sample Time Temperature (C) Temperature (F) Specific Conductivity (mS/cm) pH   Turbidity (NTU+) DO (mg/L)
10/20/2020 12:00:00 AM 11.76 53.168 0.036 8.23 3.67 11.09
10/20/2020 12:15:00 AM 11.76 53.168 0.036 8.22 3.37 11.04
10/20/2020 12:30:00 AM 11.77 53.186 0.035 8.21 5.16 10.97
10/20/2020 12:45:00 AM 11.77 53.186 0.034 8.21 4.7 10.95
10/20/2020 1:00:00 AM 11.77 53.186 0.035 8.18 19.09 10.82
10/20/2020 1:15:00 AM 11.78 53.204 0.035 8.19 4.28 10.86
10/20/2020 1:30:00 AM 11.78 53.204 0.035 8.19 3.66 10.83
10/20/2020 1:45:00 AM 11.79 53.222 0.035 8.18 3.69 10.81
10/20/2020 2:00:00 AM 11.79 53.222 0.034 8.17 3.59 10.76
10/20/2020 2:15:00 AM 11.79 53.222 0.04 8.16 4.45 10.71
10/20/2020 2:30:00 AM 11.8 53.24 0.037 8.15 3.36 10.68
10/20/2020 2:45:00 AM 11.8 53.24 0.037 8.15 3.62 10.66
10/20/2020 3:00:00 AM 11.81 53.258 0.036 8.14 3.58 10.62
10/20/2020 3:15:00 AM 11.81 53.258 0.036 8.13 3.9 10.56
10/20/2020 3:30:00 AM 11.81 53.258 0.035 8.12 3.76 10.52
10/20/2020 3:45:00 AM 11.81 53.258 0.036 8.12 3.62 10.49
10/20/2020 4:00:00 AM 11.81 53.258 0.035 8.11 4.04 10.46
10/20/2020 4:15:00 AM 11.8 53.24 0.036 8.11 3.45 10.43
10/20/2020 4:30:00 AM 11.8 53.24 0.035 8.1 3.68 10.38
10/20/2020 4:45:00 AM 11.8 53.24 0.035 8.1 3.76 10.38
10/20/2020 5:00:00 AM 11.8 53.24 0.035 8.09 4.05 10.33
10/20/2020 5:15:00 AM 11.8 53.24 0.035 8.08 4.03 10.28
10/20/2020 5:30:00 AM 11.8 53.24 0.034 8.08 4.08 10.29
10/20/2020 5:45:00 AM 11.8 53.24 0.033 8.07 4.75 10.24
10/20/2020 6:00:00 AM 11.81 53.258 0.034 8.06 4.25 10.21
10/20/2020 6:15:00 AM 11.81 53.258 0.033 8.06 4.13 10.19
10/20/2020 6:30:00 AM 11.81 53.258 0.034 8.05 24.64 10.15
10/20/2020 6:45:00 AM 11.82 53.276 0.036 8.06 5.4 10.17
10/20/2020 7:00:00 AM 11.82 53.276 0.037 8.05 4.26 10.17
10/20/2020 7:15:00 AM 11.82 53.276 0.036 8.05 5.32 10.13
10/20/2020 7:30:00 AM 11.83 53.294 0.035 8.04 4.61 10.12
10/20/2020 7:45:00 AM 11.83 53.294 0.035 8.04 4.29 10.08
10/20/2020 8:00:00 AM 11.83 53.294 0.035 8.03 4 10.07
10/20/2020 8:15:00 AM 11.84 53.312 0.035 8.04 4.8 10.07
10/20/2020 8:30:00 AM 11.84 53.312 0.034 8.03 3.91 10.03
10/20/2020 8:45:00 AM 11.85 53.33 0.035 8.03 5.35 10.01
10/20/2020 9:00:00 AM 11.86 53.348 0.035 8.03 3.53 10.06
10/20/2020 9:15:00 AM 11.87 53.366 0.036 8.03 5.27 10.04
10/20/2020 9:30:00 AM 11.88 53.384 0.036 8.03 3.79 10.07
10/20/2020 9:45:00 AM 11.9 53.42 0.036 8.03 3.4 10.07
10/20/2020 10:00:00 AM 11.91 53.438 0.036 8.03 4.01 10.08
10/20/2020 10:15:00 AM 11.92 53.456 0.036 8.03 3.69 10.11
10/20/2020 10:30:00 AM 11.95 53.51 0.035 8.04 3.14 10.18
10/20/2020 10:45:00 AM 11.98 53.564 0.035 8.04 3.19 10.21
10/20/2020 11:00:00 AM 12.01 53.618 0.035 8.04 3.49 10.25
10/20/2020 11:15:00 AM 12.04 53.672 0.035 8.05 6.18 10.24
10/20/2020 11:30:00 AM 12.05 53.69 0.035 8.05 3.12 10.27
10/20/2020 11:45:00 AM 12.06 53.708 0.036 8.06 2.92 10.3
10/20/2020 12:00:00 PM 12.07 53.726 0.036 8.06 2.84 10.29
10/20/2020 12:15:00 PM 12.07 53.726 0.036 8.06 2.85 10.33
10/20/2020 12:30:00 PM 12.08 53.744 0.036 8.07 2.81 10.41
10/20/2020 12:45:00 PM 12.09 53.762 0.035 8.07 2.66 10.41
10/20/2020 1:00:00 PM 12.11 53.798 0.036 8.08 2.64 10.52
10/20/2020 1:15:00 PM 12.13 53.834 0.036 8.1 3.19 10.6
10/20/2020 1:30:00 PM 12.14 53.852 0.036 8.1 2.67 10.62
10/20/2020 1:45:00 PM 12.15 53.87 0.037 8.1 2.91 10.65
10/20/2020 2:00:00 PM 12.17 53.906 0.037 8.11 2.63 10.7
10/20/2020 2:15:00 PM 12.18 53.924 0.037 8.12 3.2 10.78
10/20/2020 2:30:00 PM 12.19 53.942 0.037 8.14 2.78 10.85
10/20/2020 2:45:00 PM 12.21 53.978 0.036 8.15 2.62 10.89
10/20/2020 3:00:00 PM 12.22 53.996 0.036 8.15 2.8 10.92
10/20/2020 3:15:00 PM 12.22 53.996 0.036 8.16 5.48 10.97
10/20/2020 3:30:00 PM 12.22 53.996 0.036 8.16 2.54 10.99
10/20/2020 3:45:00 PM 12.21 53.978 0.036 8.16 2.6 11
10/20/2020 4:00:00 PM 12.21 53.978 0.035 8.17 2.55 11.03
10/20/2020 4:15:00 PM 12.21 53.978 0.035 8.18 2.49 11.04
10/20/2020 4:30:00 PM 12.21 53.978 0.036 8.18 2.56 11.07
10/20/2020 4:45:00 PM 12.21 53.978 0.035 8.19 2.51 11.1
10/20/2020 5:00:00 PM 12.21 53.978 0.036 8.2 2.45 11.14
10/20/2020 5:15:00 PM 12.2 53.96 0.035 8.19 2.51 11.14
10/20/2020 5:30:00 PM 12.2 53.96 0.035 8.19 2.55 11.13
10/20/2020 5:45:00 PM 12.18 53.924 0.036 8.19 2.48 11.12
10/20/2020 6:00:00 PM 12.18 53.924 0.035 8.2 2.26 11.13
10/20/2020 6:15:00 PM 12.17 53.906 0.035 8.2 2.52 11.1
10/20/2020 6:30:00 PM 12.15 53.87 0.036 8.21 2.45 11.12
10/20/2020 6:45:00 PM 12.14 53.852 0.035 8.18 2.47 11.08
10/20/2020 7:00:00 PM 12.13 53.834 0.035 8.2 2.61 11.07
10/20/2020 7:15:00 PM 12.12 53.816 0.036 8.2 2.6 11.06
10/20/2020 7:30:00 PM 12.11 53.798 0.036 8.19 2.7 11.03
10/20/2020 7:45:00 PM 12.1 53.78 0.037 8.19 2.79 11.02
10/20/2020 8:00:00 PM 12.09 53.762 0.037 8.19 4.62 10.98
10/20/2020 8:15:00 PM 12.08 53.744 0.037 8.18 2.79 10.95
10/20/2020 8:30:00 PM 12.07 53.726 0.036 8.18 3 10.94
10/20/2020 8:45:00 PM 12.05 53.69 0.036 8.18 2.86 10.92
10/20/2020 9:00:00 PM 12.04 53.672 0.035 8.17 3.12 10.88
10/20/2020 9:15:00 PM 12.03 53.654 0.036 8.16 3.41 10.83
10/20/2020 9:30:00 PM 12.02 53.636 0.035 8.16 3.27 10.79
10/20/2020 9:45:00 PM 12 53.6 0.036 8.15 3.24 10.76
10/20/2020 10:00:00 PM 12 53.6 0.035 8.14 3.45 10.71
10/20/2020 10:15:00 PM 11.98 53.564 0.035 8.14 3.69 10.69
10/20/2020 10:30:00 PM 11.97 53.546 0.035 8.13 3.48 10.65
10/20/2020 10:45:00 PM 11.95 53.51 0.035 8.13 3.53 10.63
10/20/2020 11:00:00 PM 11.94 53.492 0.035 8.12 3.63 10.59
10/20/2020 11:15:00 PM 11.93 53.474 0.035 8.12 3.45 10.58
10/20/2020 11:30:00 PM 11.92 53.456 0.035 8.11 3.35 10.53
10/20/2020 11:45:00 PM 11.91 53.438 0.035 8.1 3.68 10.49
10/21/2020 12:00:00 AM 11.9 53.42 0.036 8.1 3.49 10.46
10/21/2020 12:15:00 AM 11.88 53.384 0.034 8.1 3.82 10.45
10/21/2020 12:30:00 AM 11.87 53.366 0.034 8.09 3.77 10.41
10/21/2020 12:45:00 AM 11.85 53.33 0.034 8.08 3.81 10.39
10/21/2020 1:00:00 AM 11.84 53.312 0.035 8.08 3.54 10.37
10/21/2020 1:15:00 AM 11.82 53.276 0.034 8.08 3.43 10.35
10/21/2020 1:30:00 AM 11.82 53.276 0.034 8.07 3.67 10.31
10/21/2020 1:45:00 AM 11.81 53.258 0.035 8.07 4.36 10.27
10/21/2020 2:00:00 AM 11.79 53.222 0.035 8.06 3.87 10.27
10/21/2020 2:15:00 AM 11.77 53.186 0.035 8.06 4.6 10.25
10/21/2020 2:30:00 AM 11.76 53.168 0.035 8.06 4.39 10.23
10/21/2020 2:45:00 AM 11.76 53.168 0.034 8.05 4.25 10.2
10/21/2020 3:00:00 AM 11.74 53.132 0.034 8.04 3.98 10.17
10/21/2020 3:15:00 AM 11.73 53.114 0.034 8.04 3.96 10.14
10/21/2020 3:30:00 AM 11.72 53.096 0.034 8.04 3.93 10.12
10/21/2020 3:45:00 AM 11.71 53.078 0.034 8.03 3.98 10.08
10/21/2020 4:00:00 AM 11.7 53.06 0.034 8.02 4.4 10.07
10/21/2020 4:15:00 AM 11.69 53.042 0.033 8.02 5.68 10.06
10/21/2020 4:30:00 AM 11.69 53.042 0.033 8.02 3.69 10.04
10/21/2020 4:45:00 AM 11.68 53.024 0.033 8.02 4.29 10.02
10/21/2020 5:00:00 AM 11.67 53.006 0.032 8.01 4.8 9.99
10/21/2020 5:15:00 AM 11.67 53.006 0.032 8 3.93 9.98
10/21/2020 5:30:00 AM 11.66 52.988 0.033 8.01 4.87 9.97
10/21/2020 5:45:00 AM 11.65 52.97 0.032 8 4.12 9.95
10/21/2020 6:00:00 AM 11.63 52.934 0.033 8 3.93 9.96
10/21/2020 6:15:00 AM 11.62 52.916 0.032 8 3.85 9.95
10/21/2020 6:30:00 AM 11.61 52.898 0.032 8 4.03 9.93
10/21/2020 6:45:00 AM 11.6 52.88 0.032 8 3.98 9.9
10/21/2020 7:00:00 AM 11.6 52.88 0.032 8 4.42 9.91
10/21/2020 7:15:00 AM 11.59 52.862 0.032 8 9.65 9.9
10/21/2020 7:30:00 AM 11.59 52.862 0.031 7.99 4.55 9.9
10/21/2020 7:45:00 AM 11.59 52.862 0.031 7.99 5.63 9.88
10/21/2020 8:00:00 AM 11.59 52.862 0.031 7.99 4.72 9.89
10/21/2020 8:15:00 AM 11.59 52.862 0.031 8 3.54 9.93
10/21/2020 8:30:00 AM 11.59 52.862 0.031 8 4.28 9.96
10/21/2020 8:45:00 AM 11.6 52.88 0.031 8 13.85 9.97
10/21/2020 9:00:00 AM 11.61 52.898 0.031 8 3.5 9.99
10/21/2020 9:15:00 AM 11.62 52.916 0.032 8.01 3.4 10.05
10/21/2020 9:30:00 AM 11.66 52.988 0.031 8.01 3.77 10.09
10/21/2020 9:45:00 AM 11.69 53.042 0.031 8.02 4.26 10.15
10/21/2020 10:00:00 AM 11.72 53.096 0.032 8.03 6.48 10.24
10/21/2020 10:15:00 AM 11.75 53.15 0.032 8.03 3.15 10.29
10/21/2020 10:30:00 AM 11.79 53.222 0.033 8.04 3.21 10.32
10/21/2020 10:45:00 AM 11.82 53.276 0.033 8.05 3.32 10.38
10/21/2020 11:00:00 AM 11.88 53.384 0.033 8.06 3 10.47
10/21/2020 11:15:00 AM 11.93 53.474 0.034 8.07 2.95 10.54
10/21/2020 11:30:00 AM 12.01 53.618 0.042 8.08 2.84 10.66
10/21/2020 11:45:00 AM 12.09 53.762 0.041 8.09 2.72 10.72
10/21/2020 12:00:00 PM 12.2 53.96 0.042 8.11 2.65 10.84
10/21/2020 12:15:00 PM 12.3 54.14 0.042 8.12 3.14 10.94
10/21/2020 12:30:00 PM 12.42 54.356 0.041 8.14 2.71 11.06
10/21/2020 12:45:00 PM 12.56 54.608 0.044 8.16 2.99 11.19
10/21/2020 1:00:00 PM 12.73 54.914 0.043 8.18 2.86 11.38
10/21/2020 1:15:00 PM 12.91 55.238 0.047 8.22 3.28 11.6
10/21/2020 1:30:00 PM 13.1 55.58 0.049 8.25 2.97 11.69
10/21/2020 1:45:00 PM 13.21 55.778 0.049 8.27 2.75 11.82
10/21/2020 2:00:00 PM 13.33 55.994 0.05 8.29 2.48 11.89
10/21/2020 2:15:00 PM 13.47 56.246 0.052 8.31 2.49 12.01
10/21/2020 2:30:00 PM 13.61 56.498 0.053 8.33 2.57 12.12
10/21/2020 2:45:00 PM 13.71 56.678 0.055 8.35 2.56 12.24
10/21/2020 3:00:00 PM 13.78 56.804 0.055 8.36 3.09 12.33
10/21/2020 3:15:00 PM 13.85 56.93 0.051 8.38 2.46 12.41
10/21/2020 3:30:00 PM 13.96 57.128 0.053 8.39 2.27 12.46
10/21/2020 3:45:00 PM 14.03 57.254 0.054 8.4 2.28 12.51
10/21/2020 4:00:00 PM 14.1 57.38 0.052 8.42 2.58 12.61
10/21/2020 4:15:00 PM 14.19 57.542 0.055 8.43 2.42 12.7
10/21/2020 4:30:00 PM 14.23 57.614 0.054 8.43 2.28 12.75
10/21/2020 4:45:00 PM 14.28 57.704 0.053 8.45 2.25 12.8
10/21/2020 5:00:00 PM 14.3 57.74 0.057 8.45 2.51 12.8
10/21/2020 5:15:00 PM 14.32 57.776 0.055 8.46 2.33 12.79
10/21/2020 5:30:00 PM 14.32 57.776 0.056 8.46 2.49 12.81
10/21/2020 5:45:00 PM 14.34 57.812 0.055 8.46 2.36 12.8
10/21/2020 6:00:00 PM 14.34 57.812 0.055 8.46 2.96 12.76
10/21/2020 6:15:00 PM 14.34 57.812 0.057 8.46 2.45 12.72
10/21/2020 6:30:00 PM 14.33 57.794 0.055 8.46 2.44 12.7
10/21/2020 6:45:00 PM 14.32 57.776 0.054 8.47 2.4 12.67
10/21/2020 7:00:00 PM 14.3 57.74 0.056 8.46 2.86 12.61
10/21/2020 7:15:00 PM 14.3 57.74 0.054 8.46 2.81 12.56
10/21/2020 7:30:00 PM 14.28 57.704 0.053 8.45 3.4 12.53
10/21/2020 7:45:00 PM 14.25 57.65 0.052 8.44 3.18 12.44
10/21/2020 8:00:00 PM 14.23 57.614 0.053 8.44 3.05 12.38
10/21/2020 8:15:00 PM 14.21 57.578 0.051 8.42 2.99 12.29
10/21/2020 8:30:00 PM 14.18 57.524 0.052 8.41 2.93 12.21
10/21/2020 8:45:00 PM 14.16 57.488 0.052 8.4 2.93 12.12
10/21/2020 9:00:00 PM 14.13 57.434 0.051 8.39 2.89 12.04
10/21/2020 9:15:00 PM 14.12 57.416 0.051 8.38 3.31 11.97
10/21/2020 9:30:00 PM 14.11 57.398 0.049 8.37 3.27 11.88
10/21/2020 9:45:00 PM 14.1 57.38 0.05 8.36 3.2 11.8
10/21/2020 10:00:00 PM 14.08 57.344 0.047 8.34 3.41 11.7
10/21/2020 10:15:00 PM 14.07 57.326 0.047 8.33 3.28 11.61
10/21/2020 10:30:00 PM 14.04 57.272 0.048 8.31 4.1 11.51
10/21/2020 10:45:00 PM 14.02 57.236 0.047 8.3 3.75 11.43
10/21/2020 11:00:00 PM 13.99 57.182 0.046 8.29 3.79 11.36
10/21/2020 11:15:00 PM 13.97 57.146 0.043 8.27 3.61 11.3
10/21/2020 11:30:00 PM 13.95 57.11 0.043 8.26 4.26 11.22
10/21/2020 11:45:00 PM 13.92 57.056 0.041 8.26 4.7 11.19
10/22/2020 12:00:00 AM 13.9 57.02 0.04 8.24 3.75 11.09
10/22/2020 12:15:00 AM 13.88 56.984 0.04 8.22 4.48 11.04
10/22/2020 12:30:00 AM 13.86 56.948 0.039 8.22 3.9 10.99
10/22/2020 12:45:00 AM 13.83 56.894 0.039 8.21 4.43 10.92
10/22/2020 1:00:00 AM 13.81 56.858 0.038 8.2 4.02 10.86
10/22/2020 1:15:00 AM 13.79 56.822 0.038 8.19 4.34 10.81
10/22/2020 1:30:00 AM 13.76 56.768 0.037 8.18 4.13 10.76
10/22/2020 1:45:00 AM 13.74 56.732 0.037 8.17 4.15 10.71
10/22/2020 2:00:00 AM 13.72 56.696 0.035 8.16 3.87 10.65
10/22/2020 2:15:00 AM 13.7 56.66 0.035 8.15 4.1 10.6
10/22/2020 2:30:00 AM 13.68 56.624 0.034 8.14 5.36 10.54
10/22/2020 2:45:00 AM 13.66 56.588 0.033 8.13 4.23 10.48
10/22/2020 3:00:00 AM 13.64 56.552 0.032 8.12 3.93 10.43
10/22/2020 3:15:00 AM 13.62 56.516 0.032 8.11 4.23 10.39
10/22/2020 3:30:00 AM 13.61 56.498 0.032 8.11 4.37 10.33
10/22/2020 3:45:00 AM 13.6 56.48 0.032 8.1 4.17 10.3
10/22/2020 4:00:00 AM 13.59 56.462 0.031 8.09 4.51 10.26
10/22/2020 4:15:00 AM 13.58 56.444 0.031 8.08 4.11 10.21
10/22/2020 4:30:00 AM 13.57 56.426 0.031 8.08 4.06 10.2
10/22/2020 4:45:00 AM 13.57 56.426 0.031 8.07 5.49 10.18
10/22/2020 5:00:00 AM 13.56 56.408 0.03 8.07 3.88 10.15
10/22/2020 5:15:00 AM 13.56 56.408 0.03 8.07 4.36 10.13
10/22/2020 5:30:00 AM 13.56 56.408 0.029 8.07 3.99 10.1
10/22/2020 5:45:00 AM 13.56 56.408 0.029 8.06 4.24 10.08
10/22/2020 6:00:00 AM 13.57 56.426 0.03 8.06 4.16 10.06
10/22/2020 6:15:00 AM 13.57 56.426 0.03 8.06 3.67 10.03
10/22/2020 6:30:00 AM 13.58 56.444 0.029 8.06 3.96 10
10/22/2020 6:45:00 AM 13.59 56.462 0.029 8.06 4.27 10
10/22/2020 7:00:00 AM 13.59 56.462 0.03 8.05 7.87 9.94
10/22/2020 7:15:00 AM 13.6 56.48 0.029 8.05 5.65 9.92
10/22/2020 7:30:00 AM 13.61 56.498 0.03 8.05 4.07 9.9
10/22/2020 7:45:00 AM 13.63 56.534 0.029 8.05 4.4 9.86
10/22/2020 8:00:00 AM 13.64 56.552 0.03 8.05 3.93 9.87
10/22/2020 8:15:00 AM 13.66 56.588 0.031 8.05 3.68 9.88
10/22/2020 8:30:00 AM 13.68 56.624 0.031 8.05 3.7 9.87
10/22/2020 8:45:00 AM 13.7 56.66 0.035 8.05 3.83 9.83
10/22/2020 9:00:00 AM 13.73 56.714 0.033 8.05 3.55 9.86
10/22/2020 9:15:00 AM 13.75 56.75 0.033 8.05 3.27 9.83
10/22/2020 9:30:00 AM 13.78 56.804 0.033 8.06 2.94 9.89
10/22/2020 9:45:00 AM 13.81 56.858 0.034 8.06 3.62 9.89
10/22/2020 10:00:00 AM 13.85 56.93 0.034 8.06 3.83 9.9
10/22/2020 10:15:00 AM 13.91 57.038 0.034 8.08 3.99 10.01
10/22/2020 10:30:00 AM 13.95 57.11 0.034 8.08 2.82 10.05
10/22/2020 10:45:00 AM 14 57.2 0.034 8.09 4.6 10.11
10/22/2020 11:00:00 AM 14.05 57.29 0.034 8.11 5.58 10.22
10/22/2020 11:15:00 AM 14.08 57.344 0.035 8.11 2.94 10.27
10/22/2020 11:30:00 AM 14.13 57.434 0.035 8.12 10.82 10.33
10/22/2020 11:45:00 AM 14.21 57.578 0.036 8.14 3.36 10.49
10/22/2020 12:00:00 PM 14.27 57.686 0.036 8.16 2.74 10.6
10/22/2020 12:15:00 PM 14.32 57.776 0.037 8.17 3 10.69
10/22/2020 12:30:00 PM 14.37 57.866 0.039 8.19 2.79 10.76
10/22/2020 12:45:00 PM 14.42 57.956 0.038 8.21 2.48 10.9
10/22/2020 1:00:00 PM 14.48 58.064 0.039 8.22 2.68 10.97
10/22/2020 1:15:00 PM 14.56 58.208 0.038 8.24 3.3 11.09
10/22/2020 1:30:00 PM 14.65 58.37 0.038 8.25 3.04 11.22
10/22/2020 1:45:00 PM 14.73 58.514 0.039 8.26 2.76 11.32
10/22/2020 2:00:00 PM 14.82 58.676 0.04 8.28 2.46 11.4
10/22/2020 2:15:00 PM 14.9 58.82 0.04 8.29 2.87 11.5
10/22/2020 2:30:00 PM 15.01 59.018 0.042 8.31 2.7 11.62
10/22/2020 2:45:00 PM 15.07 59.126 0.041 8.33 2.33 11.71
10/22/2020 3:00:00 PM 15.13 59.234 0.041 8.34 2.54 11.79
10/22/2020 3:15:00 PM 15.21 59.378 0.041 8.36 2.96 11.92
10/22/2020 3:30:00 PM 15.26 59.468 0.042 8.37 3.08 11.98
10/22/2020 3:45:00 PM 15.33 59.594 0.042 8.39 2.97 12.05
10/22/2020 4:00:00 PM 15.42 59.756 0.044 8.41 2.32 12.18
10/22/2020 4:15:00 PM 15.47 59.846 0.042 8.41 2.24 12.22
10/22/2020 4:30:00 PM 15.51 59.918 0.044 8.42 2.46 12.26
10/22/2020 4:45:00 PM 15.55 59.99 0.043 8.44 2.53 12.33
10/22/2020 5:00:00 PM 15.6 60.08 0.045 8.44 2.4 12.35
10/22/2020 5:15:00 PM 15.63 60.134 0.045 8.44 2.29 12.33
10/22/2020 5:30:00 PM 15.66 60.188 0.045 8.45 2.37 12.34
10/22/2020 5:45:00 PM 15.65 60.17 0.044 8.45 3.85 12.31
10/22/2020 6:00:00 PM 15.68 60.224 0.044 8.46 2.4 12.35
10/22/2020 6:15:00 PM 15.68 60.224 0.045 8.47 2.62 12.32
10/22/2020 6:30:00 PM 15.65 60.17 0.044 8.46 2.37 12.21
10/22/2020 6:45:00 PM 15.66 60.188 0.045 8.46 2.64 12.25
10/22/2020 7:00:00 PM 15.65 60.17 0.044 8.46 3.37 12.24
10/22/2020 7:15:00 PM 15.62 60.116 0.044 8.46 3.02 12.18
10/22/2020 7:30:00 PM 15.64 60.152 0.043 8.45 2.94 12.14
10/22/2020 7:45:00 PM 15.62 60.116 0.042 8.45 2.78 12.09
10/22/2020 8:00:00 PM 15.6 60.08 0.043 8.44 2.81 12.01
10/22/2020 8:15:00 PM 15.56 60.008 0.041 8.42 4.1 11.89
10/22/2020 8:30:00 PM 15.55 59.99 0.041 8.42 3.27 11.87
10/22/2020 8:45:00 PM 15.52 59.936 0.042 8.41 3.1 11.75
10/22/2020 9:00:00 PM 15.49 59.882 0.041 8.4 2.81 11.63
10/22/2020 9:15:00 PM 15.46 59.828 0.042 8.39 3.04 11.53
10/22/2020 9:30:00 PM 15.42 59.756 0.041 8.37 3.12 11.41
10/22/2020 9:45:00 PM 15.4 59.72 0.04 8.36 3.14 11.4
10/22/2020 10:00:00 PM 15.37 59.666 0.042 8.35 2.8 11.29
10/22/2020 10:15:00 PM 15.34 59.612 0.041 8.34 3.37 11.26
10/22/2020 10:30:00 PM 15.31 59.558 0.04 8.33 3.07 11.18
10/22/2020 10:45:00 PM 15.26 59.468 0.041 8.31 2.88 11.1
10/22/2020 11:00:00 PM 15.23 59.414 0.04 8.3 3 11.01
10/22/2020 11:15:00 PM 15.18 59.324 0.041 8.28 3.63 10.95
10/22/2020 11:30:00 PM 15.14 59.252 0.04 8.27 3.11 10.86
10/22/2020 11:45:00 PM 15.1 59.18 0.039 8.27 3.39 10.83
10/23/2020 12:00:00 AM 15.05 59.09 0.039 8.26 4.59 10.77
10/23/2020 12:15:00 AM 15 59 0.038 8.24 5.33 10.67
10/23/2020 12:30:00 AM 14.96 58.928 0.037 8.22 4.56 10.56
10/23/2020 12:45:00 AM 14.9 58.82 0.037 8.22 3.48 10.54
10/23/2020 1:00:00 AM 14.85 58.73 0.036 8.21 4 10.48
10/23/2020 1:15:00 AM 14.81 58.658 0.037 8.2 4.53 10.43
10/23/2020 1:30:00 AM 14.77 58.586 0.037 8.19 3.33 10.37
10/23/2020 1:45:00 AM 14.72 58.496 0.036 8.18 3.18 10.28
10/23/2020 2:00:00 AM 14.67 58.406 0.036 8.17 3.24 10.25
10/23/2020 2:15:00 AM 14.63 58.334 0.036 8.16 3.62 10.17
10/23/2020 2:30:00 AM 14.58 58.244 0.035 8.16 4.03 10.12
10/23/2020 2:45:00 AM 14.55 58.19 0.036 8.15 3.4 10.08
10/23/2020 3:00:00 AM 14.52 58.136 0.035 8.14 3.51 10.05
10/23/2020 3:15:00 AM 14.49 58.082 0.036 8.13 3.36 10.01
10/23/2020 3:30:00 AM 14.46 58.028 0.034 8.11 3.3 9.99
10/23/2020 3:45:00 AM 14.43 57.974 0.035 8.13 4.29 9.92
10/23/2020 4:00:00 AM 14.41 57.938 0.036 8.12 3.18 9.94
10/23/2020 4:15:00 AM 14.39 57.902 0.036 8.12 3.61 9.89
10/23/2020 4:30:00 AM 14.38 57.884 0.035 8.12 3.37 9.89
10/23/2020 4:45:00 AM 14.36 57.848 0.035 8.11 3.48 9.84
10/23/2020 5:00:00 AM 14.34 57.812 0.035 8.11 3.9 9.83
10/23/2020 5:15:00 AM 14.33 57.794 0.034 8.1 7.33 9.74
10/23/2020 5:30:00 AM 14.31 57.758 0.034 8.08 5.09 9.68
10/23/2020 5:45:00 AM 14.29 57.722 0.038 8.09 3.52 9.68
10/23/2020 6:00:00 AM 14.29 57.722 0.039 8.09 3.26 9.69
10/23/2020 6:15:00 AM 14.29 57.722 0.039 8.09 3.5 9.68
10/23/2020 6:30:00 AM 14.3 57.74 0.04 8.09 3.34 9.64
10/23/2020 6:45:00 AM 14.29 57.722 0.04 8.08 3.86 9.63
10/23/2020 7:00:00 AM 14.28 57.704 0.041 8.08 3.52 9.6
10/23/2020 7:15:00 AM 14.29 57.722 0.04 8.08 5.06 9.55
10/23/2020 7:30:00 AM 14.28 57.704 0.041 8.08 4.43 9.53
10/23/2020 7:45:00 AM 14.28 57.704 0.041 8.07 6.52 9.49
10/23/2020 8:00:00 AM 14.28 57.704 0.043 8.07 4.02 9.49
10/23/2020 8:15:00 AM 14.28 57.704 0.042 8.07 3.4 9.48
10/23/2020 8:30:00 AM 14.29 57.722 0.043 8.08 2.92 9.52
10/23/2020 8:45:00 AM 14.31 57.758 0.044 8.08 3.09 9.57
10/23/2020 9:00:00 AM 14.31 57.758 0.042 8.08 2.84 9.59
10/23/2020 9:15:00 AM 14.31 57.758 0.044 8.08 3.82 9.57
10/23/2020 9:30:00 AM 14.31 57.758 0.045 8.09 2.68 9.63
10/23/2020 9:45:00 AM 14.31 57.758 0.045 8.09 3.22 9.63
10/23/2020 10:00:00 AM 14.34 57.812 0.044 8.1 2.96 9.72
10/23/2020 10:15:00 AM 14.38 57.884 0.045 8.1 2.67 9.79
10/23/2020 10:30:00 AM 14.41 57.938 0.045 8.11 2.94 9.82
10/23/2020 10:45:00 AM 14.46 58.028 0.045 8.12 2.48 9.91
10/23/2020 11:00:00 AM 14.53 58.154 0.044 8.13 2.55 10.04
10/23/2020 11:15:00 AM 14.62 58.316 0.045 8.15 2.45 10.16
10/23/2020 11:30:00 AM 14.73 58.514 0.044 8.17 2.36 10.33
10/23/2020 11:45:00 AM 14.82 58.676 0.045 8.19 3.41 10.47
10/23/2020 12:00:00 PM 14.94 58.892 0.044 8.21 5.39 10.56
10/23/2020 12:15:00 PM 15.04 59.072 0.046 8.23 3.13 10.72
10/23/2020 12:30:00 PM 15.21 59.378 0.046 8.26 3.93 10.9
10/23/2020 12:45:00 PM 15.33 59.594 0.045 8.28 3.15 11.01
10/23/2020 1:00:00 PM 15.5 59.9 0.045 8.31 2.63 11.19
10/23/2020 1:15:00 PM 15.62 60.116 0.046 8.32 2.7 11.3
10/23/2020 1:30:00 PM 15.79 60.422 0.047 8.34 2.49 11.43
10/23/2020 1:45:00 PM 15.92 60.656 0.048 8.36 3.01 11.51
10/23/2020 2:00:00 PM 16.05 60.89 0.047 8.38 2.83 11.63
10/23/2020 2:15:00 PM 16.18 61.124 0.049 8.39 2.98 11.69
10/23/2020 2:30:00 PM 16.3 61.34 0.049 8.41 2.99 11.76
10/23/2020 2:45:00 PM 16.37 61.466 0.049 8.41 4.32 11.79
10/23/2020 3:00:00 PM 16.5 61.7 0.048 8.43 2.39 11.87
10/23/2020 3:15:00 PM 16.52 61.736 0.049 8.44 2.33 11.88
10/23/2020 3:30:00 PM 16.57 61.826 0.05 8.45 2.37 11.92
10/23/2020 3:45:00 PM 16.58 61.844 0.05 8.45 2.55 11.96
10/23/2020 4:00:00 PM 16.65 61.97 0.052 8.47 3.18 12.07
10/23/2020 4:15:00 PM 16.66 61.988 0.051 8.48 2.39 12.09
10/23/2020 4:30:00 PM 16.67 62.006 0.051 8.48 2.33 12.06
10/23/2020 4:45:00 PM 16.67 62.006 0.053 8.48 2.3 12.06
10/23/2020 5:00:00 PM 16.68 62.024 0.052 8.48 2.9 12.05
10/23/2020 5:15:00 PM 16.71 62.078 0.05 8.49 2.39 12.09
10/23/2020 5:30:00 PM 16.72 62.096 0.049 8.49 2.35 12.09
10/23/2020 5:45:00 PM 16.73 62.114 0.05 8.5 2.31 12.11
10/23/2020 6:00:00 PM 16.75 62.15 0.051 8.5 2.49 12.12
10/23/2020 6:15:00 PM 16.74 62.132 0.051 8.5 2.12 12.04
10/23/2020 6:30:00 PM 16.72 62.096 0.052 8.5 2.34 11.99
10/23/2020 6:45:00 PM 16.73 62.114 0.052 8.5 2.12 11.97
10/23/2020 7:00:00 PM 16.71 62.078 0.051 8.49 2.49 11.88
10/23/2020 7:15:00 PM 16.72 62.096 0.051 8.5 2.83 11.9
10/23/2020 7:30:00 PM 16.67 62.006 0.05 8.48 2.38 11.76
10/23/2020 7:45:00 PM 16.68 62.024 0.049 8.48 2.58 11.72
10/23/2020 8:00:00 PM 16.66 61.988 0.049 8.46 2.8 11.62
10/23/2020 8:15:00 PM 16.66 61.988 0.05 8.47 2.72 11.62
10/23/2020 8:30:00 PM 16.63 61.934 0.048 8.46 2.33 11.48
10/23/2020 8:45:00 PM 16.61 61.898 0.049 8.45 2.97 11.39
10/23/2020 9:00:00 PM 16.59 61.862 0.048 8.43 2.91 11.31
10/23/2020 9:15:00 PM 16.57 61.826 0.05 8.42 2.91 11.19
10/23/2020 9:30:00 PM 16.53 61.754 0.048 8.41 2.66 11.08
10/23/2020 9:45:00 PM 16.48 61.664 0.048 8.39 2.45 10.92
10/23/2020 10:00:00 PM 16.49 61.682 0.047 8.39 2.87 10.91
10/23/2020 10:15:00 PM 16.45 61.61 0.046 8.37 3.16 10.81
10/23/2020 10:30:00 PM 16.42 61.556 0.048 8.36 2.84 10.73
10/23/2020 10:45:00 PM 16.39 61.502 0.046 8.35 2.65 10.64
10/23/2020 11:00:00 PM 16.37 61.466 0.047 8.33 2.74 10.56
10/23/2020 11:15:00 PM 16.34 61.412 0.047 8.33 2.93 10.52
10/23/2020 11:30:00 PM 16.3 61.34 0.046 8.31 3.49 10.45
10/23/2020 11:45:00 PM 16.26 61.268 0.046 8.3 3.19 10.35
10/24/2020 12:00:00 AM 16.22 61.196 0.045 8.29 2.69 10.28
10/24/2020 12:15:00 AM 16.18 61.124 0.045 8.28 2.77 10.23
10/24/2020 12:30:00 AM 16.14 61.052 0.045 8.27 3.51 10.13
10/24/2020 12:45:00 AM 16.11 60.998 0.045 8.25 5.62 10.07
10/24/2020 1:00:00 AM 16.08 60.944 0.044 8.24 3.39 10.02
10/24/2020 1:15:00 AM 16.04 60.872 0.043 8.23 5.37 9.94
10/24/2020 1:30:00 AM 16 60.8 0.042 8.22 3.36 9.91
10/24/2020 1:45:00 AM 15.97 60.746 0.043 8.21 3.58 9.84
10/24/2020 2:00:00 AM 15.93 60.674 0.042 8.21 3.19 9.8
10/24/2020 2:15:00 AM 15.9 60.62 0.042 8.2 9.47 9.73
10/24/2020 2:30:00 AM 15.88 60.584 0.042 8.19 3.11 9.67
10/24/2020 2:45:00 AM 15.87 60.566 0.041 8.18 3.48 9.63
10/24/2020 3:00:00 AM 15.85 60.53 0.041 8.17 3.26 9.59
10/24/2020 3:15:00 AM 15.85 60.53 0.041 8.16 3.16 9.54
10/24/2020 3:30:00 AM 15.84 60.512 0.041 8.15 4.05 9.48
10/24/2020 3:45:00 AM 15.83 60.494 0.041 8.15 3.34 9.46
10/24/2020 4:00:00 AM 15.82 60.476 0.041 8.14 3.23 9.39
10/24/2020 4:15:00 AM 15.83 60.494 0.042 8.14 3.86 9.4
10/24/2020 4:30:00 AM 15.83 60.494 0.042 8.14 3.42 9.36
10/24/2020 4:45:00 AM 15.84 60.512 0.042 8.13 3.28 9.34
10/24/2020 5:00:00 AM 15.84 60.512 0.043 8.13 3.59 9.29
10/24/2020 5:15:00 AM 15.85 60.53 0.042 8.12 4.28 9.29
10/24/2020 5:30:00 AM 15.86 60.548 0.042 8.12 3.64 9.23
10/24/2020 5:45:00 AM 15.87 60.566 0.042 8.11 3.48 9.19
10/24/2020 6:00:00 AM 15.89 60.602 0.042 8.11 3.15 9.15
10/24/2020 6:15:00 AM 15.9 60.62 0.044 8.11 3.16 9.14
10/24/2020 6:30:00 AM 15.9 60.62 0.041 8.1 3.67 9.12
10/24/2020 6:45:00 AM 15.88 60.584 0.042 8.11 3.64 9.14
10/24/2020 7:00:00 AM 15.88 60.584 0.041 8.11 4.2 9.13
10/24/2020 7:15:00 AM 15.85 60.53 0.042 8.1 3.82 9.09
10/24/2020 7:30:00 AM 15.84 60.512 0.042 8.1 3.74 9.06
10/24/2020 7:45:00 AM 15.82 60.476 0.042 8.1 3.67 9.02
10/24/2020 8:00:00 AM 15.8 60.44 0.042 8.09 4.28 9.01
10/24/2020 8:15:00 AM 15.79 60.422 0.041 8.1 3.98 9
10/24/2020 8:30:00 AM 15.76 60.368 0.043 8.09 3.46 8.97
10/24/2020 8:45:00 AM 15.73 60.314 0.042 8.09 3.12 8.99
10/24/2020 9:00:00 AM 15.73 60.314 0.043 8.09 3.25 9
10/24/2020 9:15:00 AM 15.72 60.296 0.043 8.1 2.92 9.03
10/24/2020 9:30:00 AM 15.69 60.242 0.042 8.09 2.92 9.01
10/24/2020 9:45:00 AM 15.66 60.188 0.042 8.1 3.17 9.03
10/24/2020 10:00:00 AM 15.64 60.152 0.041 8.1 4.37 9.07
10/24/2020 10:15:00 AM 15.63 60.134 0.042 8.11 2.9 9.1
10/24/2020 10:30:00 AM 15.61 60.098 0.041 8.11 2.69 9.15
10/24/2020 10:45:00 AM 15.61 60.098 0.04 8.12 2.79 9.22
10/24/2020 11:00:00 AM 15.58 60.044 0.04 8.13 2.77 9.29
10/24/2020 11:15:00 AM 15.56 60.008 0.041 8.14 2.6 9.43
10/24/2020 11:30:00 AM 15.58 60.044 0.041 8.15 2.78 9.54
10/24/2020 11:45:00 AM 15.56 60.008 0.041 8.17 2.78 9.66
10/24/2020 12:00:00 PM 15.56 60.008 0.041 8.19 4.01 9.79
10/24/2020 12:15:00 PM 15.53 59.954 0.043 8.2 2.89 9.89
10/24/2020 12:30:00 PM 15.52 59.936 0.042 8.22 2.73 10.02
10/24/2020 12:45:00 PM 15.53 59.954 0.043 8.23 2.65 10.17
10/24/2020 1:00:00 PM 15.52 59.936 0.041 8.26 2.81 10.34
10/24/2020 1:15:00 PM 15.5 59.9 0.041 8.28 3.11 10.46
10/24/2020 1:30:00 PM 15.51 59.918 0.041 8.3 2.44 10.66
10/24/2020 1:45:00 PM 15.51 59.918 0.041 8.31 2.52 10.77
10/24/2020 2:00:00 PM 15.51 59.918 0.041 8.34 2.62 10.96
10/24/2020 2:15:00 PM 15.51 59.918 0.042 8.36 2.29 11.1
10/24/2020 2:30:00 PM 15.52 59.936 0.042 8.37 2.71 11.17
10/24/2020 2:45:00 PM 15.52 59.936 0.043 8.39 2.52 11.33
10/24/2020 3:00:00 PM 15.52 59.936 0.042 8.41 2.5 11.49
10/24/2020 3:15:00 PM 15.51 59.918 0.042 8.42 2.56 11.58
10/24/2020 3:30:00 PM 15.5 59.9 0.041 8.44 2.47 11.71
10/24/2020 3:45:00 PM 15.48 59.864 0.04 8.46 2.45 11.81
10/24/2020 4:00:00 PM 15.45 59.81 0.04 8.47 2.54 11.88
10/24/2020 4:15:00 PM 15.42 59.756 0.041 8.48 2.75 11.94
10/24/2020 4:30:00 PM 15.38 59.684 0.04 8.49 2.54 12
10/24/2020 4:45:00 PM 15.34 59.612 0.039 8.5 2.43 12.06
10/24/2020 5:00:00 PM 15.29 59.522 0.039 8.5 3.28 12.08
10/24/2020 5:15:00 PM 15.27 59.486 0.039 8.51 2.76 12.12
10/24/2020 5:30:00 PM 15.23 59.414 0.039 8.51 2.35 12.15
10/24/2020 5:45:00 PM 15.18 59.324 0.038 8.52 2.29 12.14
10/24/2020 6:00:00 PM 15.13 59.234 0.039 8.51 2.99 12.1
10/24/2020 6:15:00 PM 15.08 59.144 0.039 8.51 2.59 12.06
10/24/2020 6:30:00 PM 15.04 59.072 0.039 8.51 2.67 12.05
10/24/2020 6:45:00 PM 14.99 58.982 0.037 8.5 2.99 11.95
10/24/2020 7:00:00 PM 14.94 58.892 0.037 8.5 2.66 11.87
10/24/2020 7:15:00 PM 14.88 58.784 0.038 8.49 2.84 11.79
10/24/2020 7:30:00 PM 14.84 58.712 0.038 8.48 2.71 11.72
10/24/2020 7:45:00 PM 14.79 58.622 0.037 8.47 2.75 11.62
10/24/2020 8:00:00 PM 14.74 58.532 0.037 8.46 2.96 11.54
10/24/2020 8:15:00 PM 14.69 58.442 0.039 8.45 2.74 11.44
10/24/2020 8:30:00 PM 14.65 58.37 0.038 8.44 2.83 11.37
10/24/2020 8:45:00 PM 14.61 58.298 0.037 8.43 3.02 11.3
10/24/2020 9:00:00 PM 14.57 58.226 0.037 8.42 2.78 11.2
10/24/2020 9:15:00 PM 14.53 58.154 0.037 8.4 3.13 11.11
10/24/2020 9:30:00 PM 14.48 58.064 0.037 8.39 3.08 11.01
10/24/2020 9:45:00 PM 14.43 57.974 0.038 8.38 3.64 10.93
10/24/2020 10:00:00 PM 14.41 57.938 0.038 8.37 3.12 10.86
10/24/2020 10:15:00 PM 14.37 57.866 0.038 8.36 2.85 10.8
10/24/2020 10:30:00 PM 14.33 57.794 0.037 8.34 3.32 10.68
10/24/2020 10:45:00 PM 14.3 57.74 0.036 8.34 3.59 10.64
10/24/2020 11:00:00 PM 14.27 57.686 0.038 8.33 3.41 10.58
10/24/2020 11:15:00 PM 14.25 57.65 0.038 8.32 3.21 10.51
10/24/2020 11:30:00 PM 14.21 57.578 0.037 8.31 3.15 10.48
10/24/2020 11:45:00 PM 14.18 57.524 0.038 8.3 4.01 10.42
10/25/2020 12:00:00 AM 14.14 57.452 0.038 8.29 3.17 10.36
10/25/2020 12:15:00 AM 14.11 57.398 0.037 8.28 3.49 10.31
10/25/2020 12:30:00 AM 14.06 57.308 0.037 8.28 3.57 10.26
10/25/2020 12:45:00 AM 14.02 57.236 0.037 8.27 4.09 10.19
10/25/2020 1:00:00 AM 13.96 57.128 0.036 8.26 3.29 10.16
10/25/2020 1:15:00 AM 13.9 57.02 0.036 8.25 4.13 10.12
10/25/2020 1:30:00 AM 13.84 56.912 0.038 8.24 4.52 10.06
10/25/2020 1:45:00 AM 13.79 56.822 0.038 8.23 3.83 10.03
10/25/2020 2:00:00 AM 13.73 56.714 0.037 8.22 6.55 9.96
10/25/2020 2:15:00 AM 13.66 56.588 0.036 8.21 15.69 9.92
10/25/2020 2:30:00 AM 13.61 56.498 0.036 8.21 3.39 9.89
10/25/2020 2:45:00 AM 13.55 56.39 0.036 8.2 3.09 9.86
10/25/2020 3:00:00 AM 13.49 56.282 0.036 8.19 3.41 9.82
10/25/2020 3:15:00 AM 13.42 56.156 0.036 8.19 3.43 9.78
10/25/2020 3:30:00 AM 13.38 56.084 0.036 8.18 3.23 9.77
10/25/2020 3:45:00 AM 13.32 55.976 0.036 8.18 4.32 9.72
10/25/2020 4:00:00 AM 13.27 55.886 0.035 8.17 3.51 9.71
10/25/2020 4:15:00 AM 13.21 55.778 0.036 8.17 3.49 9.69
10/25/2020 4:30:00 AM 13.15 55.67 0.037 8.17 3.43 9.66
10/25/2020 4:45:00 AM 13.11 55.598 0.036 8.16 3.28 9.64
10/25/2020 5:00:00 AM 13.06 55.508 0.037 8.16 3.23 9.65
10/25/2020 5:15:00 AM 13 55.4 0.036 8.16 3.52 9.62
10/25/2020 5:30:00 AM 12.96 55.328 0.036 8.15 7.06 9.61
10/25/2020 5:45:00 AM 12.9 55.22 0.036 8.15 4 9.6
10/25/2020 6:00:00 AM 12.86 55.148 0.035 8.15 3.15 9.61
10/25/2020 6:15:00 AM 12.82 55.076 0.036 8.15 3.94 9.6
10/25/2020 6:30:00 AM 12.79 55.022 0.035 8.15 3.51 9.61
10/25/2020 6:45:00 AM 12.76 54.968 0.035 8.15 3.4 9.59
10/25/2020 7:00:00 AM 12.73 54.914 0.035 8.14 3.33 9.58
10/25/2020 7:15:00 AM 12.69 54.842 0.035 8.14 3.16 9.57
10/25/2020 7:30:00 AM 12.66 54.788 0.035 8.14 6.14 9.54
10/25/2020 7:45:00 AM 12.63 54.734 0.035 8.14 3.55 9.53
10/25/2020 8:00:00 AM 12.6 54.68 0.036 8.14 4.08 9.52
10/25/2020 8:15:00 AM 12.57 54.626 0.036 8.14 3.7 9.52
10/25/2020 8:30:00 AM 12.54 54.572 0.036 8.13 4.18 9.53
10/25/2020 8:45:00 AM 12.52 54.536 0.036 8.13 3.27 9.51
10/25/2020 9:00:00 AM 12.51 54.518 0.037 8.13 3.21 9.53
10/25/2020 9:15:00 AM 12.5 54.5 0.039 8.13 4.18 9.55
10/25/2020 9:30:00 AM 12.5 54.5 0.038 8.14 2.86 9.62
10/25/2020 9:45:00 AM 12.51 54.518 0.037 8.14 3.87 9.68
10/25/2020 10:00:00 AM 12.52 54.536 0.038 8.15 3.06 9.73
10/25/2020 10:15:00 AM 12.54 54.572 0.038 8.16 2.88 9.81
10/25/2020 10:30:00 AM 12.55 54.59 0.038 8.17 3.05 9.9
10/25/2020 10:45:00 AM 12.56 54.608 0.038 8.18 2.68 10
10/25/2020 11:00:00 AM 12.59 54.662 0.038 8.19 3.17 10.12
10/25/2020 11:15:00 AM 12.6 54.68 0.039 8.21 2.52 10.26
10/25/2020 11:30:00 AM 12.61 54.698 0.039 8.22 2.75 10.37
10/25/2020 11:45:00 AM 12.6 54.68 0.039 8.24 2.47 10.51
10/25/2020 12:00:00 PM 12.58 54.644 0.038 8.26 3.03 10.64
10/25/2020 12:15:00 PM 12.6 54.68 0.038 8.28 2.68 10.79
10/25/2020 12:30:00 PM 12.67 54.806 0.038 8.3 8.65 10.97
10/25/2020 12:45:00 PM 12.7 54.86 0.039 8.32 2.66 11.11
10/25/2020 1:00:00 PM 12.74 54.932 0.039 8.34 2.44 11.24
10/25/2020 1:15:00 PM 12.81 55.058 0.039 8.36 2.51 11.39
10/25/2020 1:30:00 PM 12.9 55.22 0.039 8.37 2.42 11.53
10/25/2020 1:45:00 PM 12.95 55.31 0.04 8.39 2.65 11.66
10/25/2020 2:00:00 PM 12.99 55.382 0.041 8.4 2.85 11.8
10/25/2020 2:15:00 PM 13.13 55.634 0.041 8.43 2.34 11.96
10/25/2020 2:30:00 PM 13.23 55.814 0.041 8.44 2.32 12.06
10/25/2020 2:45:00 PM 13.31 55.958 0.039 8.46 2.26 12.26
10/25/2020 3:00:00 PM 13.41 56.138 0.041 8.48 2.5 12.4
10/25/2020 3:15:00 PM 13.47 56.246 0.04 8.49 2.53 12.5
10/25/2020 3:30:00 PM 13.52 56.336 0.04 8.5 2.45 12.6
10/25/2020 3:45:00 PM 13.57 56.426 0.042 8.52 2.9 12.7
10/25/2020 4:00:00 PM 13.59 56.462 0.04 8.53 2.48 12.8
10/25/2020 4:15:00 PM 13.62 56.516 0.043 8.54 2.5 12.87
10/25/2020 4:30:00 PM 13.66 56.588 0.042 8.56 2.41 12.94
10/25/2020 4:45:00 PM 13.67 56.606 0.041 8.56 2.48 13
10/25/2020 5:00:00 PM 13.67 56.606 0.042 8.57 2.47 13.03
10/25/2020 5:15:00 PM 13.67 56.606 0.042 8.57 2.49 13.05
10/25/2020 5:30:00 PM 13.66 56.588 0.041 8.58 2.55 13.07
10/25/2020 5:45:00 PM 13.66 56.588 0.041 8.58 2.4 13.08
10/25/2020 6:00:00 PM 13.66 56.588 0.041 8.58 2.49 13.07
10/25/2020 6:15:00 PM 13.64 56.552 0.041 8.58 2.67 13.02
10/25/2020 6:30:00 PM 13.62 56.516 0.042 8.57 2.32 12.96
10/25/2020 6:45:00 PM 13.6 56.48 0.042 8.57 2.49 12.89
10/25/2020 7:00:00 PM 13.56 56.408 0.041 8.56 2.82 12.83
10/25/2020 7:15:00 PM 13.55 56.39 0.041 8.56 3.04 12.79
10/25/2020 7:30:00 PM 13.52 56.336 0.04 8.55 3.05 12.7
10/25/2020 7:45:00 PM 13.49 56.282 0.04 8.55 3.77 12.62
10/25/2020 8:00:00 PM 13.46 56.228 0.039 8.54 2.9 12.53
10/25/2020 8:15:00 PM 13.41 56.138 0.041 8.53 2.97 12.44
10/25/2020 8:30:00 PM 13.38 56.084 0.041 8.52 2.9 12.33
10/25/2020 8:45:00 PM 13.37 56.066 0.04 8.51 2.86 12.23
10/25/2020 9:00:00 PM 13.33 55.994 0.04 8.49 3 12.14
10/25/2020 9:15:00 PM 13.31 55.958 0.041 8.48 3.19 12.07
10/25/2020 9:30:00 PM 13.29 55.922 0.04 8.47 3.28 11.98
10/25/2020 9:45:00 PM 13.27 55.886 0.041 8.46 2.83 11.87
10/25/2020 10:00:00 PM 13.24 55.832 0.041 8.45 3.2 11.81
10/25/2020 10:15:00 PM 13.21 55.778 0.04 8.44 2.88 11.7
10/25/2020 10:30:00 PM 13.19 55.742 0.04 8.43 2.99 11.66
10/25/2020 10:45:00 PM 13.16 55.688 0.04 8.42 2.96 11.57
10/25/2020 11:00:00 PM 13.13 55.634 0.041 8.41 3.4 11.51
10/25/2020 11:15:00 PM 13.11 55.598 0.042 8.39 3.09 11.44
10/25/2020 11:30:00 PM 13.08 55.544 0.04 8.39 3.03 11.4
10/25/2020 11:45:00 PM 13.05 55.49 0.04 8.37 3.08 11.32
10/26/2020 12:00:00 AM 13.02 55.436 0.04 8.36 3.83 11.27
10/26/2020 12:15:00 AM 12.97 55.346 0.039 8.35 3.32 11.22
10/26/2020 12:30:00 AM 12.92 55.256 0.038 8.35 3.31 11.16
10/26/2020 12:45:00 AM 12.89 55.202 0.038 8.33 3.52 11.09
10/26/2020 1:00:00 AM 12.84 55.112 0.038 8.33 3.24 11.04
10/26/2020 1:15:00 AM 12.82 55.076 0.038 8.32 3.52 10.97
10/26/2020 1:30:00 AM 12.78 55.004 0.039 8.3 3.18 10.9
10/26/2020 1:45:00 AM 12.74 54.932 0.038 8.3 2.97 10.86
10/26/2020 2:00:00 AM 12.72 54.896 0.038 8.28 4.59 10.8
10/26/2020 2:15:00 AM 12.68 54.824 0.039 8.27 3.36 10.73
10/26/2020 2:30:00 AM 12.65 54.77 0.037 8.27 3.53 10.68
10/26/2020 2:45:00 AM 12.62 54.716 0.038 8.25 3.45 10.61
10/26/2020 3:00:00 AM 12.58 54.644 0.039 8.24 3.38 10.56
10/26/2020 3:15:00 AM 12.56 54.608 0.04 8.23 3.5 10.5
10/26/2020 3:30:00 AM 12.54 54.572 0.039 8.22 3.47 10.44
10/26/2020 3:45:00 AM 12.51 54.518 0.039 8.22 3.68 10.4
10/26/2020 4:00:00 AM 12.49 54.482 0.039 8.21 3.39 10.37
10/26/2020 4:15:00 AM 12.48 54.464 0.042 8.2 4.01 10.33
10/26/2020 4:30:00 AM 12.46 54.428 0.042 8.2 3.53 10.29
10/26/2020 4:45:00 AM 12.44 54.392 0.042 8.19 3.62 10.27
10/26/2020 5:00:00 AM 12.43 54.374 0.042 8.19 3.62 10.24
10/26/2020 5:15:00 AM 12.42 54.356 0.042 8.18 3.65 10.21
10/26/2020 5:30:00 AM 12.41 54.338 0.043 8.17 3.37 10.18
10/26/2020 5:45:00 AM 12.4 54.32 0.043 8.17 3.36 10.16
10/26/2020 6:00:00 AM 12.39 54.302 0.042 8.17 3.37 10.16
10/26/2020 6:15:00 AM 12.39 54.302 0.043 8.17 3.62 10.13
10/26/2020 6:30:00 AM 12.38 54.284 0.042 8.17 3.51 10.12
10/26/2020 6:45:00 AM 12.37 54.266 0.043 8.16 3.39 10.11
10/26/2020 7:00:00 AM 12.38 54.284 0.042 8.17 3.42 10.1
10/26/2020 7:15:00 AM 12.38 54.284 0.043 8.17 3.36 10.1
10/26/2020 7:30:00 AM 12.37 54.266 0.044 8.16 3.48 10.07
10/26/2020 7:45:00 AM 12.37 54.266 0.044 8.16 4.73 10.05
10/26/2020 8:00:00 AM 12.38 54.284 0.044 8.16 3.74 10.03
10/26/2020 8:15:00 AM 12.37 54.266 0.043 8.16 3.34 10.04
10/26/2020 8:30:00 AM 12.38 54.284 0.044 8.16 3.79 10.03
10/26/2020 8:45:00 AM 12.38 54.284 0.043 8.16 4.27 10.03
10/26/2020 9:00:00 AM 12.38 54.284 0.045 8.16 3.53 10.02
10/26/2020 9:15:00 AM 12.38 54.284 0.042 8.16 3.48 10.04
10/26/2020 9:30:00 AM 12.39 54.302 0.043 8.16 3.1 10.04
10/26/2020 9:45:00 AM 12.4 54.32 0.043 8.16 2.93 10.04
10/26/2020 10:00:00 AM 12.4 54.32 0.044 8.17 3.29 10.07
10/26/2020 10:15:00 AM 12.41 54.338 0.044 8.17 3.09 10.1
10/26/2020 10:30:00 AM 12.41 54.338 0.043 8.17 3.83 10.13
10/26/2020 10:45:00 AM 12.42 54.356 0.044 8.19 2.94 10.22
10/26/2020 11:00:00 AM 12.45 54.41 0.045 8.19 2.62 10.29
10/26/2020 11:15:00 AM 12.47 54.446 0.044 8.2 2.9 10.35
10/26/2020 11:30:00 AM 12.49 54.482 0.044 8.21 2.89 10.43
10/26/2020 11:45:00 AM 12.51 54.518 0.045 8.21 2.69 10.48
10/26/2020 12:00:00 PM 12.51 54.518 0.044 8.23 2.61 10.55
10/26/2020 12:15:00 PM 12.52 54.536 0.044 8.24 2.51 10.63
10/26/2020 12:30:00 PM 12.53 54.554 0.044 8.25 2.61 10.77
10/26/2020 12:45:00 PM 12.55 54.59 0.045 8.27 2.65 10.88
10/26/2020 1:00:00 PM 12.58 54.644 0.042 8.28 2.7 10.97
10/26/2020 1:15:00 PM 12.6 54.68 0.044 8.29 2.62 11.09
10/26/2020 1:30:00 PM 12.61 54.698 0.043 8.3 4.68 11.16
10/26/2020 1:45:00 PM 12.63 54.734 0.043 8.32 2.66 11.28
10/26/2020 2:00:00 PM 12.64 54.752 0.044 8.33 2.61 11.36
10/26/2020 2:15:00 PM 12.66 54.788 0.043 8.35 2.67 11.46
10/26/2020 2:30:00 PM 12.67 54.806 0.042 8.36 3.02 11.57
10/26/2020 2:45:00 PM 12.68 54.824 0.043 8.37 2.59 11.6
10/26/2020 3:00:00 PM 12.69 54.842 0.044 8.37 2.51 11.72
10/26/2020 3:15:00 PM 12.72 54.896 0.044 8.38 2.8 11.77
10/26/2020 3:30:00 PM 12.73 54.914 0.043 8.38 3.26 11.82
10/26/2020 3:45:00 PM 12.75 54.95 0.044 8.4 2.48 11.89
10/26/2020 4:00:00 PM 12.76 54.968 0.044 8.4 2.61 11.94
10/26/2020 4:15:00 PM 12.76 54.968 0.044 8.41 2.51 11.99
10/26/2020 4:30:00 PM 12.76 54.968 0.044 8.42 2.52 12.02
10/26/2020 4:45:00 PM 12.76 54.968 0.043 8.42 2.54 12.04
10/26/2020 5:00:00 PM 12.75 54.95 0.043 8.42 2.73 12.04
10/26/2020 5:15:00 PM 12.75 54.95 0.044 8.42 2.71 12.04
10/26/2020 5:30:00 PM 12.74 54.932 0.044 8.43 4.29 12.06
10/26/2020 5:45:00 PM 12.74 54.932 0.044 8.43 2.81 12.05
10/26/2020 6:00:00 PM 12.73 54.914 0.043 8.43 3.05 12.05
10/26/2020 6:15:00 PM 12.73 54.914 0.043 8.43 2.65 12.04
10/26/2020 6:30:00 PM 12.72 54.896 0.043 8.43 2.67 12.02
10/26/2020 6:45:00 PM 12.72 54.896 0.043 8.42 2.78 12
10/26/2020 7:00:00 PM 12.71 54.878 0.043 8.42 3.21 11.95
10/26/2020 7:15:00 PM 12.7 54.86 0.044 8.41 3.16 11.92
10/26/2020 7:30:00 PM 12.69 54.842 0.043 8.41 3.06 11.84
10/26/2020 7:45:00 PM 12.67 54.806 0.043 8.4 2.85 11.78
10/26/2020 8:00:00 PM 12.64 54.752 0.043 8.39 3.13 11.73
10/26/2020 8:15:00 PM 12.62 54.716 0.043 8.39 3.27 11.68
10/26/2020 8:30:00 PM 12.6 54.68 0.043 8.38 3.09 11.61
10/26/2020 8:45:00 PM 12.58 54.644 0.043 8.37 3.26 11.55
10/26/2020 9:00:00 PM 12.56 54.608 0.043 8.36 3.05 11.49
10/26/2020 9:15:00 PM 12.54 54.572 0.041 8.36 3.1 11.43
10/26/2020 9:30:00 PM 12.52 54.536 0.043 8.35 3.14 11.37
10/26/2020 9:45:00 PM 12.5 54.5 0.046 8.34 3.06 11.32
10/26/2020 10:00:00 PM 12.48 54.464 0.047 8.33 3.59 11.25
10/26/2020 10:15:00 PM 12.45 54.41 0.05 8.32 3.18 11.2
10/26/2020 10:30:00 PM 12.43 54.374 0.05 8.32 3.56 11.16
10/26/2020 10:45:00 PM 12.41 54.338 0.05 8.31 3.79 11.11
10/26/2020 11:00:00 PM 12.4 54.32 0.049 8.3 3.94 11.06
10/26/2020 11:15:00 PM 12.38 54.284 0.05 8.29 3.47 11.02
10/26/2020 11:30:00 PM 12.36 54.248 0.051 8.28 3.51 10.96
10/26/2020 11:45:00 PM 12.33 54.194 0.051 8.28 4.36 10.92
10/27/2020 12:00:00 AM 12.31 54.158 0.051 8.27 5.67 10.87
10/27/2020 12:15:00 AM 12.28 54.104 0.051 8.26 3.66 10.84
10/27/2020 12:30:00 AM 12.26 54.068 0.049 8.26 3.29 10.82
10/27/2020 12:45:00 AM 12.24 54.032 0.05 8.24 6.78 10.75
10/27/2020 1:00:00 AM 12.22 53.996 0.05 8.24 5.35 10.71
10/27/2020 1:15:00 AM 12.2 53.96 0.05 8.23 4.55 10.67
10/27/2020 1:30:00 AM 12.18 53.924 0.049 8.23 4.18 10.65
10/27/2020 1:45:00 AM 12.16 53.888 0.05 8.22 4.32 10.61
10/27/2020 2:00:00 AM 12.13 53.834 0.05 8.22 4.64 10.58
10/27/2020 2:15:00 AM 12.11 53.798 0.051 8.21 4.58 10.53
10/27/2020 2:30:00 AM 12.09 53.762 0.05 8.2 3.88 10.51
10/27/2020 2:45:00 AM 12.06 53.708 0.05 8.2 4.16 10.48
10/27/2020 3:00:00 AM 12.04 53.672 0.049 8.19 3.86 10.45
10/27/2020 3:15:00 AM 12.03 53.654 0.051 8.18 3.84 10.4
10/27/2020 3:30:00 AM 12 53.6 0.049 8.18 3.97 10.37
10/27/2020 3:45:00 AM 11.99 53.582 0.05 8.17 3.65 10.35
10/27/2020 4:00:00 AM 11.98 53.564 0.049 8.17 3.86 10.32
10/27/2020 4:15:00 AM 11.95 53.51 0.048 8.16 4.05 10.27
10/27/2020 4:30:00 AM 11.94 53.492 0.049 8.16 4.72 10.26
10/27/2020 4:45:00 AM 11.92 53.456 0.047 8.16 4.71 10.25
10/27/2020 5:00:00 AM 11.91 53.438 0.049 8.15 4.81 10.22
10/27/2020 5:15:00 AM 11.89 53.402 0.048 8.15 4.9 10.2
10/27/2020 5:30:00 AM 11.87 53.366 0.047 8.14 5.06 10.17
10/27/2020 5:45:00 AM 11.86 53.348 0.048 8.14 5 10.16
10/27/2020 6:00:00 AM 11.83 53.294 0.048 8.14 4.28 10.15
10/27/2020 6:15:00 AM 11.81 53.258 0.049 8.14 4.59 10.15
10/27/2020 6:30:00 AM 11.79 53.222 0.049 8.14 4.42 10.13
10/27/2020 6:45:00 AM 11.78 53.204 0.048 8.14 5.4 10.12
10/27/2020 7:00:00 AM 11.77 53.186 0.049 8.14 4.77 10.1
10/27/2020 7:15:00 AM 11.75 53.15 0.048 8.14 3.96 10.12
10/27/2020 7:30:00 AM 11.74 53.132 0.048 8.13 5.25 10.07
10/27/2020 7:45:00 AM 11.72 53.096 0.048 8.13 3.95 10.06
10/27/2020 8:00:00 AM 11.71 53.078 0.049 8.13 4.34 10.08
10/27/2020 8:15:00 AM 11.7 53.06 0.047 8.14 3.97 10.09
10/27/2020 8:30:00 AM 11.69 53.042 0.047 8.14 3.3 10.1
10/27/2020 8:45:00 AM 11.69 53.042 0.047 8.14 3.35 10.13
10/27/2020 9:00:00 AM 11.69 53.042 0.047 8.14 3.37 10.13
10/27/2020 9:15:00 AM 11.69 53.042 0.046 8.15 3.56 10.21
10/27/2020 9:30:00 AM 11.69 53.042 0.047 8.15 3.31 10.24
10/27/2020 9:45:00 AM 11.7 53.06 0.047 8.16 3.21 10.3
10/27/2020 10:00:00 AM 11.7 53.06 0.047 8.17 3.33 10.36
10/27/2020 10:15:00 AM 11.72 53.096 0.047 8.18 3.24 10.45
10/27/2020 10:30:00 AM 11.76 53.168 0.046 8.19 3.68 10.55
10/27/2020 10:45:00 AM 11.76 53.168 0.047 8.2 2.9 10.61
10/27/2020 11:00:00 AM 11.79 53.222 0.047 8.21 3.8 10.74
10/27/2020 11:15:00 AM 11.82 53.276 0.047 8.23 3.19 10.84
10/27/2020 11:30:00 AM 11.86 53.348 0.048 8.25 3.33 11
10/27/2020 11:45:00 AM 11.89 53.402 0.048 8.26 3.2 11.14
10/27/2020 12:00:00 PM 11.91 53.438 0.047 8.28 2.9 11.26
10/27/2020 12:15:00 PM 11.95 53.51 0.047 8.31 2.9 11.46
10/27/2020 12:30:00 PM 11.98 53.564 0.045 8.32 2.85 11.58
10/27/2020 12:45:00 PM 12.02 53.636 0.046 8.35 2.63 11.74
10/27/2020 1:00:00 PM 12.05 53.69 0.046 8.37 2.87 11.93
10/27/2020 1:15:00 PM 12.08 53.744 0.046 8.39 2.72 12.09
10/27/2020 1:30:00 PM 12.11 53.798 0.045 8.41 2.79 12.24
10/27/2020 1:45:00 PM 12.14 53.852 0.042 8.43 2.66 12.41
10/27/2020 2:00:00 PM 12.15 53.87 0.041 8.45 2.58 12.52
10/27/2020 2:15:00 PM 12.17 53.906 0.04 8.46 2.65 12.65
10/27/2020 2:30:00 PM 12.19 53.942 0.039 8.48 2.58 12.79
10/27/2020 2:45:00 PM -99999.99 -179968 -99999.99 -99999.99 -99999.99 -99999.99
10/27/2020 3:00:00 PM 12.18 53.924 0.349 8.31 4.64 12.13
10/27/2020 3:15:00 PM 12.17 53.906 0.539 8.34 3.49 12.26
10/27/2020 3:30:00 PM 12.17 53.906 0.539 8.36 3.21 12.34
10/27/2020 3:45:00 PM 12.18 53.924 0.539 8.37 3.25 12.4
10/27/2020 4:00:00 PM 12.18 53.924 0.539 8.39 2.78 12.49
10/27/2020 4:15:00 PM 12.18 53.924 0.539 8.4 2.69 12.52
10/27/2020 4:30:00 PM 12.18 53.924 0.539 8.4 2.65 12.55
10/27/2020 4:45:00 PM 12.17 53.906 0.539 8.4 3.16 12.55
10/27/2020 5:00:00 PM 12.16 53.888 0.539 8.41 3.33 12.58
10/27/2020 5:15:00 PM 12.15 53.87 0.539 8.4 2.85 12.57
10/27/2020 5:30:00 PM 12.12 53.816 0.539 8.41 2.65 12.56
10/27/2020 5:45:00 PM 12.1 53.78 0.539 8.4 2.57 12.52
10/27/2020 6:00:00 PM 12.07 53.726 0.54 8.4 2.74 12.47
10/27/2020 6:15:00 PM 12.05 53.69 0.54 8.4 2.69 12.44
10/27/2020 6:30:00 PM 12.02 53.636 0.54 8.4 2.65 12.38
10/27/2020 6:45:00 PM 11.99 53.582 0.54 8.39 2.64 12.33
10/27/2020 7:00:00 PM 11.97 53.546 0.54 8.39 3.1 12.28
10/27/2020 7:15:00 PM 11.94 53.492 0.54 8.38 2.69 12.22
10/27/2020 7:30:00 PM 11.92 53.456 0.54 8.37 2.82 12.16
10/27/2020 7:45:00 PM 11.89 53.402 0.54 8.36 2.85 12.11
10/27/2020 8:00:00 PM 11.86 53.348 0.54 8.35 2.86 12.03
10/27/2020 8:15:00 PM 11.84 53.312 0.54 8.35 2.99 11.96
10/27/2020 8:30:00 PM 11.82 53.276 0.54 8.34 3.06 11.88
10/27/2020 8:45:00 PM 11.8 53.24 0.54 8.33 3.11 11.81
10/27/2020 9:00:00 PM 11.77 53.186 0.54 8.32 3.19 11.74
10/27/2020 9:15:00 PM 11.75 53.15 0.54 8.3 2.95 11.68
10/27/2020 9:30:00 PM 11.73 53.114 0.54 8.3 3.45 11.57
10/27/2020 9:45:00 PM 11.71 53.078 0.54 8.29 3.1 11.55
10/27/2020 10:00:00 PM 11.68 53.024 0.54 8.28 3.27 11.46
10/27/2020 10:15:00 PM 11.66 52.988 0.54 8.27 3.36 11.39
10/27/2020 10:30:00 PM 11.63 52.934 0.54 8.25 3.36 11.32
10/27/2020 10:45:00 PM 11.61 52.898 0.54 8.25 3.37 11.27
10/27/2020 11:00:00 PM 11.58 52.844 0.541 8.24 3.33 11.19
10/27/2020 11:15:00 PM 11.56 52.808 0.541 8.22 3.31 11.13
10/27/2020 11:30:00 PM 11.53 52.754 0.541 8.21 3.8 11.07
10/27/2020 11:45:00 PM 11.51 52.718 0.541 8.21 3.5 11
10/28/2020 12:00:00 AM 11.48 52.664 0.541 8.19 3.63 10.94
10/28/2020 12:15:00 AM 11.46 52.628 0.541 8.18 3.4 10.88
10/28/2020 12:30:00 AM 11.43 52.574 0.541 8.17 3.73 10.84
10/28/2020 12:45:00 AM 11.41 52.538 0.541 8.16 3.9 10.78
10/28/2020 1:00:00 AM 11.38 52.484 0.541 8.15 3.77 10.74
10/28/2020 1:15:00 AM 11.36 52.448 0.541 8.14 3.7 10.68
10/28/2020 1:30:00 AM 11.34 52.412 0.541 8.13 3.65 10.64
10/28/2020 1:45:00 AM 11.32 52.376 0.542 8.13 3.88 10.59
10/28/2020 2:00:00 AM 11.3 52.34 0.542 8.12 3.51 10.56
10/28/2020 2:15:00 AM 11.28 52.304 0.542 8.1 3.44 10.5
10/28/2020 2:30:00 AM 11.25 52.25 0.542 8.1 3.42 10.46
10/28/2020 2:45:00 AM 11.24 52.232 0.541 8.09 3.8 10.42
10/28/2020 3:00:00 AM 11.22 52.196 0.542 8.08 3.51 10.38
10/28/2020 3:15:00 AM 11.2 52.16 0.541 8.07 3.73 10.34
10/28/2020 3:30:00 AM 11.18 52.124 0.541 8.06 3.56 10.3
10/28/2020 3:45:00 AM 11.16 52.088 0.542 8.06 3.74 10.26
10/28/2020 4:00:00 AM 11.14 52.052 0.541 8.05 3.96 10.23
10/28/2020 4:15:00 AM 11.13 52.034 0.541 8.04 3.39 10.2
10/28/2020 4:30:00 AM 11.11 51.998 0.541 8.04 4.14 10.17
10/28/2020 4:45:00 AM 11.09 51.962 0.54 8.03 3.62 10.15
10/28/2020 5:00:00 AM 11.08 51.944 0.54 8.03 3.54 10.12
10/28/2020 5:15:00 AM 11.07 51.926 0.541 8.02 3.62 10.1
10/28/2020 5:30:00 AM 11.05 51.89 0.54 8.02 3.79 10.08
10/28/2020 5:45:00 AM 11.03 51.854 0.539 8.01 3.51 10.07
10/28/2020 6:00:00 AM 11.02 51.836 0.54 8.02 3.66 10.06
10/28/2020 6:15:00 AM 11.01 51.818 0.539 8.01 3.72 10.05
10/28/2020 6:30:00 AM 11 51.8 0.539 8.01 3.95 10.02
10/28/2020 6:45:00 AM 10.98 51.764 0.539 8.01 3.95 10.02
10/28/2020 7:00:00 AM 10.98 51.764 0.539 8 11.85 9.98
10/28/2020 7:15:00 AM 10.96 51.728 0.539 8 4.3 9.99
10/28/2020 7:30:00 AM 10.95 51.71 0.539 8 4.42 9.98
10/28/2020 7:45:00 AM 10.95 51.71 0.539 8 4.14 9.97
10/28/2020 8:00:00 AM 10.94 51.692 0.539 8 4.18 9.97
10/28/2020 8:15:00 AM 10.93 51.674 0.539 8 3.56 9.95
10/28/2020 8:30:00 AM 10.92 51.656 0.539 7.99 3.57 9.95
10/28/2020 8:45:00 AM 10.92 51.656 0.54 7.99 3.27 9.96
10/28/2020 9:00:00 AM 10.92 51.656 0.539 8 3.97 9.96
10/28/2020 9:15:00 AM 10.92 51.656 0.539 8 3.02 9.97
10/28/2020 9:30:00 AM 10.93 51.674 0.539 8 3.2 9.99
10/28/2020 9:45:00 AM 10.93 51.674 0.539 8 3 10.01
10/28/2020 10:00:00 AM 10.94 51.692 0.539 8.01 3.17 10.06
10/28/2020 10:15:00 AM 10.94 51.692 0.54 8.01 3 10.08
10/28/2020 10:30:00 AM 10.95 51.71 0.54 8.02 3.87 10.13
10/28/2020 10:45:00 AM 10.96 51.728 0.539 8.02 3.22 10.18
10/28/2020 11:00:00 AM 10.98 51.764 0.54 8.03 2.98 10.24
10/28/2020 11:15:00 AM 11.01 51.818 0.539 8.04 2.74 10.33
10/28/2020 11:30:00 AM 11.03 51.854 0.54 8.05 2.78 10.44
10/28/2020 11:45:00 AM 11.04 51.872 0.539 8.06 3.2 10.49
10/28/2020 12:00:00 PM 11.08 51.944 0.54 8.07 2.81 10.6
10/28/2020 12:15:00 PM 11.12 52.016 0.539 8.09 3.01 10.71
10/28/2020 12:30:00 PM 11.15 52.07 0.539 8.11 2.87 10.82
10/28/2020 12:45:00 PM 11.16 52.088 0.539 8.12 2.67 10.91
10/28/2020 1:00:00 PM 11.17 52.106 0.539 8.13 2.81 11.04
10/28/2020 1:15:00 PM 11.2 52.16 0.539 8.15 2.85 11.13
10/28/2020 1:30:00 PM 11.23 52.214 0.539 8.16 2.79 11.25
10/28/2020 1:45:00 PM 11.27 52.286 0.538 8.18 2.86 11.39
10/28/2020 2:00:00 PM 11.3 52.34 0.538 8.2 2.95 11.48
10/28/2020 2:15:00 PM 11.31 52.358 0.538 8.2 2.87 11.59
10/28/2020 2:30:00 PM 11.35 52.43 0.538 8.23 2.85 11.69
10/28/2020 2:45:00 PM 11.38 52.484 0.538 8.24 2.88 11.78
10/28/2020 3:00:00 PM 11.41 52.538 0.537 8.25 2.75 11.9
10/28/2020 3:15:00 PM 11.44 52.592 0.537 8.27 3.4 12
10/28/2020 3:30:00 PM 11.47 52.646 0.537 8.28 2.93 12.1
10/28/2020 3:45:00 PM 11.49 52.682 0.537 8.29 2.7 12.18
10/28/2020 4:00:00 PM 11.5 52.7 0.536 8.3 2.73 12.28
10/28/2020 4:15:00 PM 11.48 52.664 0.536 8.32 2.64 12.34
10/28/2020 4:30:00 PM 11.49 52.682 0.536 8.33 2.64 12.41
10/28/2020 4:45:00 PM 11.49 52.682 0.536 8.34 2.79 12.47
10/28/2020 5:00:00 PM 11.47 52.646 0.535 8.35 2.84 12.51
10/28/2020 5:15:00 PM 11.47 52.646 0.535 8.35 2.77 12.58
10/28/2020 5:30:00 PM 11.46 52.628 0.535 8.36 2.74 12.63
10/28/2020 5:45:00 PM 11.44 52.592 0.535 8.37 2.68 12.67
10/28/2020 6:00:00 PM 11.42 52.556 0.535 8.37 2.43 12.69
10/28/2020 6:15:00 PM 11.39 52.502 0.535 8.38 2.72 12.69
10/28/2020 6:30:00 PM 11.36 52.448 0.534 8.38 2.59 12.68
10/28/2020 6:45:00 PM 11.34 52.412 0.534 8.38 2.63 12.67
10/28/2020 7:00:00 PM 11.31 52.358 0.534 8.38 3.02 12.65
10/28/2020 7:15:00 PM 11.29 52.322 0.534 8.38 2.98 12.61
10/28/2020 7:30:00 PM 11.26 52.268 0.534 8.38 2.91 12.56
10/28/2020 7:45:00 PM 11.23 52.214 0.534 8.37 3.12 12.52
10/28/2020 8:00:00 PM 11.19 52.142 0.534 8.36 2.9 12.46
10/28/2020 8:15:00 PM 11.16 52.088 0.534 8.35 5.9 12.39
10/28/2020 8:30:00 PM 11.12 52.016 0.534 8.35 5.02 12.29
10/28/2020 8:45:00 PM 11.09 51.962 0.533 8.34 4.09 12.23
10/28/2020 9:00:00 PM 11.05 51.89 0.534 8.32 6.44 12.14
10/28/2020 9:15:00 PM 11.02 51.836 0.533 8.31 9.03 12.05
10/28/2020 9:30:00 PM 10.98 51.764 0.534 8.3 3.66 11.98
10/28/2020 9:45:00 PM 10.94 51.692 0.533 8.29 3.58 11.89
10/28/2020 10:00:00 PM 10.91 51.638 0.533 8.28 3.59 11.82
10/28/2020 10:15:00 PM 10.87 51.566 0.533 8.27 3.96 11.75
10/28/2020 10:30:00 PM 10.84 51.512 0.533 8.26 3.79 11.69
10/28/2020 10:45:00 PM 10.81 51.458 0.533 8.25 4.19 11.63
10/28/2020 11:00:00 PM 10.77 51.386 0.533 8.24 3.72 11.57
10/28/2020 11:15:00 PM 10.74 51.332 0.533 8.23 3.56 11.52
10/28/2020 11:30:00 PM 10.72 51.296 0.533 8.23 3.33 11.47
10/28/2020 11:45:00 PM 10.69 51.242 0.532 8.21 3.41 11.42
10/29/2020 12:00:00 AM 10.67 51.206 0.532 8.21 3.49 11.36
10/29/2020 12:15:00 AM 10.64 51.152 0.532 8.19 3.61 11.32
10/29/2020 12:30:00 AM 10.61 51.098 0.532 8.18 3.33 11.25
10/29/2020 12:45:00 AM 10.58 51.044 0.532 8.18 3.26 11.2
10/29/2020 1:00:00 AM 10.55 50.99 0.532 8.17 3.69 11.15
10/29/2020 1:15:00 AM 10.52 50.936 0.532 8.15 3.37 11.08
10/29/2020 1:30:00 AM 10.49 50.882 0.532 8.15 3.4 11.03
10/29/2020 1:45:00 AM 10.46 50.828 0.532 8.14 3.34 10.99
10/29/2020 2:00:00 AM 10.44 50.792 0.531 8.12 14.17 10.91
10/29/2020 2:15:00 AM 10.41 50.738 0.531 8.11 4.37 10.87
10/29/2020 2:30:00 AM 10.39 50.702 0.531 8.1 3.91 10.81
10/29/2020 2:45:00 AM 10.36 50.648 0.531 8.1 3.52 10.76
10/29/2020 3:00:00 AM 10.33 50.594 0.531 8.09 3.48 10.71
10/29/2020 3:15:00 AM 10.31 50.558 0.531 8.08 3.66 10.65
10/29/2020 3:30:00 AM 10.29 50.522 0.531 8.07 3.28 10.61
10/29/2020 3:45:00 AM 10.27 50.486 0.531 8.06 3.48 10.56
10/29/2020 4:00:00 AM 10.25 50.45 0.531 8.05 3.96 10.52
10/29/2020 4:15:00 AM 10.24 50.432 0.53 8.05 3.76 10.5
10/29/2020 4:30:00 AM 10.22 50.396 0.53 8.04 3.39 10.45
10/29/2020 4:45:00 AM 10.2 50.36 0.53 8.04 3.47 10.43
10/29/2020 5:00:00 AM 10.19 50.342 0.53 8.03 3.36 10.41
10/29/2020 5:15:00 AM 10.18 50.324 0.53 8.03 3.59 10.39
10/29/2020 5:30:00 AM 10.17 50.306 0.53 8.02 3.39 10.36
10/29/2020 5:45:00 AM 10.16 50.288 0.53 8.02 3.58 10.34
10/29/2020 6:00:00 AM 10.15 50.27 0.529 8.01 3.66 10.32
10/29/2020 6:15:00 AM 10.13 50.234 0.529 8.01 4.16 10.29
10/29/2020 6:30:00 AM 10.13 50.234 0.529 8.01 3.46 10.28
10/29/2020 6:45:00 AM 10.12 50.216 0.528 8 4.35 10.24
10/29/2020 7:00:00 AM 10.12 50.216 0.528 8 3.45 10.25
10/29/2020 7:15:00 AM 10.11 50.198 0.528 8 3.42 10.24
10/29/2020 7:30:00 AM 10.1 50.18 0.527 8 3.33 10.23
10/29/2020 7:45:00 AM 10.1 50.18 0.527 8 3.19 10.22
10/29/2020 8:00:00 AM 10.1 50.18 0.527 8 3.52 10.21
10/29/2020 8:15:00 AM 10.09 50.162 0.526 7.99 4.03 10.21
10/29/2020 8:30:00 AM 10.09 50.162 0.526 8 3.34 10.2
10/29/2020 8:45:00 AM 10.09 50.162 0.525 7.99 3.15 10.19
10/29/2020 9:00:00 AM 10.08 50.144 0.525 7.99 2.9 10.19
10/29/2020 9:15:00 AM 10.09 50.162 0.525 7.99 3.1 10.18
10/29/2020 9:30:00 AM 10.08 50.144 0.524 7.99 4.49 10.19
10/29/2020 9:45:00 AM 10.08 50.144 0.524 7.99 3.1 10.21
10/29/2020 10:00:00 AM 10.08 50.144 0.523 7.99 3.11 10.22
10/29/2020 10:15:00 AM 10.07 50.126 0.522 7.99 2.95 10.25
10/29/2020 10:30:00 AM 10.06 50.108 0.521 7.99 3.1 10.27
10/29/2020 10:45:00 AM 10.06 50.108 0.52 8 2.82 10.31
10/29/2020 11:00:00 AM 10.05 50.09 0.518 8 2.63 10.34
10/29/2020 11:15:00 AM 10.04 50.072 0.518 8 3 10.37
10/29/2020 11:30:00 AM 10.04 50.072 0.517 8.01 2.95 10.43
10/29/2020 11:45:00 AM 10.04 50.072 0.516 8.01 3.05 10.47
10/29/2020 12:00:00 PM 10.03 50.054 0.514 8.02 3.01 10.51
10/29/2020 12:15:00 PM 10.02 50.036 0.514 8.02 2.98 10.54
10/29/2020 12:30:00 PM 10.03 50.054 0.513 8.03 2.93 10.61
10/29/2020 12:45:00 PM 10.03 50.054 0.512 8.03 2.7 10.65
10/29/2020 1:00:00 PM 10.03 50.054 0.512 8.04 2.75 10.71
10/29/2020 1:15:00 PM 10.04 50.072 0.512 8.05 2.88 10.76
10/29/2020 1:30:00 PM 10.04 50.072 0.512 8.05 3.04 10.8
10/29/2020 1:45:00 PM 10.05 50.09 0.511 8.03 3.75 10.81
10/29/2020 2:00:00 PM 10.05 50.09 0.511 8.02 4.57 10.82
10/29/2020 2:15:00 PM 10.06 50.108 0.511 8.01 4.75 10.84
10/29/2020 2:30:00 PM 10.07 50.126 0.511 7.99 4.48 10.84
10/29/2020 2:45:00 PM 10.08 50.144 0.511 7.97 4.22 10.87
10/29/2020 3:00:00 PM 10.08 50.144 0.512 7.96 5.36 10.9
10/29/2020 3:15:00 PM 10.08 50.144 0.511 7.94 4.23 10.91
10/29/2020 3:30:00 PM 10.07 50.126 0.509 7.94 3.83 10.95
10/29/2020 3:45:00 PM 10.07 50.126 0.509 7.93 4.13 10.95
10/29/2020 4:00:00 PM 10.06 50.108 0.507 7.94 4.25 10.96
10/29/2020 4:15:00 PM 10.07 50.126 0.506 7.91 3.86 10.91
10/29/2020 4:30:00 PM 10.08 50.144 0.505 7.88 4.06 10.86
10/29/2020 4:45:00 PM 10.09 50.162 0.504 7.86 4.14 10.8
10/29/2020 5:00:00 PM 10.09 50.162 0.503 7.84 5.04 10.76
10/29/2020 5:15:00 PM 10.1 50.18 0.5 7.8 7.94 10.69
10/29/2020 5:30:00 PM 10.1 50.18 0.498 7.74 14.16 10.61
10/29/2020 5:45:00 PM 10.11 50.198 0.496 7.71 15.59 10.54
10/29/2020 6:00:00 PM 10.12 50.216 0.494 7.69 15.06 10.49
10/29/2020 6:15:00 PM 10.11 50.198 0.491 7.69 14.59 10.46
10/29/2020 6:30:00 PM 10.09 50.162 0.488 7.68 12.76 10.42
10/29/2020 6:45:00 PM 10.08 50.144 0.484 7.67 14.92 10.38
10/29/2020 7:00:00 PM 10.06 50.108 0.48 7.66 16.07 10.34
10/29/2020 7:15:00 PM 10.04 50.072 0.476 7.64 16.29 10.29
10/29/2020 7:30:00 PM 10.03 50.054 0.473 7.62 18.48 10.25
10/29/2020 7:45:00 PM 10.02 50.036 0.471 7.62 18.39 10.22
10/29/2020 8:00:00 PM 10.01 50.018 0.471 7.62 15.82 10.18
10/29/2020 8:15:00 PM 10.01 50.018 0.47 7.61 15.98 10.14
10/29/2020 8:30:00 PM 10 50 0.472 7.61 14.51 10.12
10/29/2020 8:45:00 PM 10 50 0.474 7.62 12.48 10.11
10/29/2020 9:00:00 PM 10 50 0.477 7.63 13.4 10.09
10/29/2020 9:15:00 PM 10 50 0.479 7.64 12.07 10.08
10/29/2020 9:30:00 PM 10 50 0.482 7.64 11.27 10.06
10/29/2020 9:45:00 PM 9.99 49.982 0.483 7.64 17.22 10.03
10/29/2020 10:00:00 PM 9.98 49.964 0.485 7.65 9.4 10.02
10/29/2020 10:15:00 PM 9.97 49.946 0.486 7.66 8.37 10.01
10/29/2020 10:30:00 PM 9.96 49.928 0.487 7.66 8.46 9.98
10/29/2020 10:45:00 PM 9.95 49.91 0.488 7.66 7.34 9.96
10/29/2020 11:00:00 PM 9.93 49.874 0.489 7.66 6.85 9.94
10/29/2020 11:15:00 PM 9.92 49.856 0.49 7.67 6.95 9.94
10/29/2020 11:30:00 PM 9.9 49.82 0.491 7.68 5.99 9.95
10/29/2020 11:45:00 PM 9.89 49.802 0.491 7.68 6.52 9.94
10/30/2020 12:00:00 AM 9.88 49.784 0.492 7.69 6.14 9.94
10/30/2020 12:15:00 AM 9.87 49.766 0.493 7.69 5.92 9.93
10/30/2020 12:30:00 AM 9.86 49.748 0.493 7.69 5.93 9.91
10/30/2020 12:45:00 AM 9.84 49.712 0.494 7.69 5.74 9.91
10/30/2020 1:00:00 AM 9.83 49.694 0.494 7.69 6.15 9.89
10/30/2020 1:15:00 AM 9.82 49.676 0.494 7.69 5.2 9.86
10/30/2020 1:30:00 AM 9.8 49.64 0.494 7.7 5.09 9.87
10/30/2020 1:45:00 AM 9.79 49.622 0.494 7.7 5.77 9.87
10/30/2020 2:00:00 AM 9.78 49.604 0.495 7.71 5 9.88
10/30/2020 2:15:00 AM 9.76 49.568 0.495 7.71 4.88 9.87
10/30/2020 2:30:00 AM 9.74 49.532 0.495 7.71 5.31 9.87
10/30/2020 2:45:00 AM 9.71 49.478 0.494 7.71 5.11 9.86
10/30/2020 3:00:00 AM 9.69 49.442 0.494 7.72 5.32 9.87
10/30/2020 3:15:00 AM 9.68 49.424 0.495 7.72 4.97 9.86
10/30/2020 3:30:00 AM 9.66 49.388 0.495 7.72 5.13 9.88
10/30/2020 3:45:00 AM 9.65 49.37 0.495 7.73 5 9.89
10/30/2020 4:00:00 AM 9.63 49.334 0.495 7.73 5.15 9.89
10/30/2020 4:15:00 AM 9.6 49.28 0.495 7.74 4.83 9.91
10/30/2020 4:30:00 AM 9.58 49.244 0.494 7.74 5.06 9.89
10/30/2020 4:45:00 AM 9.56 49.208 0.495 7.73 5.45 9.89
10/30/2020 5:00:00 AM 9.53 49.154 0.495 7.73 4.76 9.88
10/30/2020 5:15:00 AM 9.52 49.136 0.495 7.72 5.85 9.88
10/30/2020 5:30:00 AM 9.49 49.082 0.495 7.73 5.12 9.89
10/30/2020 5:45:00 AM 9.46 49.028 0.495 7.73 5.63 9.89
10/30/2020 6:00:00 AM 9.44 48.992 0.496 7.74 4.82 9.9
10/30/2020 6:15:00 AM 9.42 48.956 0.496 7.73 4.65 9.88
10/30/2020 6:30:00 AM 9.41 48.938 0.496 7.73 4.64 9.87
10/30/2020 6:45:00 AM 9.39 48.902 0.497 7.72 5.27 9.85
10/30/2020 7:00:00 AM 9.38 48.884 0.497 7.7 5.02 9.81
10/30/2020 7:15:00 AM 9.37 48.866 0.497 7.69 4.72 9.77
10/30/2020 7:30:00 AM 9.36 48.848 0.498 7.68 4.74 9.75
10/30/2020 7:45:00 AM 9.35 48.83 0.499 7.68 4.67 9.75
10/30/2020 8:00:00 AM 9.33 48.794 0.499 7.67 4.73 9.73
10/30/2020 8:15:00 AM 9.31 48.758 0.499 7.66 4.58 9.7
10/30/2020 8:30:00 AM 9.29 48.722 0.499 7.66 4.37 9.71
10/30/2020 8:45:00 AM 9.27 48.686 0.5 7.67 5.22 9.74
10/30/2020 9:00:00 AM 9.25 48.65 0.5 7.66 4.94 9.74
10/30/2020 9:15:00 AM 9.23 48.614 0.501 7.67 4.36 9.77
10/30/2020 9:30:00 AM 9.22 48.596 0.501 7.66 4.79 9.76
10/30/2020 9:45:00 AM 9.21 48.578 0.501 7.66 4.16 9.79
10/30/2020 10:00:00 AM 9.19 48.542 0.502 7.67 4.31 9.84
10/30/2020 10:15:00 AM 9.17 48.506 0.502 7.67 3.94 9.87
10/30/2020 10:30:00 AM 9.16 48.488 0.503 7.68 4.2 9.93
10/30/2020 10:45:00 AM 9.14 48.452 0.504 7.7 4.54 9.98
10/30/2020 11:00:00 AM 9.13 48.434 0.504 7.71 4.38 10.1
10/30/2020 11:15:00 AM 9.13 48.434 0.505 7.73 3.9 10.18
10/30/2020 11:30:00 AM 9.13 48.434 0.505 7.75 4.49 10.28
10/30/2020 11:45:00 AM 9.13 48.434 0.506 7.78 5.23 10.38
10/30/2020 12:00:00 PM 9.13 48.434 0.507 7.8 3.79 10.49
10/30/2020 12:15:00 PM 9.12 48.416 0.507 7.81 4.32 10.57
10/30/2020 12:30:00 PM 9.11 48.398 0.508 7.83 3.84 10.64
10/30/2020 12:45:00 PM 9.1 48.38 0.508 7.85 4.8 10.74
10/30/2020 1:00:00 PM 9.1 48.38 0.509 7.88 4.05 10.85
10/30/2020 1:15:00 PM 9.1 48.38 0.509 7.88 3.72 10.9
10/30/2020 1:30:00 PM 9.1 48.38 0.509 7.89 3.97 10.96
10/30/2020 1:45:00 PM 9.09 48.362 0.51 7.9 4.05 11
10/30/2020 2:00:00 PM 9.08 48.344 0.51 7.93 3.61 11.1
10/30/2020 2:15:00 PM 9.09 48.362 0.511 7.94 3.97 11.14
10/30/2020 2:30:00 PM 9.11 48.398 0.511 7.95 3.74 11.24
10/30/2020 2:45:00 PM 9.12 48.416 0.511 7.96 3.7 11.28
10/30/2020 3:00:00 PM 9.11 48.398 0.512 7.99 4.07 11.39
10/30/2020 3:15:00 PM 9.1 48.38 0.512 7.99 4.13 11.42
10/30/2020 3:30:00 PM 9.11 48.398 0.513 8 3.66 11.48
10/30/2020 3:45:00 PM 9.13 48.434 0.514 8.01 3.71 11.54
10/30/2020 4:00:00 PM 9.12 48.416 0.515 8.02 4.12 11.6
10/30/2020 4:15:00 PM 9.12 48.416 0.515 8.03 3.78 11.63
10/30/2020 4:30:00 PM 9.12 48.416 0.515 8.04 4.04 11.66
10/30/2020 4:45:00 PM 9.1 48.38 0.516 8.04 3.67 11.68
10/30/2020 5:00:00 PM 9.1 48.38 0.516 8.04 3.96 11.7
10/30/2020 5:15:00 PM 9.09 48.362 0.517 8.05 5.46 11.68
10/30/2020 5:30:00 PM 9.06 48.308 0.517 8.05 3.92 11.67
10/30/2020 5:45:00 PM 9.03 48.254 0.517 8.04 3.65 11.65
10/30/2020 6:00:00 PM 9 48.2 0.517 8.04 3.81 11.62
10/30/2020 6:15:00 PM 8.97 48.146 0.517 8.04 3.84 11.59
10/30/2020 6:30:00 PM 8.94 48.092 0.517 8.03 3.78 11.56
10/30/2020 6:45:00 PM 8.91 48.038 0.516 8.03 3.67 11.51
10/30/2020 7:00:00 PM 8.88 47.984 0.516 8.02 4.09 11.46
10/30/2020 7:15:00 PM 8.85 47.93 0.515 8.01 4.24 11.42
10/30/2020 7:30:00 PM 8.83 47.894 0.515 8 4.63 11.37
10/30/2020 7:45:00 PM 8.82 47.876 0.514 7.99 4.46 11.33
10/30/2020 8:00:00 PM 8.79 47.822 0.513 7.98 4.56 11.28
10/30/2020 8:15:00 PM 8.77 47.786 0.512 7.97 4.7 11.24
10/30/2020 8:30:00 PM 8.75 47.75 0.512 7.96 4.71 11.19
10/30/2020 8:45:00 PM 8.72 47.696 0.51 7.96 4.92 11.16
10/30/2020 9:00:00 PM 8.69 47.642 0.51 7.95 5.06 11.13
10/30/2020 9:15:00 PM 8.68 47.624 0.509 7.94 5.15 11.1
10/30/2020 9:30:00 PM 8.65 47.57 0.508 7.94 4.97 11.07
10/30/2020 9:45:00 PM 8.61 47.498 0.507 7.94 5.28 11.06
10/30/2020 10:00:00 PM 8.59 47.462 0.506 7.93 5.08 11.03
10/30/2020 10:15:00 PM 8.57 47.426 0.506 7.93 5.52 11.01
10/30/2020 10:30:00 PM 8.56 47.408 0.505 7.92 6.62 10.98
10/30/2020 10:45:00 PM 8.53 47.354 0.504 7.92 5.26 10.97
10/30/2020 11:00:00 PM 8.5 47.3 0.503 7.92 4.83 10.96
10/30/2020 11:15:00 PM 8.49 47.282 0.503 7.92 4.87 10.96
10/30/2020 11:30:00 PM 8.47 47.246 0.502 7.91 5.26 10.93
10/30/2020 11:45:00 PM 8.45 47.21 0.501 7.91 5.11 10.93
10/31/2020 12:00:00 AM 8.43 47.174 0.5 7.91 4.74 10.93
10/31/2020 12:15:00 AM 8.4 47.12 0.5 7.9 4.78 10.9
10/31/2020 12:30:00 AM 8.38 47.084 0.499 7.9 5.36 10.9
10/31/2020 12:45:00 AM 8.36 47.048 0.498 7.9 4.97 10.89
10/31/2020 1:00:00 AM 8.34 47.012 0.497 7.9 5.33 10.89
10/31/2020 1:15:00 AM 8.31 46.958 0.497 7.9 4.9 10.87
10/31/2020 1:30:00 AM 8.29 46.922 0.496 7.9 4.91 10.88
10/31/2020 1:45:00 AM 8.27 46.886 0.495 7.9 5.12 10.89
10/31/2020 2:00:00 AM 8.25 46.85 0.495 7.9 5.13 10.89
10/31/2020 2:15:00 AM 8.23 46.814 0.493 7.9 5.07 10.88
10/31/2020 2:30:00 AM 8.2 46.76 0.492 7.9 4.94 10.89
10/31/2020 2:45:00 AM 8.17 46.706 0.491 7.9 4.74 10.9
10/31/2020 3:00:00 AM 8.15 46.67 0.49 7.9 5.23 10.91
10/31/2020 3:15:00 AM 8.12 46.616 0.489 7.9 5.09 10.91
10/31/2020 3:30:00 AM 8.11 46.598 0.488 7.9 5.27 10.9
10/31/2020 3:45:00 AM 8.08 46.544 0.487 7.89 5.02 10.91
10/31/2020 4:00:00 AM 8.06 46.508 0.486 7.9 4.99 10.91
10/31/2020 4:15:00 AM 8.04 46.472 0.485 7.89 5.16 10.91
10/31/2020 4:30:00 AM 8.01 46.418 0.483 7.89 5.07 10.91
10/31/2020 4:45:00 AM 7.99 46.382 0.482 7.89 5.29 10.92
10/31/2020 5:00:00 AM 7.97 46.346 0.481 7.89 5.29 10.92
10/31/2020 5:15:00 AM 7.95 46.31 0.48 7.89 5.51 10.93
10/31/2020 5:30:00 AM 7.92 46.256 0.478 7.89 5.21 10.93
10/31/2020 5:45:00 AM 7.9 46.22 0.478 7.89 5.39 10.94
10/31/2020 6:00:00 AM 7.88 46.184 0.476 7.89 5.54 10.95
10/31/2020 6:15:00 AM 7.86 46.148 0.475 7.89 5.28 10.96
10/31/2020 6:30:00 AM 7.84 46.112 0.474 7.89 5.43 10.95
10/31/2020 6:45:00 AM 7.82 46.076 0.473 7.89 5.78 10.96
10/31/2020 7:00:00 AM 7.81 46.058 0.472 7.89 5.45 10.97
10/31/2020 7:15:00 AM 7.78 46.004 0.471 7.89 11.9 10.97
10/31/2020 7:30:00 AM 7.77 45.986 0.47 7.89 5.21 10.98
10/31/2020 7:45:00 AM 7.75 45.95 0.469 7.89 5.47 10.98
10/31/2020 8:00:00 AM 7.73 45.914 0.469 7.89 5.26 10.99
10/31/2020 8:15:00 AM 7.72 45.896 0.468 7.89 4.91 11
10/31/2020 8:30:00 AM 7.7 45.86 0.467 7.9 4.59 11.02
10/31/2020 8:45:00 AM 7.7 45.86 0.466 7.9 4.59 11.03
10/31/2020 9:00:00 AM 7.69 45.842 0.465 7.9 4.57 11.06
10/31/2020 9:15:00 AM 7.69 45.842 0.464 7.9 4.54 11.09
10/31/2020 9:30:00 AM 7.69 45.842 0.463 7.91 4.27 11.13
10/31/2020 9:45:00 AM 7.69 45.842 0.462 7.92 4.38 11.18
10/31/2020 10:00:00 AM 7.71 45.878 0.461 7.92 4.24 11.24
10/31/2020 10:15:00 AM 7.73 45.914 0.461 7.93 4.38 11.27
10/31/2020 10:30:00 AM 7.74 45.932 0.459 7.94 4.65 11.35
10/31/2020 10:45:00 AM 7.76 45.968 0.459 7.95 4.37 11.43
10/31/2020 11:00:00 AM 7.78 46.004 0.458 7.97 4.86 11.48
10/31/2020 11:15:00 AM 7.8 46.04 0.456 7.98 4.2 11.6
10/31/2020 11:30:00 AM 7.82 46.076 0.457 7.99 4.1 11.67
10/31/2020 11:45:00 AM 7.85 46.13 0.456 8 4.59 11.74
10/31/2020 12:00:00 PM 7.88 46.184 0.454 8.02 4.03 11.81
10/31/2020 12:15:00 PM 7.92 46.256 0.454 8.02 4 11.86
10/31/2020 12:30:00 PM 7.95 46.31 0.454 8.03 4.03 11.94
10/31/2020 12:45:00 PM 7.98 46.364 0.454 8.05 3.96 12.01
10/31/2020 1:00:00 PM 8.02 46.436 0.452 8.06 3.97 12.07
10/31/2020 1:15:00 PM 8.06 46.508 0.452 8.07 4.09 12.12
10/31/2020 1:30:00 PM 8.08 46.544 0.452 8.08 4.05 12.19
10/31/2020 1:45:00 PM 8.12 46.616 0.453 8.09 4.14 12.24
10/31/2020 2:00:00 PM 8.16 46.688 0.451 8.09 3.96 12.27
10/31/2020 2:15:00 PM 8.18 46.724 0.45 8.1 4.09 12.31
10/31/2020 2:30:00 PM 8.2 46.76 0.45 8.11 4.19 12.34
10/31/2020 2:45:00 PM 8.21 46.778 0.447 8.12 3.84 12.36
10/31/2020 3:00:00 PM 8.2 46.76 0.447 8.13 3.82 12.39
10/31/2020 3:15:00 PM 8.2 46.76 0.473 8.12 3.86 12.4
10/31/2020 3:30:00 PM 8.21 46.778 0.451 8.14 3.93 12.42
10/31/2020 3:45:00 PM 8.22 46.796 0.456 8.14 3.99 12.45
10/31/2020 4:00:00 PM 8.23 46.814 0.45 8.14 4.29 12.47
10/31/2020 4:15:00 PM 8.23 46.814 0.45 8.14 4.01 12.46
10/31/2020 4:30:00 PM 8.23 46.814 0.455 8.15 4.05 12.46
10/31/2020 4:45:00 PM 8.23 46.814 0.455 8.15 4.03 12.47
10/31/2020 5:00:00 PM 8.24 46.832 0.446 8.16 4.02 12.47
10/31/2020 5:15:00 PM 8.24 46.832 0.455 8.15 4.14 12.46
10/31/2020 5:30:00 PM 8.22 46.796 0.455 8.15 4.1 12.46
10/31/2020 5:45:00 PM 8.2 46.76 0.471 8.15 3.83 12.44
10/31/2020 6:00:00 PM 8.17 46.706 0.524 8.15 3.92 12.43
10/31/2020 6:15:00 PM 8.14 46.652 0.442 8.14 3.87 12.41
10/31/2020 6:30:00 PM 8.1 46.58 0.442 8.14 3.86 12.39
10/31/2020 6:45:00 PM 8.06 46.508 0.442 8.13 4 12.35
10/31/2020 7:00:00 PM 8.03 46.454 0.443 8.13 4.11 12.31
10/31/2020 7:15:00 PM 7.98 46.364 0.443 8.13 4.01 12.29
10/31/2020 7:30:00 PM 7.93 46.274 0.443 8.11 4.63 12.24
10/31/2020 7:45:00 PM 7.88 46.184 0.443 8.1 5.2 12.19
10/31/2020 8:00:00 PM 7.83 46.094 0.444 8.1 4.62 12.16
10/31/2020 8:15:00 PM 7.78 46.004 0.444 8.1 4.07 12.11
10/31/2020 8:30:00 PM 7.73 45.914 0.444 8.09 4.4 12.07
10/31/2020 8:45:00 PM 7.7 45.86 0.444 8.08 4.63 12.03
10/31/2020 9:00:00 PM 7.66 45.788 0.444 8.08 4.52 11.99
10/31/2020 9:15:00 PM 7.62 45.716 0.445 8.07 4.47 11.96
10/31/2020 9:30:00 PM 7.58 45.644 0.445 8.06 4.64 11.93
10/31/2020 9:45:00 PM 7.54 45.572 0.445 8.06 4.6 11.9
10/31/2020 10:00:00 PM 7.51 45.518 0.445 8.05 4.6 11.87
10/31/2020 10:15:00 PM 7.48 45.464 0.446 8.04 4.56 11.85
10/31/2020 10:30:00 PM 7.46 45.428 0.446 8.04 4.84 11.82
10/31/2020 10:45:00 PM 7.42 45.356 0.446 8.03 4.52 11.8
10/31/2020 11:00:00 PM 7.38 45.284 0.447 8.03 4.48 11.79
10/31/2020 11:15:00 PM 7.35 45.23 0.447 8.03 4.58 11.75
10/31/2020 11:30:00 PM 7.32 45.176 0.448 8.02 4.62 11.73
10/31/2020 11:45:00 PM 7.28 45.104 0.448 8.02 5.09 11.72
11/1/2020 12:00:00 AM 7.25 45.05 0.448 8.02 10.51 11.69
11/1/2020 12:15:00 AM 7.21 44.978 0.448 8.01 9.63 11.69
11/1/2020 12:30:00 AM 7.17 44.906 0.449 7.99 3.2 11.65
11/1/2020 12:45:00 AM 7.13 44.834 0.45 7.99 3.05 11.64
11/1/2020 1:00:00 AM 7.11 44.798 0.45 7.98 3.04 11.64
11/1/2020 1:15:00 AM 7.07 44.726 0.45 7.99 6.98 11.62
11/1/2020 1:30:00 AM 7.03 44.654 0.452 7.99 4.75 11.61
11/1/2020 1:45:00 AM 7 44.6 0.452 7.99 6.77 11.61
11/1/2020 2:00:00 AM 6.97 44.546 0.453 7.97 5.09 11.59
11/1/2020 2:15:00 AM 6.95 44.51 0.453 7.99 4.28 11.59
11/1/2020 2:30:00 AM 6.94 44.492 0.454 7.99 4.48 11.57
11/1/2020 2:45:00 AM 6.92 44.456 0.454 7.98 4.5 11.57
11/1/2020 3:00:00 AM 6.92 44.456 0.455 7.98 4.5 11.55
11/1/2020 3:15:00 AM 6.91 44.438 0.456 7.98 4.65 11.53
11/1/2020 3:30:00 AM 6.91 44.438 0.456 7.97 4.37 11.54
11/1/2020 3:45:00 AM 6.9 44.42 0.457 7.97 5.37 11.51
11/1/2020 4:00:00 AM 6.9 44.42 0.455 7.97 4.7 11.51
11/1/2020 4:15:00 AM 6.88 44.384 0.474 7.95 4.62 11.46
11/1/2020 4:30:00 AM 6.88 44.384 0.475 7.95 4.39 11.45
11/1/2020 4:45:00 AM 6.87 44.366 0.469 7.95 4.32 11.43
11/1/2020 5:00:00 AM 6.87 44.366 0.468 7.95 4.38 11.43
11/1/2020 5:15:00 AM 6.87 44.366 0.47 7.95 4.11 11.42
11/1/2020 5:30:00 AM 6.86 44.348 0.468 7.95 4.29 11.42
11/1/2020 5:45:00 AM 6.86 44.348 0.467 7.95 4.2 11.4
11/1/2020 6:00:00 AM 6.86 44.348 0.469 7.95 4.24 11.41
11/1/2020 6:15:00 AM 6.85 44.33 0.469 7.95 4.26 11.39
11/1/2020 6:30:00 AM 6.85 44.33 0.469 7.94 4.19 11.38
11/1/2020 6:45:00 AM 6.85 44.33 0.47 7.94 4.23 11.37
11/1/2020 7:00:00 AM 6.86 44.348 0.47 7.94 4.24 11.37
11/1/2020 7:15:00 AM 6.87 44.366 0.472 7.94 3.93 11.36
11/1/2020 7:30:00 AM 6.87 44.366 0.472 7.94 3.9 11.34
11/1/2020 7:45:00 AM 6.87 44.366 0.472 7.94 3.89 11.36
11/1/2020 8:00:00 AM 6.88 44.384 0.473 7.94 3.69 11.34
11/1/2020 8:15:00 AM 6.89 44.402 0.474 7.94 3.69 11.39
11/1/2020 8:30:00 AM 6.92 44.456 0.474 7.95 3.76 11.43
11/1/2020 8:45:00 AM 6.95 44.51 0.475 7.96 3.97 11.48
11/1/2020 9:00:00 AM 6.99 44.582 0.475 7.97 3.59 11.5
11/1/2020 9:15:00 AM 7.02 44.636 0.475 7.98 3.7 11.57
11/1/2020 9:30:00 AM 7.05 44.69 0.476 7.98 3.71 11.62
11/1/2020 9:45:00 AM 7.1 44.78 0.477 7.99 3.56 11.68
11/1/2020 10:00:00 AM 7.16 44.888 0.477 8.01 3.5 11.79
11/1/2020 10:15:00 AM 7.22 44.996 0.477 8.02 3.45 11.86
11/1/2020 10:30:00 AM 7.28 45.104 0.477 8.03 3.43 11.95
11/1/2020 10:45:00 AM 7.3 45.14 0.478 8.05 3.42 12.01
11/1/2020 11:00:00 AM 7.32 45.176 0.478 8.05 3.66 12.05
11/1/2020 11:15:00 AM 7.34 45.212 0.479 8.06 3.44 12.08
11/1/2020 11:30:00 AM 7.37 45.266 0.479 8.08 4.3 12.15
11/1/2020 11:45:00 AM 7.39 45.302 0.48 8.08 3.48 12.19
11/1/2020 12:00:00 PM 7.41 45.338 0.48 8.09 3.55 12.21
11/1/2020 12:15:00 PM 7.42 45.356 0.48 8.1 3.41 12.24
11/1/2020 12:30:00 PM 7.44 45.392 0.481 8.1 3.42 12.26
11/1/2020 12:45:00 PM 7.46 45.428 0.481 8.1 3.4 12.28
11/1/2020 1:00:00 PM 7.47 45.446 0.482 8.11 3.32 12.26
11/1/2020 1:15:00 PM 7.49 45.482 0.482 8.12 3.41 12.31
11/1/2020 1:30:00 PM 7.51 45.518 0.482 8.12 3.28 12.32
11/1/2020 1:45:00 PM 7.53 45.554 0.483 8.13 3.41 12.36
11/1/2020 2:00:00 PM 7.54 45.572 0.483 8.13 3.14 12.36
11/1/2020 2:15:00 PM 7.56 45.608 0.483 8.14 3.25 12.39
11/1/2020 2:30:00 PM 7.58 45.644 0.483 8.15 3.27 12.43
11/1/2020 2:45:00 PM 7.6 45.68 0.483 8.15 3.32 12.44
11/1/2020 3:00:00 PM 7.63 45.734 0.483 8.15 3.24 12.47
11/1/2020 3:15:00 PM 7.61 45.698 0.483 8.16 3.34 12.46
11/1/2020 3:30:00 PM 7.61 45.698 0.483 8.17 3.79 12.47
11/1/2020 3:45:00 PM 7.61 45.698 0.483 8.17 3.41 12.47
11/1/2020 4:00:00 PM 7.6 45.68 0.484 8.18 6.49 12.46
11/1/2020 4:15:00 PM 7.6 45.68 0.484 8.16 3.54 12.43
11/1/2020 4:30:00 PM 7.6 45.68 0.485 8.17 3.31 12.42
11/1/2020 4:45:00 PM 7.58 45.644 0.485 8.18 3.37 12.44
11/1/2020 5:00:00 PM 7.57 45.626 0.485 8.18 3.19 12.43
11/1/2020 5:15:00 PM 7.56 45.608 0.486 8.18 3.32 12.41
11/1/2020 5:30:00 PM 7.54 45.572 0.486 8.17 3.59 12.36
11/1/2020 5:45:00 PM 7.51 45.518 0.486 8.17 4.11 12.34
11/1/2020 6:00:00 PM 7.48 45.464 0.486 8.17 3.27 12.31
11/1/2020 6:15:00 PM 7.45 45.41 0.486 8.16 3.25 12.27
11/1/2020 6:30:00 PM 7.42 45.356 0.487 8.15 3.31 12.24
11/1/2020 6:45:00 PM 7.39 45.302 0.488 8.15 3.4 12.18
11/1/2020 7:00:00 PM 7.37 45.266 0.488 8.14 3.4 12.15
11/1/2020 7:15:00 PM 7.33 45.194 0.488 8.13 3.55 12.1
11/1/2020 7:30:00 PM 7.31 45.158 0.488 8.12 3.53 12.06
11/1/2020 7:45:00 PM 7.28 45.104 0.489 8.11 4.25 12.02
11/1/2020 8:00:00 PM 7.26 45.068 0.489 8.12 3.58 11.97
11/1/2020 8:15:00 PM 7.24 45.032 0.489 8.1 3.61 11.95
11/1/2020 8:30:00 PM 7.2 44.96 0.49 8.11 3.41 11.92
11/1/2020 8:45:00 PM 7.15 44.87 0.49 8.1 3.43 11.91
11/1/2020 9:00:00 PM 7.12 44.816 0.491 8.1 3.75 11.87
11/1/2020 9:15:00 PM 7.08 44.744 0.491 8.09 5.97 11.82
11/1/2020 9:30:00 PM 7.05 44.69 0.491 8.08 3.68 11.83
11/1/2020 9:45:00 PM 7.02 44.636 0.491 8.09 3.63 11.81
11/1/2020 10:00:00 PM 7.01 44.618 0.492 8.08 3.62 11.78
11/1/2020 10:15:00 PM 6.97 44.546 0.492 8.08 3.57 11.75
11/1/2020 10:30:00 PM 6.94 44.492 0.492 8.08 4.02 11.72
11/1/2020 10:45:00 PM 6.89 44.402 0.493 8.07 3.48 11.71
11/1/2020 11:00:00 PM 6.86 44.348 0.493 8.07 3.63 11.69
11/1/2020 11:15:00 PM 6.82 44.276 0.493 8.06 3.45 11.68
11/1/2020 11:30:00 PM 6.79 44.222 0.493 8.06 3.4 11.66
11/1/2020 11:45:00 PM 6.77 44.186 0.493 8.06 3.31 11.65
11/2/2020 12:00:00 AM 6.76 44.168 0.494 8.06 3.46 11.64
11/2/2020 12:15:00 AM 6.73 44.114 0.494 8.05 3.44 11.61
11/2/2020 12:30:00 AM 6.71 44.078 0.495 8.05 3.36 11.6
11/2/2020 12:45:00 AM 6.69 44.042 0.494 8.04 3.59 11.58
11/2/2020 1:00:00 AM 6.67 44.006 0.495 8.04 3.58 11.55
11/2/2020 1:15:00 AM 6.67 44.006 0.495 8.04 3.56 11.54
11/2/2020 1:30:00 AM 6.64 43.952 0.495 8.03 3.43 11.52
11/2/2020 1:45:00 AM 6.64 43.952 0.496 8.03 3.45 11.49
11/2/2020 2:00:00 AM 6.62 43.916 0.496 8.02 3.64 11.48
11/2/2020 2:15:00 AM 6.59 43.862 0.496 8.02 3.46 11.49
11/2/2020 2:30:00 AM 6.57 43.826 0.496 8.02 3.78 11.48
11/2/2020 2:45:00 AM 6.54 43.772 0.497 8.02 3.49 11.47
11/2/2020 3:00:00 AM 6.51 43.718 0.497 8.02 3.93 11.46
11/2/2020 3:15:00 AM 6.48 43.664 0.497 8.01 3.81 11.43
11/2/2020 3:30:00 AM 6.45 43.61 0.497 8 3.94 11.42
11/2/2020 3:45:00 AM 6.41 43.538 0.498 8 3.87 11.41
11/2/2020 4:00:00 AM 6.35 43.43 0.498 7.99 4.18 11.38
11/2/2020 4:15:00 AM 6.31 43.358 0.498 7.99 3.82 11.37
11/2/2020 4:30:00 AM 6.25 43.25 0.498 7.98 3.98 11.38
11/2/2020 4:45:00 AM 6.2 43.16 0.499 7.98 4.12 11.39
11/2/2020 5:00:00 AM 6.16 43.088 0.499 7.98 6.69 11.41
11/2/2020 5:15:00 AM 6.11 42.998 0.499 7.98 5.81 11.42
11/2/2020 5:30:00 AM 6.07 42.926 0.5 7.98 4.58 11.41
11/2/2020 5:45:00 AM 6.02 42.836 0.5 7.97 4.86 11.41
11/2/2020 6:00:00 AM 5.98 42.764 0.5 7.96 8.78 11.38
11/2/2020 6:15:00 AM 5.92 42.656 0.5 7.96 8.47 11.4
11/2/2020 6:30:00 AM 5.87 42.566 0.501 7.96 5.81 11.42
11/2/2020 6:45:00 AM 5.81 42.458 0.5 7.96 5.4 11.43
11/2/2020 7:00:00 AM 5.77 42.386 0.501 7.97 5.16 11.42
11/2/2020 7:15:00 AM 5.71 42.278 0.501 7.97 4.62 11.44
11/2/2020 7:30:00 AM 5.69 42.242 0.501 7.97 5.36 11.48
11/2/2020 7:45:00 AM 5.66 42.188 0.502 7.98 4.69 11.52
11/2/2020 8:00:00 AM 5.62 42.116 0.502 7.98 4.48 11.54
11/2/2020 8:15:00 AM 5.58 42.044 0.503 7.98 5.14 11.61
11/2/2020 8:30:00 AM 5.54 41.972 0.502 7.99 5.93 11.65
11/2/2020 8:45:00 AM 5.53 41.954 0.503 7.99 5.26 11.72
11/2/2020 9:00:00 AM 5.52 41.936 0.503 8 4.77 11.79
11/2/2020 9:15:00 AM 5.52 41.936 0.503 8.01 5.5 11.87
11/2/2020 9:30:00 AM 5.53 41.954 0.503 8.03 4.39 11.96
11/2/2020 9:45:00 AM 5.52 41.936 0.504 8.04 4.66 12.06
11/2/2020 10:00:00 AM 5.52 41.936 0.504 8.06 4.34 12.15
11/2/2020 10:15:00 AM 5.51 41.918 0.504 8.07 4.14 12.24
11/2/2020 10:30:00 AM 5.52 41.936 0.504 8.08 4.48 12.33
11/2/2020 10:45:00 AM 5.52 41.936 0.504 8.1 4.44 12.42
11/2/2020 11:00:00 AM 5.51 41.918 0.504 8.11 4.92 12.5
11/2/2020 11:15:00 AM 5.52 41.936 0.505 8.13 5.4 12.56
11/2/2020 11:30:00 AM 5.57 42.026 0.504 8.13 5.05 12.63
11/2/2020 11:45:00 AM 5.65 42.17 0.504 8.15 4.59 12.7
11/2/2020 12:00:00 PM 5.72 42.296 0.505 8.17 4.35 12.75
11/2/2020 12:15:00 PM 5.75 42.35 0.505 8.16 4.22 12.79
11/2/2020 12:30:00 PM 5.82 42.476 0.505 8.18 4.35 12.85
11/2/2020 12:45:00 PM 5.9 42.62 0.505 8.2 4.16 12.92
11/2/2020 1:00:00 PM 5.95 42.71 0.505 8.21 4.74 12.97
11/2/2020 1:15:00 PM 6.01 42.818 0.505 8.22 4.65 13.04
11/2/2020 1:30:00 PM 6.06 42.908 0.505 8.23 4.44 13.06
11/2/2020 1:45:00 PM 6.11 42.998 0.505 8.23 4.29 13.13
11/2/2020 2:00:00 PM 6.14 43.052 0.505 8.25 4.51 13.17
11/2/2020 2:15:00 PM 6.19 43.142 0.505 8.26 5.31 13.22
11/2/2020 2:30:00 PM 6.22 43.196 0.505 8.26 4.55 13.25
11/2/2020 2:45:00 PM 6.27 43.286 0.505 8.28 4.05 13.29
11/2/2020 3:00:00 PM 6.32 43.376 0.505 8.29 3.73 13.31
11/2/2020 3:15:00 PM 6.35 43.43 0.505 8.29 3.48 13.37
11/2/2020 3:30:00 PM 6.39 43.502 0.505 8.31 3.71 13.4
11/2/2020 3:45:00 PM 6.39 43.502 0.505 8.31 3.32 13.42
11/2/2020 4:00:00 PM 6.39 43.502 0.505 8.32 3.24 13.45
11/2/2020 4:15:00 PM 6.38 43.484 0.506 8.32 4.21 13.43
11/2/2020 4:30:00 PM 6.36 43.448 0.506 8.32 3.41 13.44
11/2/2020 4:45:00 PM 6.36 43.448 0.506 8.33 3.4 13.44
11/2/2020 5:00:00 PM 6.35 43.43 0.506 8.32 3.19 13.42
11/2/2020 5:15:00 PM 6.33 43.394 0.506 8.32 3.13 13.39
11/2/2020 5:30:00 PM 6.3 43.34 0.507 8.32 3.25 13.35
11/2/2020 5:45:00 PM 6.28 43.304 0.506 8.31 3.17 13.32
11/2/2020 6:00:00 PM 6.23 43.214 0.507 8.3 3.37 13.26
11/2/2020 6:15:00 PM 6.2 43.16 0.507 8.29 3.52 13.22
11/2/2020 6:30:00 PM 6.17 43.106 0.507 8.29 3.18 13.16
11/2/2020 6:45:00 PM 6.15 43.07 0.508 8.27 3.22 13.07
11/2/2020 7:00:00 PM 6.12 43.016 0.508 8.26 3.06 13.05
11/2/2020 7:15:00 PM 6.1 42.98 0.508 8.25 3.18 12.98
11/2/2020 7:30:00 PM 6.05 42.89 0.509 8.24 3.35 12.95
11/2/2020 7:45:00 PM 6 42.8 0.509 8.23 3.28 12.88
11/2/2020 8:00:00 PM 5.95 42.71 0.508 8.23 3.19 12.84
11/2/2020 8:15:00 PM 5.89 42.602 0.509 8.21 3.72 12.77
11/2/2020 8:30:00 PM 5.82 42.476 0.51 8.21 3.82 12.74
11/2/2020 8:45:00 PM 5.79 42.422 0.509 8.2 3.32 12.7
11/2/2020 9:00:00 PM 5.74 42.332 0.51 8.19 3.64 12.66
11/2/2020 9:15:00 PM 5.69 42.242 0.51 8.19 3.2 12.63
11/2/2020 9:30:00 PM 5.63 42.134 0.51 8.18 3.55 12.58
11/2/2020 9:45:00 PM 5.6 42.08 0.51 8.16 4.52 12.56
11/2/2020 10:00:00 PM 5.55 41.99 0.511 8.17 3.7 12.54
11/2/2020 10:15:00 PM 5.52 41.936 0.511 8.15 3.56 12.52
11/2/2020 10:30:00 PM 5.49 41.882 0.511 8.15 3.67 12.5
11/2/2020 10:45:00 PM 5.47 41.846 0.511 8.15 3.5 12.48
11/2/2020 11:00:00 PM 5.46 41.828 0.511 8.15 3.45 12.44
11/2/2020 11:15:00 PM 5.47 41.846 0.511 8.14 3.5 12.41
11/2/2020 11:30:00 PM 5.45 41.81 0.511 8.13 3.6 12.38
11/2/2020 11:45:00 PM 5.44 41.792 0.511 8.12 3.53 12.35
11/3/2020 12:00:00 AM 5.43 41.774 0.511 8.12 3.55 12.31
11/3/2020 12:15:00 AM 5.42 41.756 0.511 8.1 3.59 12.28
11/3/2020 12:30:00 AM 5.43 41.774 0.511 8.1 3.58 12.26
11/3/2020 12:45:00 AM 5.42 41.756 0.51 8.1 3.02 12.23
11/3/2020 1:00:00 AM 5.41 41.738 0.511 8.1 3.2 12.21
11/3/2020 1:15:00 AM 5.4 41.72 0.51 8.1 3.32 12.19
11/3/2020 1:30:00 AM 5.41 41.738 0.511 8.1 3.28 12.19
11/3/2020 1:45:00 AM 5.38 41.684 0.51 8.09 3.08 12.16
11/3/2020 2:00:00 AM 5.39 41.702 0.51 8.09 3.07 12.15
11/3/2020 2:15:00 AM 5.38 41.684 0.51 8.09 3.31 12.13
11/3/2020 2:30:00 AM 5.37 41.666 0.51 8.09 3.3 12.13
11/3/2020 2:45:00 AM 5.37 41.666 0.51 8.09 3.29 12.1
11/3/2020 3:00:00 AM 5.36 41.648 0.51 8.07 3.24 12.1
11/3/2020 3:15:00 AM 5.34 41.612 0.51 8.08 3.38 12.08
11/3/2020 3:30:00 AM 5.31 41.558 0.51 8.08 3.33 12.07
11/3/2020 3:45:00 AM 5.29 41.522 0.51 8.06 3.1 12.04
11/3/2020 4:00:00 AM 5.28 41.504 0.51 8.06 3.26 12.04
11/3/2020 4:15:00 AM 5.26 41.468 0.51 8.06 3.31 12.03
11/3/2020 4:30:00 AM 5.23 41.414 0.509 8.07 3.09 12
11/3/2020 4:45:00 AM 5.19 41.342 0.509 8.06 3.19 12.01
11/3/2020 5:00:00 AM 5.19 41.342 0.509 8.06 3.1 12
11/3/2020 5:15:00 AM 5.15 41.27 0.509 8.05 3.33 11.98
11/3/2020 5:30:00 AM 5.15 41.27 0.509 8.05 3.25 11.97
11/3/2020 5:45:00 AM 5.13 41.234 0.508 8.05 3.33 11.96
11/3/2020 6:00:00 AM 5.13 41.234 0.509 8.05 3.6 11.97
11/3/2020 6:15:00 AM 5.12 41.216 0.508 8.04 2.94 11.95
11/3/2020 6:30:00 AM 5.1 41.18 0.508 8.04 3.15 11.95
11/3/2020 6:45:00 AM 5.11 41.198 0.507 8.04 3.05 11.93
11/3/2020 7:00:00 AM 5.1 41.18 0.508 8.04 3.39 11.93
11/3/2020 7:15:00 AM 5.1 41.18 0.507 8.03 3.48 11.96
11/3/2020 7:30:00 AM 5.11 41.198 0.507 8.03 3.47 11.93
11/3/2020 7:45:00 AM 5.11 41.198 0.507 8.03 3.39 11.94
11/3/2020 8:00:00 AM 5.12 41.216 0.507 8.03 3.37 11.95
11/3/2020 8:15:00 AM 5.14 41.252 0.507 8.02 3.54 11.95
11/3/2020 8:30:00 AM 5.14 41.252 0.506 8.02 3.18 11.93
11/3/2020 8:45:00 AM 5.17 41.306 0.506 8.02 3.19 11.95
11/3/2020 9:00:00 AM 5.18 41.324 0.505 8.02 3.09 11.97
11/3/2020 9:15:00 AM 5.2 41.36 0.505 8.02 3.34 11.98
11/3/2020 9:30:00 AM 5.21 41.378 0.505 8.03 3.2 12.07
11/3/2020 9:45:00 AM 5.23 41.414 0.505 8.03 3.16 12.11
11/3/2020 10:00:00 AM 5.25 41.45 0.504 8.03 3.34 12.13
11/3/2020 10:15:00 AM 5.27 41.486 0.504 8.03 3.04 12.17
11/3/2020 10:30:00 AM 5.29 41.522 0.504 8.04 2.93 12.17
11/3/2020 10:45:00 AM 5.3 41.54 0.503 8.05 3.53 12.28
11/3/2020 11:00:00 AM 5.36 41.648 0.503 8.05 3.22 12.32
11/3/2020 11:15:00 AM 5.41 41.738 0.502 8.06 2.98 12.39
11/3/2020 11:30:00 AM 5.46 41.828 0.502 8.07 3.04 12.45
11/3/2020 11:45:00 AM 5.52 41.936 0.501 8.08 3.19 12.57
11/3/2020 12:00:00 PM 5.61 42.098 0.501 8.09 3.03 12.66
11/3/2020 12:15:00 PM 5.69 42.242 0.501 8.11 2.99 12.73
11/3/2020 12:30:00 PM 5.77 42.386 0.5 8.12 3.01 12.8
11/3/2020 12:45:00 PM 5.86 42.548 0.5 8.13 2.81 12.87
11/3/2020 1:00:00 PM 5.92 42.656 0.499 8.14 2.96 12.92
11/3/2020 1:15:00 PM 5.95 42.71 0.499 8.15 3.11 13
11/3/2020 1:30:00 PM 5.98 42.764 0.498 8.17 3.05 13.08
11/3/2020 1:45:00 PM 6.03 42.854 0.498 8.18 3.21 13.16
11/3/2020 2:00:00 PM 6.09 42.962 0.497 8.19 2.81 13.24
11/3/2020 2:15:00 PM 6.16 43.088 0.496 8.21 3.24 13.36
11/3/2020 2:30:00 PM 6.21 43.178 0.496 8.23 3.11 13.44
11/3/2020 2:45:00 PM 6.26 43.268 0.496 8.24 2.91 13.48
11/3/2020 3:00:00 PM 6.27 43.286 0.495 8.24 2.91 13.54
11/3/2020 3:15:00 PM 6.29 43.322 0.495 8.25 2.93 13.57
11/3/2020 3:30:00 PM 6.27 43.286 0.495 8.27 3.09 13.6
11/3/2020 3:45:00 PM 6.27 43.286 0.495 8.27 2.84 13.67
11/3/2020 4:00:00 PM 6.25 43.25 0.494 8.28 2.87 13.69
11/3/2020 4:15:00 PM 6.25 43.25 0.494 8.29 2.81 13.72
11/3/2020 4:30:00 PM 6.23 43.214 0.494 8.29 2.95 13.73
11/3/2020 4:45:00 PM 6.21 43.178 0.493 8.29 2.97 13.75
11/3/2020 5:00:00 PM 6.18 43.124 0.493 8.31 2.9 13.71
11/3/2020 5:15:00 PM 6.15 43.07 0.493 8.31 2.98 13.74
11/3/2020 5:30:00 PM 6.13 43.034 0.492 8.31 2.88 13.74
11/3/2020 5:45:00 PM 6.1 42.98 0.493 8.31 2.74 13.72
11/3/2020 6:00:00 PM 6.06 42.908 0.493 8.31 2.92 13.69
11/3/2020 6:15:00 PM 6.05 42.89 0.492 8.31 2.87 13.65
11/3/2020 6:30:00 PM 6.01 42.818 0.492 8.31 2.84 13.62
11/3/2020 6:45:00 PM 5.99 42.782 0.492 8.31 2.92 13.59
11/3/2020 7:00:00 PM 5.95 42.71 0.492 8.3 3.09 13.55
11/3/2020 7:15:00 PM 5.93 42.674 0.492 8.29 2.99 13.48
11/3/2020 7:30:00 PM 5.88 42.584 0.492 8.28 2.98 13.42
11/3/2020 7:45:00 PM 5.86 42.548 0.492 8.28 3.24 13.36
11/3/2020 8:00:00 PM 5.81 42.458 0.491 8.26 3.13 13.31
11/3/2020 8:15:00 PM 5.77 42.386 0.492 8.25 3.25 13.25
11/3/2020 8:30:00 PM 5.74 42.332 0.492 8.25 3.02 13.18
11/3/2020 8:45:00 PM 5.7 42.26 0.492 8.24 3.22 13.14
11/3/2020 9:00:00 PM 5.66 42.188 0.492 8.23 3.3 13.09
11/3/2020 9:15:00 PM 5.64 42.152 0.493 8.23 3.23 13.06
11/3/2020 9:30:00 PM 5.61 42.098 0.492 8.22 3.66 13.02
11/3/2020 9:45:00 PM 5.56 42.008 0.492 8.21 3.36 12.99
11/3/2020 10:00:00 PM 5.54 41.972 0.492 8.21 3.43 12.96
11/3/2020 10:15:00 PM 5.48 41.864 0.493 8.2 3.32 12.94
11/3/2020 10:30:00 PM 5.45 41.81 0.493 8.18 3.47 12.9
11/3/2020 10:45:00 PM 5.41 41.738 0.493 8.19 3.29 12.86
11/3/2020 11:00:00 PM 5.38 41.684 0.493 8.17 3.4 12.83
11/3/2020 11:15:00 PM 5.34 41.612 0.493 8.17 3.33 12.8
11/3/2020 11:30:00 PM 5.3 41.54 0.493 8.16 3.25 12.76
11/3/2020 11:45:00 PM 5.27 41.486 0.493 8.16 3.03 12.71
11/4/2020 12:00:00 AM 5.24 41.432 0.494 8.14 3.25 12.69
11/4/2020 12:15:00 AM 5.2 41.36 0.494 8.14 3.22 12.63
11/4/2020 12:30:00 AM 5.18 41.324 0.495 8.13 3.18 12.61
11/4/2020 12:45:00 AM 5.16 41.288 0.492 8.13 2.9 12.58
11/4/2020 1:00:00 AM 5.12 41.216 0.494 8.11 3.09 12.57
11/4/2020 1:15:00 AM 5.09 41.162 0.497 8.12 3.08 12.55
11/4/2020 1:30:00 AM 5.07 41.126 0.495 8.11 3.13 12.53
11/4/2020 1:45:00 AM 5.06 41.108 0.497 8.11 3.19 12.51
11/4/2020 2:00:00 AM 5.02 41.036 0.495 8.1 3.29 12.51
11/4/2020 2:15:00 AM 5.01 41.018 0.495 8.09 3.03 12.47
11/4/2020 2:30:00 AM 4.98 40.964 0.497 8.09 3.1 12.46
11/4/2020 2:45:00 AM 4.96 40.928 0.498 8.08 2.97 12.46
11/4/2020 3:00:00 AM 4.94 40.892 0.495 8.08 3.14 12.44
11/4/2020 3:15:00 AM 4.92 40.856 0.493 8.08 3.01 12.44
11/4/2020 3:30:00 AM 4.89 40.802 0.498 8.08 4.46 12.41
11/4/2020 3:45:00 AM 4.88 40.784 0.496 8.08 901.75 12.42
11/4/2020 4:00:00 AM 4.86 40.748 0.498 8.08 3.59 12.42
11/4/2020 4:15:00 AM 4.84 40.712 0.504 8.06 3.69 12.4
11/4/2020 4:30:00 AM 4.81 40.658 0.498 8.07 3.51 12.37
11/4/2020 4:45:00 AM 4.79 40.622 0.494 8.06 3.38 12.38
11/4/2020 5:00:00 AM 4.77 40.586 0.494 8.06 3.63 12.37
11/4/2020 5:15:00 AM 4.76 40.568 0.522 8.06 3.73 12.36
11/4/2020 5:30:00 AM 4.73 40.514 0.522 8.06 3.39 12.33
11/4/2020 5:45:00 AM 4.7 40.46 0.522 8.05 3.17 12.32
11/4/2020 6:00:00 AM 4.68 40.424 0.581 8.05 3.29 12.29
11/4/2020 6:15:00 AM 4.68 40.424 0.523 8.04 3.13 12.3
11/4/2020 6:30:00 AM 4.62 40.316 0.49 8.04 3.34 12.29
11/4/2020 6:45:00 AM 4.61 40.298 0.49 8.04 3.11 12.28
11/4/2020 7:00:00 AM 4.59 40.262 0.487 8.04 3.05 12.26
11/4/2020 7:15:00 AM 4.56 40.208 0.491 8.03 3.35 12.27
11/4/2020 7:30:00 AM 4.53 40.154 0.491 8.03 3.03 12.25
11/4/2020 7:45:00 AM 4.53 40.154 0.491 8.03 3.15 12.25
11/4/2020 8:00:00 AM 4.5 40.1 0.491 8.03 3.59 12.25
11/4/2020 8:15:00 AM 4.52 40.136 0.491 8.03 3.12 12.3
11/4/2020 8:30:00 AM 4.51 40.118 0.491 8.03 3.15 12.31
11/4/2020 8:45:00 AM 4.49 40.082 0.491 8.03 3.04 12.33
11/4/2020 9:00:00 AM 4.49 40.082 0.49 8.03 3.09 12.38
11/4/2020 9:15:00 AM 4.49 40.082 0.49 8.04 3.04 12.4
11/4/2020 9:30:00 AM 4.51 40.118 0.49 8.04 3 12.4
11/4/2020 9:45:00 AM 4.57 40.226 0.49 8.05 2.99 12.49
11/4/2020 10:00:00 AM 4.61 40.298 0.49 8.05 3.01 12.56
11/4/2020 10:15:00 AM 4.68 40.424 0.485 8.07 3.05 12.64
11/4/2020 10:30:00 AM 4.75 40.55 0.488 8.08 3.11 12.76
11/4/2020 10:45:00 AM 4.85 40.73 0.52 8.09 3 12.82
11/4/2020 11:00:00 AM 4.96 40.928 0.52 8.11 2.81 12.95
11/4/2020 11:15:00 AM 5.08 41.144 0.496 8.11 2.85 13.03
11/4/2020 11:30:00 AM 5.22 41.396 0.492 8.14 2.94 13.13
11/4/2020 11:45:00 AM 5.33 41.594 0.491 8.15 2.91 13.23
11/4/2020 12:00:00 PM 5.49 41.882 0.491 8.17 3.13 13.44
11/4/2020 12:15:00 PM 5.67 42.206 0.49 8.18 2.96 13.41
11/4/2020 12:30:00 PM 5.79 42.422 0.489 8.19 2.93 13.59
11/4/2020 12:45:00 PM 5.92 42.656 0.489 8.2 2.94 13.68
11/4/2020 1:00:00 PM 6.01 42.818 0.489 8.21 3.01 13.69
11/4/2020 1:15:00 PM 6.13 43.034 0.489 8.22 2.94 13.78
11/4/2020 1:30:00 PM 6.22 43.196 0.489 8.22 2.95 13.8
11/4/2020 1:45:00 PM 6.31 43.358 0.488 8.23 2.94 13.89
11/4/2020 2:00:00 PM 6.39 43.502 0.488 8.24 2.97 13.89
11/4/2020 2:15:00 PM 6.45 43.61 0.488 8.25 2.98 13.92
11/4/2020 2:30:00 PM 6.52 43.736 0.488 8.26 2.91 14
11/4/2020 2:45:00 PM 6.57 43.826 0.487 8.27 2.9 13.98
11/4/2020 3:00:00 PM 6.64 43.952 0.487 8.27 2.96 14.02
11/4/2020 3:15:00 PM 6.69 44.042 0.487 8.29 2.98 13.99
11/4/2020 3:30:00 PM 6.74 44.132 0.487 8.3 2.85 14.07
11/4/2020 3:45:00 PM 6.78 44.204 0.487 8.3 2.73 14.08
11/4/2020 4:00:00 PM 6.8 44.24 0.487 8.29 2.85 14.06
11/4/2020 4:15:00 PM 6.82 44.276 0.486 8.31 2.82 14.07
11/4/2020 4:30:00 PM 6.83 44.294 0.487 8.3 2.88 14.1
11/4/2020 4:45:00 PM 6.83 44.294 0.486 8.31 2.79 14.07
11/4/2020 5:00:00 PM 6.83 44.294 0.486 8.31 2.75 14.03
11/4/2020 5:15:00 PM 6.83 44.294 0.486 8.31 2.98 14.04
11/4/2020 5:30:00 PM 6.82 44.276 0.487 8.31 2.72 13.99
11/4/2020 5:45:00 PM 6.81 44.258 0.487 8.31 2.75 13.97
11/4/2020 6:00:00 PM 6.79 44.222 0.487 8.3 3.04 13.93
11/4/2020 6:15:00 PM 6.76 44.168 0.487 8.3 3.14 13.89
11/4/2020 6:30:00 PM 6.74 44.132 0.487 8.28 3.11 13.84
11/4/2020 6:45:00 PM 6.71 44.078 0.487 8.29 2.95 13.79
11/4/2020 7:00:00 PM 6.68 44.024 0.487 8.28 2.93 13.74
11/4/2020 7:15:00 PM 6.65 43.97 0.487 8.26 3.09 13.66
11/4/2020 7:30:00 PM 6.62 43.916 0.487 8.26 3.3 13.62
11/4/2020 7:45:00 PM 6.59 43.862 0.487 8.25 3.27 13.55
11/4/2020 8:00:00 PM 6.55 43.79 0.487 8.24 3.16 13.48
11/4/2020 8:15:00 PM 6.51 43.718 0.488 8.24 3.29 13.42
11/4/2020 8:30:00 PM 6.47 43.646 0.487 8.22 3.29 13.35
11/4/2020 8:45:00 PM 6.43 43.574 0.487 8.21 3.26 13.29
11/4/2020 9:00:00 PM 6.39 43.502 0.488 8.21 3.31 13.22
11/4/2020 9:15:00 PM 6.33 43.394 0.488 8.2 3.38 13.18
11/4/2020 9:30:00 PM 6.29 43.322 0.488 8.19 3.5 13.13
11/4/2020 9:45:00 PM 6.24 43.232 0.488 8.17 3.49 13.09
11/4/2020 10:00:00 PM 6.19 43.142 0.488 8.17 3.33 13.05
11/4/2020 10:15:00 PM 6.13 43.034 0.489 8.16 3.47 13.01
11/4/2020 10:30:00 PM 6.09 42.962 0.489 8.16 3.41 12.97
11/4/2020 10:45:00 PM 6.05 42.89 0.489 8.15 3.33 12.92
11/4/2020 11:00:00 PM 6.01 42.818 0.489 8.13 3.69 12.88
11/4/2020 11:15:00 PM 5.99 42.782 0.489 8.13 4.08 12.83
11/4/2020 11:30:00 PM 5.95 42.71 0.488 8.12 3.65 12.8
11/4/2020 11:45:00 PM 5.93 42.674 0.489 8.11 3.47 12.76
11/5/2020 12:00:00 AM 5.91 42.638 0.489 8.1 3.35 12.71
11/5/2020 12:15:00 AM 5.91 42.638 0.489 8.1 3.25 12.67
11/5/2020 12:30:00 AM 5.89 42.602 0.489 8.09 3.42 12.65
11/5/2020 12:45:00 AM 5.88 42.584 0.489 8.09 3.37 12.6
11/5/2020 1:00:00 AM 5.89 42.602 0.489 8.09 3.39 12.57
11/5/2020 1:15:00 AM 5.88 42.584 0.49 8.08 3.17 12.54
11/5/2020 1:30:00 AM 5.89 42.602 0.489 8.07 3.19 12.49
11/5/2020 1:45:00 AM 5.9 42.62 0.489 8.07 3.12 12.46
11/5/2020 2:00:00 AM 5.88 42.584 0.489 8.05 3.48 12.45
11/5/2020 2:15:00 AM 5.88 42.584 0.489 8.06 3.31 12.41
11/5/2020 2:30:00 AM 5.89 42.602 0.49 8.05 3.14 12.38
11/5/2020 2:45:00 AM 5.88 42.584 0.489 8.05 3.2 12.36
11/5/2020 3:00:00 AM 5.88 42.584 0.49 8.04 3.22 12.33
11/5/2020 3:15:00 AM 5.87 42.566 0.489 8.04 3.41 12.31
11/5/2020 3:30:00 AM 5.87 42.566 0.49 8.04 3.23 12.3
11/5/2020 3:45:00 AM 5.86 42.548 0.49 8.03 3.28 12.27
11/5/2020 4:00:00 AM 5.86 42.548 0.49 8.03 3.42 12.24
11/5/2020 4:15:00 AM 5.82 42.476 0.49 8.02 3.28 12.22
11/5/2020 4:30:00 AM 5.81 42.458 0.49 8.02 3.4 12.2
11/5/2020 4:45:00 AM 5.8 42.44 0.49 8.02 3.08 12.19
11/5/2020 5:00:00 AM 5.78 42.404 0.49 8.01 3.33 12.15
11/5/2020 5:15:00 AM 5.76 42.368 0.491 8.01 3.27 12.14
11/5/2020 5:30:00 AM 5.75 42.35 0.49 8 3.27 12.12
11/5/2020 5:45:00 AM 5.73 42.314 0.491 8 3.1 12.12
11/5/2020 6:00:00 AM 5.72 42.296 0.491 8 3.19 12.09
11/5/2020 6:15:00 AM 5.69 42.242 0.491 7.99 3.24 12.09
11/5/2020 6:30:00 AM 5.68 42.224 0.491 7.99 3.17 12.07
11/5/2020 6:45:00 AM 5.66 42.188 0.492 7.99 3.41 12.06
11/5/2020 7:00:00 AM 5.64 42.152 0.492 7.98 3.26 12.04
11/5/2020 7:15:00 AM 5.63 42.134 0.491 7.98 3.19 12.02
11/5/2020 7:30:00 AM 5.61 42.098 0.492 7.98 3.27 12.02
11/5/2020 7:45:00 AM 5.61 42.098 0.492 7.98 3.32 12
11/5/2020 8:00:00 AM 5.62 42.116 0.492 7.98 3.14 12.06
11/5/2020 8:15:00 AM 5.63 42.134 0.492 7.98 3.09 12.06
11/5/2020 8:30:00 AM 5.64 42.152 0.492 7.99 3.05 12.06
11/5/2020 8:45:00 AM 5.66 42.188 0.493 7.99 2.82 12.15
11/5/2020 9:00:00 AM 5.66 42.188 0.492 7.99 2.95 12.11
11/5/2020 9:15:00 AM 5.7 42.26 0.492 8 3.15 12.22
11/5/2020 9:30:00 AM 5.77 42.386 0.492 8.01 2.89 12.21
11/5/2020 9:45:00 AM 5.84 42.512 0.492 8.02 3.15 12.31
11/5/2020 10:00:00 AM 5.92 42.656 0.492 8.04 2.92 12.49
11/5/2020 10:15:00 AM 6 42.8 0.491 8.05 2.98 12.58
11/5/2020 10:30:00 AM 6.09 42.962 0.491 8.06 2.82 12.69
11/5/2020 10:45:00 AM 6.19 43.142 0.491 8.07 2.96 12.78
11/5/2020 11:00:00 AM 6.3 43.34 0.49 8.1 2.67 12.9
11/5/2020 11:15:00 AM 6.42 43.556 0.49 8.12 2.92 12.98
11/5/2020 11:30:00 AM 6.55 43.79 0.49 8.15 2.87 13.14
11/5/2020 11:45:00 AM 6.7 44.06 0.49 8.17 2.86 13.25
11/5/2020 12:00:00 PM 6.82 44.276 0.49 8.18 2.76 13.39
11/5/2020 12:15:00 PM 6.95 44.51 0.49 8.19 2.92 13.45
11/5/2020 12:30:00 PM 7.07 44.726 0.489 8.21 2.92 13.58
11/5/2020 12:45:00 PM 7.2 44.96 0.489 8.23 2.84 13.69
11/5/2020 1:00:00 PM 7.31 45.158 0.488 8.25 2.79 13.84
11/5/2020 1:15:00 PM 7.41 45.338 0.488 8.26 2.9 13.86
11/5/2020 1:30:00 PM 7.5 45.5 0.488 8.27 2.73 13.94
11/5/2020 1:45:00 PM 7.58 45.644 0.488 8.29 2.63 13.95
11/5/2020 2:00:00 PM 7.65 45.77 0.488 8.3 2.84 14.1
11/5/2020 2:15:00 PM 7.72 45.896 0.488 8.32 3.24 14.12
11/5/2020 2:30:00 PM 7.77 45.986 0.487 8.33 2.99 14.29
11/5/2020 2:45:00 PM 7.82 46.076 0.487 8.34 2.81 14.35
11/5/2020 3:00:00 PM 7.86 46.148 0.487 8.35 2.63 14.41
11/5/2020 3:15:00 PM 7.89 46.202 0.487 8.36 2.7 14.4
11/5/2020 3:30:00 PM 7.92 46.256 0.487 8.37 2.74 14.46
11/5/2020 3:45:00 PM 7.95 46.31 0.487 8.38 2.63 14.48
11/5/2020 4:00:00 PM 7.95 46.31 0.487 8.39 2.75 14.51
11/5/2020 4:15:00 PM 7.96 46.328 0.487 8.39 2.5 14.54
11/5/2020 4:30:00 PM 7.97 46.346 0.487 8.39 2.64 14.5
11/5/2020 4:45:00 PM 7.97 46.346 0.487 8.4 2.6 14.51
11/5/2020 5:00:00 PM 7.96 46.328 0.487 8.4 2.62 14.5
11/5/2020 5:15:00 PM 7.96 46.328 0.487 8.4 2.76 14.46
11/5/2020 5:30:00 PM 7.95 46.31 0.487 8.39 2.64 14.43
11/5/2020 5:45:00 PM 7.93 46.274 0.487 8.39 3.11 14.35
11/5/2020 6:00:00 PM 7.92 46.256 0.487 8.39 2.72 14.31
11/5/2020 6:15:00 PM 7.9 46.22 0.488 8.38 2.81 14.25
11/5/2020 6:30:00 PM 7.87 46.166 0.488 8.38 2.99 14.16
11/5/2020 6:45:00 PM 7.85 46.13 0.488 8.37 2.99 14.09
11/5/2020 7:00:00 PM 7.82 46.076 0.489 8.36 3.04 14
11/5/2020 7:15:00 PM 7.79 46.022 0.489 8.35 3.02 13.93
11/5/2020 7:30:00 PM 7.76 45.968 0.489 8.34 3.52 13.84
11/5/2020 7:45:00 PM 7.73 45.914 0.489 8.33 3 13.76
11/5/2020 8:00:00 PM 7.7 45.86 0.49 8.32 3.53 13.67
11/5/2020 8:15:00 PM 7.67 45.806 0.49 8.31 3.69 13.59
11/5/2020 8:30:00 PM 7.64 45.752 0.491 8.29 3.68 13.52
11/5/2020 8:45:00 PM 7.61 45.698 0.491 8.29 3.52 13.44
11/5/2020 9:00:00 PM 7.57 45.626 0.491 8.28 3.75 13.36
11/5/2020 9:15:00 PM 7.55 45.59 0.491 8.27 3.55 13.3
11/5/2020 9:30:00 PM 7.52 45.536 0.491 8.26 3.34 13.23
11/5/2020 9:45:00 PM 7.49 45.482 0.492 8.25 3.28 13.16
11/5/2020 10:00:00 PM 7.46 45.428 0.492 8.24 3.37 13.1
11/5/2020 10:15:00 PM 7.44 45.392 0.493 8.23 3.15 13.04
11/5/2020 10:30:00 PM 7.42 45.356 0.493 8.22 3.34 12.97
11/5/2020 10:45:00 PM 7.4 45.32 0.493 8.2 3.43 12.91
11/5/2020 11:00:00 PM 7.39 45.302 0.494 8.2 3.75 12.86
11/5/2020 11:15:00 PM 7.38 45.284 0.494 8.19 3.66 12.79
11/5/2020 11:30:00 PM 7.37 45.266 0.494 8.18 3.54 12.74
11/5/2020 11:45:00 PM 7.37 45.266 0.495 8.17 3.53 12.67
11/6/2020 12:00:00 AM 7.37 45.266 0.495 8.17 3.55 12.62
11/6/2020 12:15:00 AM 7.36 45.248 0.495 8.15 3.5 12.57
11/6/2020 12:30:00 AM 7.37 45.266 0.495 8.14 3.41 12.53
11/6/2020 12:45:00 AM 7.37 45.266 0.495 8.13 3.57 12.46
11/6/2020 1:00:00 AM 7.38 45.284 0.496 8.13 3.31 12.41
11/6/2020 1:15:00 AM 7.38 45.284 0.496 8.11 3.4 12.37
11/6/2020 1:30:00 AM 7.39 45.302 0.496 8.1 3.44 12.32
11/6/2020 1:45:00 AM 7.4 45.32 0.496 8.1 3.38 12.29
11/6/2020 2:00:00 AM 7.41 45.338 0.497 8.09 3.38 12.24
11/6/2020 2:15:00 AM 7.42 45.356 0.497 8.08 3.27 12.2
11/6/2020 2:30:00 AM 7.44 45.392 0.497 8.08 3.38 12.16
11/6/2020 2:45:00 AM 7.44 45.392 0.497 8.08 3.4 12.12
11/6/2020 3:00:00 AM 7.44 45.392 0.497 8.08 3.34 12.08
11/6/2020 3:15:00 AM 7.43 45.374 0.497 8.07 3.19 12.06
11/6/2020 3:30:00 AM 7.43 45.374 0.498 8.06 3.33 12.04
11/6/2020 3:45:00 AM 7.41 45.338 0.498 8.06 3.31 11.98
11/6/2020 4:00:00 AM 7.41 45.338 0.498 8.05 3.32 11.96
11/6/2020 4:15:00 AM 7.4 45.32 0.498 8.05 3.38 11.95
11/6/2020 4:30:00 AM 7.38 45.284 0.499 8.04 3.07 11.92
11/6/2020 4:45:00 AM 7.36 45.248 0.498 8.04 3.03 11.88
11/6/2020 5:00:00 AM 7.34 45.212 0.499 8.04 3.17 11.85
11/6/2020 5:15:00 AM 7.33 45.194 0.5 8.03 3.02 11.85
11/6/2020 5:30:00 AM 7.3 45.14 0.5 8.03 3.1 11.81
11/6/2020 5:45:00 AM 7.28 45.104 0.5 8.02 3.15 11.77
11/6/2020 6:00:00 AM 7.25 45.05 0.5 8.02 3.08 11.73
11/6/2020 6:15:00 AM 7.23 45.014 0.5 8.01 2.92 11.71
11/6/2020 6:30:00 AM 7.21 44.978 0.501 8.01 3.55 11.7
11/6/2020 6:45:00 AM 7.19 44.942 0.501 8.01 3.17 11.69
11/6/2020 7:00:00 AM 7.17 44.906 0.501 8 3.24 11.68
11/6/2020 7:15:00 AM 7.16 44.888 0.502 8 3.17 11.65
11/6/2020 7:30:00 AM 7.13 44.834 0.502 8 3.02 11.64
11/6/2020 7:45:00 AM 7.12 44.816 0.502 7.99 3.3 11.62
11/6/2020 8:00:00 AM 7.12 44.816 0.502 7.99 2.81 11.62
11/6/2020 8:15:00 AM 7.12 44.816 0.502 7.99 2.94 11.65
11/6/2020 8:30:00 AM 7.11 44.798 0.503 7.99 2.96 11.65
11/6/2020 8:45:00 AM 7.11 44.798 0.503 7.99 2.83 11.69
11/6/2020 9:00:00 AM 7.11 44.798 0.503 8 2.78 11.69
11/6/2020 9:15:00 AM 7.12 44.816 0.503 8 2.8 11.74
11/6/2020 9:30:00 AM 7.14 44.852 0.503 8 2.77 11.78
11/6/2020 9:45:00 AM 7.19 44.942 0.503 8.02 2.83 11.87
11/6/2020 10:00:00 AM 7.23 45.014 0.503 8.03 2.67 11.99
11/6/2020 10:15:00 AM 7.29 45.122 0.504 8.03 2.86 12
11/6/2020 10:30:00 AM 7.35 45.23 0.504 8.06 2.85 12.17
11/6/2020 10:45:00 AM 7.45 45.41 0.504 8.07 2.78 12.34
11/6/2020 11:00:00 AM 7.57 45.626 0.504 8.08 2.79 12.34
11/6/2020 11:15:00 AM 7.71 45.878 0.503 8.12 2.72 12.56
11/6/2020 11:30:00 AM 7.82 46.076 0.503 8.13 2.96 12.72
11/6/2020 11:45:00 AM 7.92 46.256 0.503 8.14 2.62 12.89
11/6/2020 12:00:00 PM 8.05 46.49 0.503 8.14 2.58 12.93
11/6/2020 12:15:00 PM 8.18 46.724 0.503 8.18 2.74 13.07
11/6/2020 12:30:00 PM 8.32 46.976 0.502 8.21 2.63 13.29
11/6/2020 12:45:00 PM 8.45 47.21 0.502 8.23 2.89 13.36
11/6/2020 1:00:00 PM 8.58 47.444 0.502 8.24 2.87 13.52
11/6/2020 1:15:00 PM 8.66 47.588 0.502 8.25 2.85 13.54
11/6/2020 1:30:00 PM 8.76 47.768 0.502 8.26 2.78 13.59
11/6/2020 1:45:00 PM 8.82 47.876 0.502 8.28 2.64 13.75
11/6/2020 2:00:00 PM 8.9 48.02 0.502 8.28 2.7 13.74
11/6/2020 2:15:00 PM 8.96 48.128 0.502 8.3 2.7 13.77
11/6/2020 2:30:00 PM 9.03 48.254 0.501 8.31 10.57 13.86
11/6/2020 2:45:00 PM 9.09 48.362 0.501 8.31 3.22 13.91
11/6/2020 3:00:00 PM 9.14 48.452 0.501 8.32 2.8 13.95
11/6/2020 3:15:00 PM 9.19 48.542 0.501 8.34 2.72 14
11/6/2020 3:30:00 PM 9.24 48.632 0.501 8.33 2.85 14.04
11/6/2020 3:45:00 PM 9.28 48.704 0.501 8.35 2.59 14.08
11/6/2020 4:00:00 PM 9.3 48.74 0.501 8.36 2.61 14.14
11/6/2020 4:15:00 PM 9.33 48.794 0.501 8.37 2.66 14.1
11/6/2020 4:30:00 PM 9.35 48.83 0.5 8.37 2.93 14.12
11/6/2020 4:45:00 PM 9.34 48.812 0.5 8.37 2.75 14.15
11/6/2020 5:00:00 PM 9.35 48.83 0.501 8.37 2.64 14.08
11/6/2020 5:15:00 PM 9.35 48.83 0.5 8.38 2.61 14.03
11/6/2020 5:30:00 PM 9.34 48.812 0.5 8.38 2.75 14.01
11/6/2020 5:45:00 PM 9.34 48.812 0.501 8.38 2.76 13.98
11/6/2020 6:00:00 PM 9.33 48.794 0.501 8.38 2.77 13.95
11/6/2020 6:15:00 PM 9.31 48.758 0.501 8.37 3.2 13.88
11/6/2020 6:30:00 PM 9.29 48.722 0.501 8.37 3.35 13.83
11/6/2020 6:45:00 PM 9.27 48.686 0.501 8.36 2.97 13.76
11/6/2020 7:00:00 PM 9.24 48.632 0.502 8.35 3.16 13.68
11/6/2020 7:15:00 PM 9.21 48.578 0.502 8.34 3.32 13.6
11/6/2020 7:30:00 PM 9.18 48.524 0.502 8.33 3.3 13.5
11/6/2020 7:45:00 PM 9.14 48.452 0.502 8.32 3.27 13.39
11/6/2020 8:00:00 PM 9.1 48.38 0.503 8.31 3.18 13.3
11/6/2020 8:15:00 PM 9.07 48.326 0.503 8.3 3.27 13.19
11/6/2020 8:30:00 PM 9.03 48.254 0.503 8.29 3.6 13.11
11/6/2020 8:45:00 PM 8.98 48.164 0.504 8.28 3.4 13.02
11/6/2020 9:00:00 PM 8.95 48.11 0.504 8.27 3.4 12.93
11/6/2020 9:15:00 PM 8.9 48.02 0.504 8.26 3.43 12.85
11/6/2020 9:30:00 PM 8.85 47.93 0.504 8.24 3.41 12.78
11/6/2020 9:45:00 PM 8.8 47.84 0.504 8.23 3.48 12.69
11/6/2020 10:00:00 PM 8.76 47.768 0.505 8.21 3.73 12.64
11/6/2020 10:15:00 PM 8.71 47.678 0.505 8.21 3.57 12.56
11/6/2020 10:30:00 PM 8.66 47.588 0.505 8.19 3.75 12.49
11/6/2020 10:45:00 PM 8.61 47.498 0.506 8.19 3.27 12.43
11/6/2020 11:00:00 PM 8.57 47.426 0.506 8.18 3.59 12.37
11/6/2020 11:15:00 PM 8.52 47.336 0.507 8.16 3.38 12.3
11/6/2020 11:30:00 PM 8.47 47.246 0.506 8.15 3.56 12.23
11/6/2020 11:45:00 PM 8.44 47.192 0.507 8.15 3.71 12.18
11/7/2020 12:00:00 AM 8.41 47.138 0.507 8.13 3.58 12.14
11/7/2020 12:15:00 AM 8.37 47.066 0.507 8.12 3.74 12.05
11/7/2020 12:30:00 AM 8.33 46.994 0.507 8.12 3.84 12
11/7/2020 12:45:00 AM 8.31 46.958 0.507 8.11 3.46 11.95
11/7/2020 1:00:00 AM 8.29 46.922 0.508 8.1 3.56 11.91
11/7/2020 1:15:00 AM 8.26 46.868 0.508 8.1 3.57 11.86
11/7/2020 1:30:00 AM 8.24 46.832 0.508 8.08 3.42 11.8
11/7/2020 1:45:00 AM 8.23 46.814 0.508 8.08 3.47 11.77
11/7/2020 2:00:00 AM 8.22 46.796 0.509 8.07 3.39 11.73
11/7/2020 2:15:00 AM 8.21 46.778 0.508 8.07 3.23 11.7
11/7/2020 2:30:00 AM 8.21 46.778 0.509 8.07 3.48 11.65
11/7/2020 2:45:00 AM 8.19 46.742 0.509 8.06 3.53 11.63
11/7/2020 3:00:00 AM 8.19 46.742 0.509 8.06 3.4 11.59
11/7/2020 3:15:00 AM 8.18 46.724 0.509 8.05 3.29 11.58
11/7/2020 3:30:00 AM 8.17 46.706 0.51 8.05 3.3 11.53
11/7/2020 3:45:00 AM 8.18 46.724 0.51 8.04 3.21 11.53
11/7/2020 4:00:00 AM 8.17 46.706 0.51 8.04 3.17 11.5
11/7/2020 4:15:00 AM 8.14 46.652 0.51 8.03 3.29 11.46
11/7/2020 4:30:00 AM 8.13 46.634 0.511 8.03 3.38 11.45
11/7/2020 4:45:00 AM 8.12 46.616 0.511 8.02 3.16 11.42
11/7/2020 5:00:00 AM 8.1 46.58 0.511 8.02 3.25 11.4
11/7/2020 5:15:00 AM 8.08 46.544 0.511 8.01 3.22 11.38
11/7/2020 5:30:00 AM 8.06 46.508 0.511 8.01 3.2 11.37
11/7/2020 5:45:00 AM 8.04 46.472 0.511 8 3.21 11.33
11/7/2020 6:00:00 AM 8.03 46.454 0.512 8 3.13 11.31
11/7/2020 6:15:00 AM 8 46.4 0.512 7.99 3.59 11.28
11/7/2020 6:30:00 AM 7.97 46.346 0.512 7.99 3.31 11.26
11/7/2020 6:45:00 AM 7.96 46.328 0.512 7.98 3.21 11.25
11/7/2020 7:00:00 AM 7.92 46.256 0.512 7.98 3.17 11.21
11/7/2020 7:15:00 AM 7.89 46.202 0.513 7.97 3.35 11.19
11/7/2020 7:30:00 AM 7.88 46.184 0.513 7.97 3.87 11.19
11/7/2020 7:45:00 AM 7.87 46.166 0.513 7.97 3.43 11.19
11/7/2020 8:00:00 AM 7.85 46.13 0.513 7.96 3.06 11.21
11/7/2020 8:15:00 AM 7.83 46.094 0.514 7.97 3.25 11.22
11/7/2020 8:30:00 AM 7.82 46.076 0.514 7.97 3.37 11.23
11/7/2020 8:45:00 AM 7.81 46.058 0.514 7.97 3.07 11.26
11/7/2020 9:00:00 AM 7.81 46.058 0.514 7.97 2.92 11.29
11/7/2020 9:15:00 AM 7.81 46.058 0.514 7.97 3.12 11.32
11/7/2020 9:30:00 AM 7.82 46.076 0.514 7.98 2.89 11.39
11/7/2020 9:45:00 AM 7.84 46.112 0.514 7.99 3.02 11.4
11/7/2020 10:00:00 AM 7.89 46.202 0.514 8 2.74 11.51
11/7/2020 10:15:00 AM 7.94 46.292 0.514 8.01 2.73 11.61
11/7/2020 10:30:00 AM 8 46.4 0.514 8.03 2.71 11.7
11/7/2020 10:45:00 AM 8.05 46.49 0.514 8.04 2.63 11.83
11/7/2020 11:00:00 AM 8.15 46.67 0.514 8.04 2.66 11.93
11/7/2020 11:15:00 AM 8.25 46.85 0.513 8.07 2.6 12.06
11/7/2020 11:30:00 AM 8.38 47.084 0.513 8.09 2.61 12.13
11/7/2020 11:45:00 AM 8.48 47.264 0.513 8.11 2.52 12.45
11/7/2020 12:00:00 PM 8.61 47.498 0.513 8.14 2.67 12.55
11/7/2020 12:15:00 PM 8.74 47.732 0.512 8.15 2.65 12.7
11/7/2020 12:30:00 PM 8.85 47.93 0.512 8.18 2.56 12.83
11/7/2020 12:45:00 PM 9 48.2 0.512 8.19 2.54 12.98
11/7/2020 1:00:00 PM 9.11 48.398 0.511 8.22 2.54 13.11
11/7/2020 1:15:00 PM 9.21 48.578 0.511 8.23 2.7 13.23
11/7/2020 1:30:00 PM 9.3 48.74 0.511 8.24 2.58 13.38
11/7/2020 1:45:00 PM 9.37 48.866 0.51 8.26 2.98 13.52
11/7/2020 2:00:00 PM 9.44 48.992 0.51 8.27 2.84 13.55
11/7/2020 2:15:00 PM 9.53 49.154 0.51 8.29 2.57 13.59
11/7/2020 2:30:00 PM 9.57 49.226 0.51 8.29 2.63 13.75
11/7/2020 2:45:00 PM 9.63 49.334 0.509 8.31 2.5 13.81
11/7/2020 3:00:00 PM 9.68 49.424 0.509 8.32 2.69 13.9
11/7/2020 3:15:00 PM 9.72 49.496 0.509 8.33 2.85 13.91
11/7/2020 3:30:00 PM 9.79 49.622 0.509 8.33 2.53 13.95
11/7/2020 3:45:00 PM 9.84 49.712 0.508 8.34 2.5 14.06
11/7/2020 4:00:00 PM 9.87 49.766 0.508 8.36 2.46 14.1
11/7/2020 4:15:00 PM 9.91 49.838 0.508 8.37 2.43 14.09
11/7/2020 4:30:00 PM 9.93 49.874 0.508 8.37 2.65 14.16
11/7/2020 4:45:00 PM 9.91 49.838 0.508 8.38 2.65 14.16
11/7/2020 5:00:00 PM 9.92 49.856 0.507 8.38 2.95 14.16
11/7/2020 5:15:00 PM 9.91 49.838 0.507 8.38 2.6 14.14
11/7/2020 5:30:00 PM 9.89 49.802 0.507 8.38 2.36 14.11
11/7/2020 5:45:00 PM 9.89 49.802 0.507 8.38 2.53 14.03
11/7/2020 6:00:00 PM 9.88 49.784 0.507 8.38 2.47 14.02
11/7/2020 6:15:00 PM 9.87 49.766 0.507 8.38 2.36 14
11/7/2020 6:30:00 PM 9.84 49.712 0.507 8.38 2.54 13.95
11/7/2020 6:45:00 PM 9.82 49.676 0.508 8.37 2.6 13.88
11/7/2020 7:00:00 PM 9.8 49.64 0.508 8.36 2.6 13.8
11/7/2020 7:15:00 PM 9.77 49.586 0.508 8.36 2.9 13.72
11/7/2020 7:30:00 PM 9.74 49.532 0.508 8.35 2.83 13.63
11/7/2020 7:45:00 PM 9.7 49.46 0.508 8.34 2.98 13.53
11/7/2020 8:00:00 PM 9.67 49.406 0.508 8.33 3.1 13.42
11/7/2020 8:15:00 PM 9.63 49.334 0.509 8.32 2.93 13.32
11/7/2020 8:30:00 PM 9.59 49.262 0.509 8.31 3.07 13.2
11/7/2020 8:45:00 PM 9.55 49.19 0.509 8.29 2.9 13.12
11/7/2020 9:00:00 PM 9.5 49.1 0.509 8.28 3.17 13
11/7/2020 9:15:00 PM 9.45 49.01 0.51 8.27 3.14 12.89
11/7/2020 9:30:00 PM 9.41 48.938 0.51 8.26 9.97 12.81
11/7/2020 9:45:00 PM 9.37 48.866 0.51 8.24 3.97 12.76
11/7/2020 10:00:00 PM 9.32 48.776 0.511 8.24 3.46 12.7
11/7/2020 10:15:00 PM 9.27 48.686 0.511 8.23 3.26 12.63
11/7/2020 10:30:00 PM 9.22 48.596 0.511 8.22 3.39 12.57
11/7/2020 10:45:00 PM 9.17 48.506 0.511 8.22 3.29 12.49
11/7/2020 11:00:00 PM 9.12 48.416 0.512 8.2 3.32 12.41
11/7/2020 11:15:00 PM 9.08 48.344 0.512 8.19 3.07 12.34
11/7/2020 11:30:00 PM 9.02 48.236 0.512 8.18 3.18 12.27
11/7/2020 11:45:00 PM 8.99 48.182 0.512 8.17 3.31 12.14
11/8/2020 12:00:00 AM 8.93 48.074 0.513 8.15 3.38 12.1
11/8/2020 12:15:00 AM 8.89 48.002 0.513 8.15 3.31 12.04
11/8/2020 12:30:00 AM 8.85 47.93 0.513 8.14 3.15 11.98
11/8/2020 12:45:00 AM 8.82 47.876 0.513 8.14 3.44 11.92
11/8/2020 1:00:00 AM 8.78 47.804 0.513 8.12 2.83 11.86
11/8/2020 1:15:00 AM 8.75 47.75 0.513 8.12 3.03 11.8
11/8/2020 1:30:00 AM 8.72 47.696 0.514 8.1 3.09 11.73
11/8/2020 1:45:00 AM 8.69 47.642 0.514 8.09 3.08 11.71
11/8/2020 2:00:00 AM 8.67 47.606 0.514 8.09 3.03 11.63
11/8/2020 2:15:00 AM 8.64 47.552 0.514 8.09 2.81 11.59
11/8/2020 2:30:00 AM 8.63 47.534 0.514 8.08 2.8 11.57
11/8/2020 2:45:00 AM 8.6 47.48 0.515 8.08 2.9 11.52
11/8/2020 3:00:00 AM 8.59 47.462 0.515 8.06 3.16 11.51
11/8/2020 3:15:00 AM 8.58 47.444 0.515 8.06 3.06 11.49
11/8/2020 3:30:00 AM 8.56 47.408 0.515 8.06 2.96 11.43
11/8/2020 3:45:00 AM 8.56 47.408 0.515 8.06 3.03 11.39
11/8/2020 4:00:00 AM 8.54 47.372 0.515 8.04 2.93 11.39
11/8/2020 4:15:00 AM 8.52 47.336 0.516 8.04 2.8 11.37
11/8/2020 4:30:00 AM 8.5 47.3 0.516 8.05 3.2 11.28
11/8/2020 4:45:00 AM 8.48 47.264 0.516 8.04 3.14 11.3
11/8/2020 5:00:00 AM 8.46 47.228 0.516 8.03 3.12 11.26
11/8/2020 5:15:00 AM 8.45 47.21 0.516 8.03 2.78 11.25
11/8/2020 5:30:00 AM 8.43 47.174 0.516 8.03 2.77 11.24
11/8/2020 5:45:00 AM 8.4 47.12 0.516 8.02 2.71 11.22
11/8/2020 6:00:00 AM 8.38 47.084 0.517 8.02 2.71 11.17
11/8/2020 6:15:00 AM 8.37 47.066 0.517 8.01 2.75 11.16
11/8/2020 6:30:00 AM 8.33 46.994 0.517 8.01 2.8 11.13
11/8/2020 6:45:00 AM 8.3 46.94 0.517 8 2.97 11.09
11/8/2020 7:00:00 AM 8.27 46.886 0.517 8 3.18 11.11
11/8/2020 7:15:00 AM 8.25 46.85 0.518 7.99 3.15 11.05
11/8/2020 7:30:00 AM 8.22 46.796 0.518 7.99 3.1 11.06
11/8/2020 7:45:00 AM 8.21 46.778 0.518 7.99 3.26 11.08
11/8/2020 8:00:00 AM 8.19 46.742 0.518 7.99 3.1 11.05
11/8/2020 8:15:00 AM 8.16 46.688 0.519 7.98 2.68 11.1
11/8/2020 8:30:00 AM 8.14 46.652 0.519 7.99 2.9 11.08
11/8/2020 8:45:00 AM 8.12 46.616 0.519 7.99 2.81 11.11
11/8/2020 9:00:00 AM 8.1 46.58 0.519 7.99 2.92 11.17
11/8/2020 9:15:00 AM 8.09 46.562 0.519 8 2.74 11.18
11/8/2020 9:30:00 AM 8.09 46.562 0.519 8 2.58 11.2
11/8/2020 9:45:00 AM 8.11 46.598 0.519 8 2.74 11.23
11/8/2020 10:00:00 AM 8.13 46.634 0.52 8 2.79 11.39
11/8/2020 10:15:00 AM 8.17 46.706 0.52 8.02 2.56 11.4
11/8/2020 10:30:00 AM 8.23 46.814 0.52 8.03 2.66 11.51
11/8/2020 10:45:00 AM 8.29 46.922 0.519 8.04 2.62 11.64
11/8/2020 11:00:00 AM 8.37 47.066 0.52 8.06 2.55 11.74
11/8/2020 11:15:00 AM 8.46 47.228 0.52 8.09 2.63 11.92
11/8/2020 11:30:00 AM 8.56 47.408 0.519 8.09 2.54 12.07
11/8/2020 11:45:00 AM 8.68 47.624 0.519 8.11 2.58 12.18
11/8/2020 12:00:00 PM 8.78 47.804 0.519 8.12 2.49 12.4
11/8/2020 12:15:00 PM 8.91 48.038 0.518 8.14 2.73 12.52
11/8/2020 12:30:00 PM 9.01 48.218 0.518 8.18 2.84 12.85
11/8/2020 12:45:00 PM 9.13 48.434 0.518 8.19 2.64 12.83
11/8/2020 1:00:00 PM 9.23 48.614 0.518 8.22 2.56 13.03
11/8/2020 1:15:00 PM 9.34 48.812 0.518 8.23 2.74 13.14
11/8/2020 1:30:00 PM 9.42 48.956 0.517 8.25 2.78 13.27
11/8/2020 1:45:00 PM 9.51 49.118 0.517 8.27 2.85 13.4
11/8/2020 2:00:00 PM 9.57 49.226 0.517 8.27 2.74 13.48
11/8/2020 2:15:00 PM 9.63 49.334 0.516 8.28 2.71 13.62
11/8/2020 2:30:00 PM 9.72 49.496 0.516 8.3 2.6 13.69
11/8/2020 2:45:00 PM 9.75 49.55 0.516 8.31 2.62 13.73
11/8/2020 3:00:00 PM 9.84 49.712 0.516 8.32 3.79 13.79
11/8/2020 3:15:00 PM 9.89 49.802 0.515 8.33 2.53 13.89
11/8/2020 3:30:00 PM 9.92 49.856 0.515 8.34 2.66 13.95
11/8/2020 3:45:00 PM 9.96 49.928 0.516 8.34 2.62 13.92
11/8/2020 4:00:00 PM 10 50 0.515 8.35 2.47 13.98
11/8/2020 4:15:00 PM 10.02 50.036 0.515 8.36 2.39 14.01
11/8/2020 4:30:00 PM 10.04 50.072 0.515 8.37 2.53 14.05
11/8/2020 4:45:00 PM 10.04 50.072 0.515 8.36 2.54 14.06
11/8/2020 5:00:00 PM 10.04 50.072 0.515 8.37 2.61 14.05
11/8/2020 5:15:00 PM 10.03 50.054 0.515 8.37 2.55 14.04
11/8/2020 5:30:00 PM 10.01 50.018 0.514 8.36 2.49 13.98
11/8/2020 5:45:00 PM 10.04 50.072 0.515 8.36 2.31 13.89
11/8/2020 6:00:00 PM 10.02 50.036 0.515 8.36 2.43 13.92
11/8/2020 6:15:00 PM 10 50 0.515 8.36 2.6 13.86
11/8/2020 6:30:00 PM 9.99 49.982 0.515 8.36 2.55 13.77
11/8/2020 6:45:00 PM 9.97 49.946 0.515 8.35 2.58 13.76
11/8/2020 7:00:00 PM 9.95 49.91 0.515 8.35 2.57 13.69
11/8/2020 7:15:00 PM 9.92 49.856 0.515 8.34 2.65 13.6
11/8/2020 7:30:00 PM 9.88 49.784 0.515 8.33 2.93 13.51
11/8/2020 7:45:00 PM 9.84 49.712 0.515 8.32 2.94 13.42
11/8/2020 8:00:00 PM 9.81 49.658 0.515 8.31 3.47 13.32
11/8/2020 8:15:00 PM 9.78 49.604 0.516 8.3 3 13.23
11/8/2020 8:30:00 PM 9.74 49.532 0.516 8.29 3.07 13.12
11/8/2020 8:45:00 PM 9.7 49.46 0.515 8.26 3.94 13.01
11/8/2020 9:00:00 PM 9.66 49.388 0.516 8.25 3.74 12.9
11/8/2020 9:15:00 PM 9.61 49.298 0.516 8.24 4.27 12.83
11/8/2020 9:30:00 PM 9.57 49.226 0.517 8.24 3.33 12.75
11/8/2020 9:45:00 PM 9.52 49.136 0.516 8.23 3.27 12.68
11/8/2020 10:00:00 PM 9.48 49.064 0.517 8.22 3.32 12.61
11/8/2020 10:15:00 PM 9.43 48.974 0.517 8.21 3.08 12.52
11/8/2020 10:30:00 PM 9.37 48.866 0.517 8.21 3.23 12.46
11/8/2020 10:45:00 PM 9.33 48.794 0.517 8.19 3.2 12.4
11/8/2020 11:00:00 PM 9.28 48.704 0.517 8.19 3.11 12.32
11/8/2020 11:15:00 PM 9.22 48.596 0.518 8.18 3.28 12.25
11/8/2020 11:30:00 PM 9.18 48.524 0.518 8.16 2.95 12.2
11/8/2020 11:45:00 PM 9.13 48.434 0.518 8.16 3.07 12.12
11/9/2020 12:00:00 AM 9.07 48.326 0.518 8.14 3 12.05
11/9/2020 12:15:00 AM 9.03 48.254 0.518 8.13 2.95 11.98
11/9/2020 12:30:00 AM 8.99 48.182 0.518 8.13 3.02 11.9
11/9/2020 12:45:00 AM 8.95 48.11 0.519 8.11 3.25 11.83
11/9/2020 1:00:00 AM 8.91 48.038 0.519 8.11 3.35 11.76
11/9/2020 1:15:00 AM 8.87 47.966 0.519 8.09 3.36 11.71
11/9/2020 1:30:00 AM 8.83 47.894 0.519 8.09 3.1 11.65
11/9/2020 1:45:00 AM 8.78 47.804 0.519 8.08 3.06 11.6
11/9/2020 2:00:00 AM 8.76 47.768 0.519 8.08 3.04 11.56
11/9/2020 2:15:00 AM 8.74 47.732 0.519 8.06 3 11.52
11/9/2020 2:30:00 AM 8.71 47.678 0.519 8.06 2.98 11.48
11/9/2020 2:45:00 AM 8.7 47.66 0.519 8.05 3.02 11.43
11/9/2020 3:00:00 AM 8.68 47.624 0.519 8.05 2.89 11.41
11/9/2020 3:15:00 AM 8.66 47.588 0.519 8.04 2.77 11.37
11/9/2020 3:30:00 AM 8.64 47.552 0.519 8.04 2.89 11.34
11/9/2020 3:45:00 AM 8.64 47.552 0.52 8.04 2.91 11.31
11/9/2020 4:00:00 AM 8.62 47.516 0.52 8.03 2.88 11.26
11/9/2020 4:15:00 AM 8.61 47.498 0.519 8.03 2.97 11.26
11/9/2020 4:30:00 AM 8.6 47.48 0.519 8.03 3 11.25
11/9/2020 4:45:00 AM 8.59 47.462 0.519 8.03 3.25 11.22
11/9/2020 5:00:00 AM 8.57 47.426 0.519 8.03 3.03 11.2
11/9/2020 5:15:00 AM 8.57 47.426 0.519 8.02 2.84 11.2
11/9/2020 5:30:00 AM 8.54 47.372 0.519 8.02 2.82 11.15
11/9/2020 5:45:00 AM 8.54 47.372 0.519 8.02 2.72 11.12
11/9/2020 6:00:00 AM 8.52 47.336 0.519 8.01 3.15 11.13
11/9/2020 6:15:00 AM 8.49 47.282 0.519 8 2.9 11.08
11/9/2020 6:30:00 AM 8.48 47.264 0.519 8 2.86 11.08
11/9/2020 6:45:00 AM 8.45 47.21 0.519 7.99 4.34 11.03
11/9/2020 7:00:00 AM 8.42 47.156 0.519 7.99 3.41 11.01
11/9/2020 7:15:00 AM 8.4 47.12 0.519 7.99 3.11 11.01
11/9/2020 7:30:00 AM 8.38 47.084 0.52 7.99 3.08 11
11/9/2020 7:45:00 AM 8.37 47.066 0.52 7.99 2.91 11
11/9/2020 8:00:00 AM 8.35 47.03 0.52 7.98 2.82 10.99
11/9/2020 8:15:00 AM 8.32 46.976 0.519 7.98 4.86 11.02
11/9/2020 8:30:00 AM 8.31 46.958 0.52 7.98 2.94 11.04
11/9/2020 8:45:00 AM 8.29 46.922 0.52 7.98 2.52 11.07
11/9/2020 9:00:00 AM 8.28 46.904 0.52 7.99 2.55 11.07
11/9/2020 9:15:00 AM 8.27 46.886 0.52 8 2.54 11.1
11/9/2020 9:30:00 AM 8.27 46.886 0.52 8 2.6 11.12
11/9/2020 9:45:00 AM 8.28 46.904 0.519 7.99 2.81 11.17
11/9/2020 10:00:00 AM 8.29 46.922 0.52 8 2.65 11.24
11/9/2020 10:15:00 AM 8.33 46.994 0.52 8.01 2.73 11.31
11/9/2020 10:30:00 AM 8.37 47.066 0.519 8.02 2.62 11.43
11/9/2020 10:45:00 AM 8.42 47.156 0.519 8.04 2.56 11.57
11/9/2020 11:00:00 AM 8.49 47.282 0.519 8.05 2.48 11.7
11/9/2020 11:15:00 AM 8.56 47.408 0.519 8.08 2.58 11.84
11/9/2020 11:30:00 AM 8.66 47.588 0.519 8.09 2.63 12.06
11/9/2020 11:45:00 AM 8.77 47.786 0.518 8.1 2.6 12.16
11/9/2020 12:00:00 PM 8.88 47.984 0.518 8.14 2.48 12.29
11/9/2020 12:15:00 PM 8.99 48.182 0.518 8.14 2.5 12.48
11/9/2020 12:30:00 PM 9.1 48.38 0.517 8.18 2.48 12.69
11/9/2020 12:45:00 PM 9.2 48.56 0.517 8.18 2.47 12.79
11/9/2020 1:00:00 PM 9.34 48.812 0.516 8.21 2.85 12.95
11/9/2020 1:15:00 PM 9.43 48.974 0.516 8.22 2.52 13.09
11/9/2020 1:30:00 PM 9.55 49.19 0.515 8.25 2.39 13.32
11/9/2020 1:45:00 PM 9.62 49.316 0.515 8.26 2.31 13.41
11/9/2020 2:00:00 PM 9.68 49.424 0.515 8.25 2.2 13.41
11/9/2020 2:15:00 PM 9.73 49.514 0.514 8.28 2.22 13.56
11/9/2020 2:30:00 PM 9.8 49.64 0.514 8.3 2.37 13.63
11/9/2020 2:45:00 PM 9.84 49.712 0.514 8.31 2.41 13.74
11/9/2020 3:00:00 PM 9.91 49.838 0.514 8.32 2.34 13.74
11/9/2020 3:15:00 PM 9.96 49.928 0.513 8.33 2.32 13.84
11/9/2020 3:30:00 PM 10.01 50.018 0.513 8.33 2.42 13.9
11/9/2020 3:45:00 PM 10.06 50.108 0.513 8.33 2.38 13.93
11/9/2020 4:00:00 PM 10.09 50.162 0.513 8.34 2.38 13.98
11/9/2020 4:15:00 PM 10.14 50.252 0.512 8.36 2.51 14.02
11/9/2020 4:30:00 PM 10.15 50.27 0.513 8.36 2.3 14.01
11/9/2020 4:45:00 PM 10.15 50.27 0.512 8.36 2.32 14.05
11/9/2020 5:00:00 PM 10.15 50.27 0.512 8.36 2.29 14.04
11/9/2020 5:15:00 PM 10.15 50.27 0.512 8.36 2.29 14.01
11/9/2020 5:30:00 PM 10.15 50.27 0.512 8.36 2.38 13.99
11/9/2020 5:45:00 PM 10.14 50.252 0.512 8.36 2.46 13.95
11/9/2020 6:00:00 PM 10.14 50.252 0.512 8.36 2.39 13.91
11/9/2020 6:15:00 PM 10.13 50.234 0.512 8.36 2.57 13.87
11/9/2020 6:30:00 PM 10.11 50.198 0.512 8.36 2.58 13.81
11/9/2020 6:45:00 PM 10.09 50.162 0.512 8.36 2.52 13.77
11/9/2020 7:00:00 PM 10.07 50.126 0.512 8.35 2.45 13.7
11/9/2020 7:15:00 PM 10.05 50.09 0.512 8.34 2.81 13.61
11/9/2020 7:30:00 PM 10.02 50.036 0.512 8.33 2.74 13.53
11/9/2020 7:45:00 PM 9.99 49.982 0.513 8.32 2.82 13.44
11/9/2020 8:00:00 PM 9.95 49.91 0.512 8.31 2.97 13.35
11/9/2020 8:15:00 PM 9.92 49.856 0.513 8.3 3.21 13.23
11/9/2020 8:30:00 PM 9.89 49.802 0.513 8.29 3 13.14
11/9/2020 8:45:00 PM 9.85 49.73 0.513 8.27 3.16 13.04
11/9/2020 9:00:00 PM 9.81 49.658 0.513 8.25 2.92 12.95
11/9/2020 9:15:00 PM 9.77 49.586 0.513 8.25 3.04 12.85
11/9/2020 9:30:00 PM 9.72 49.496 0.513 8.23 2.85 12.77
11/9/2020 9:45:00 PM 9.68 49.424 0.514 8.23 2.98 12.69
11/9/2020 10:00:00 PM 9.64 49.352 0.514 8.21 3.11 12.6
11/9/2020 10:15:00 PM 9.59 49.262 0.514 8.2 3.01 12.5
11/9/2020 10:30:00 PM 9.54 49.172 0.514 8.2 2.96 12.44
11/9/2020 10:45:00 PM 9.5 49.1 0.515 8.18 2.92 12.36
11/9/2020 11:00:00 PM 9.44 48.992 0.515 8.17 3.09 12.29
11/9/2020 11:15:00 PM 9.39 48.902 0.515 8.17 2.97 12.22
11/9/2020 11:30:00 PM 9.34 48.812 0.516 8.15 3.07 12.15
11/9/2020 11:45:00 PM 9.29 48.722 0.516 8.13 3.06 12.07
11/10/2020 12:00:00 AM 9.25 48.65 0.516 8.13 3.11 12.01
11/10/2020 12:15:00 AM 9.2 48.56 0.516 8.12 3.08 11.93
11/10/2020 12:30:00 AM 9.16 48.488 0.516 8.11 2.85 11.85
11/10/2020 12:45:00 AM 9.11 48.398 0.517 8.1 2.89 11.78
11/10/2020 1:00:00 AM 9.06 48.308 0.517 8.09 3.08 11.72
11/10/2020 1:15:00 AM 9.04 48.272 0.517 8.09 2.86 11.66
11/10/2020 1:30:00 AM 9 48.2 0.517 8.07 2.87 11.59
11/10/2020 1:45:00 AM 8.97 48.146 0.517 8.07 2.85 11.55
11/10/2020 2:00:00 AM 8.94 48.092 0.518 8.06 2.86 11.49
11/10/2020 2:15:00 AM 8.92 48.056 0.518 8.05 2.78 11.45
11/10/2020 2:30:00 AM 8.89 48.002 0.518 8.04 2.58 11.39
11/10/2020 2:45:00 AM 8.88 47.984 0.518 8.04 2.81 11.36
11/10/2020 3:00:00 AM 8.87 47.966 0.518 8.04 2.97 11.31
11/10/2020 3:15:00 AM 8.86 47.948 0.518 8.03 2.95 11.28
11/10/2020 3:30:00 AM 8.85 47.93 0.518 8.02 3.21 11.27
11/10/2020 3:45:00 AM 8.85 47.93 0.518 8.02 2.86 11.25
11/10/2020 4:00:00 AM 8.84 47.912 0.518 8.02 3.01 11.22
11/10/2020 4:15:00 AM 8.83 47.894 0.519 8.02 2.86 11.2
11/10/2020 4:30:00 AM 8.84 47.912 0.519 8.02 2.79 11.17
11/10/2020 4:45:00 AM 8.83 47.894 0.519 8.02 3.05 11.13
11/10/2020 5:00:00 AM 8.83 47.894 0.519 8.01 2.88 11.11
11/10/2020 5:15:00 AM 8.82 47.876 0.519 8.01 2.87 11.09
11/10/2020 5:30:00 AM 8.82 47.876 0.519 8.01 2.78 11.09
11/10/2020 5:45:00 AM 8.81 47.858 0.519 8.01 2.69 11.04
11/10/2020 6:00:00 AM 8.81 47.858 0.519 8 2.68 11.03
11/10/2020 6:15:00 AM 8.81 47.858 0.52 8 2.58 11.01
11/10/2020 6:30:00 AM 8.8 47.84 0.52 8 2.68 11
11/10/2020 6:45:00 AM 8.79 47.822 0.52 7.99 2.88 10.97
11/10/2020 7:00:00 AM 8.78 47.804 0.52 7.99 2.88 10.96
11/10/2020 7:15:00 AM 8.78 47.804 0.52 7.98 2.72 10.94
11/10/2020 7:30:00 AM 8.77 47.786 0.52 7.97 3.04 10.9
11/10/2020 7:45:00 AM 8.76 47.768 0.52 7.98 2.77 10.91
11/10/2020 8:00:00 AM 8.76 47.768 0.521 7.97 2.89 10.93
11/10/2020 8:15:00 AM 8.75 47.75 0.521 7.98 2.78 10.93
11/10/2020 8:30:00 AM 8.75 47.75 0.521 7.98 2.74 10.95
11/10/2020 8:45:00 AM 8.74 47.732 0.521 7.98 3.05 10.98
11/10/2020 9:00:00 AM 8.73 47.714 0.521 7.98 2.72 10.97
11/10/2020 9:15:00 AM 8.73 47.714 0.522 7.98 2.83 11.03
11/10/2020 9:30:00 AM 8.74 47.732 0.521 7.98 2.84 11.06
11/10/2020 9:45:00 AM 8.75 47.75 0.522 8 3.25 11.09
11/10/2020 10:00:00 AM 8.78 47.804 0.522 8 2.85 11.13
11/10/2020 10:15:00 AM 8.81 47.858 0.522 8.01 3.17 11.28
11/10/2020 10:30:00 AM 8.86 47.948 0.522 8.02 4.13 11.34
11/10/2020 10:45:00 AM 8.92 48.056 0.522 8.02 3.21 11.4
11/10/2020 11:00:00 AM 9 48.2 0.522 8.03 3.47 11.58
11/10/2020 11:15:00 AM 9.07 48.326 0.522 8.05 2.83 11.67
11/10/2020 11:30:00 AM 9.2 48.56 0.522 8.07 3.82 11.93
11/10/2020 11:45:00 AM 9.31 48.758 0.522 8.1 3.31 11.98
11/10/2020 12:00:00 PM 9.44 48.992 0.521 8.13 2.94 12.22
11/10/2020 12:15:00 PM 9.57 49.226 0.521 8.14 2.62 12.38
11/10/2020 12:30:00 PM 9.67 49.406 0.521 8.17 2.64 12.59
11/10/2020 12:45:00 PM 9.8 49.64 0.521 8.18 2.71 12.7
11/10/2020 1:00:00 PM 9.95 49.91 0.52 8.21 2.79 12.82
11/10/2020 1:15:00 PM 10.07 50.126 0.52 8.22 2.68 13.1
11/10/2020 1:30:00 PM 10.21 50.378 0.52 8.23 2.58 13.23
11/10/2020 1:45:00 PM 10.3 50.54 0.52 8.25 2.46 13.28
11/10/2020 2:00:00 PM 10.38 50.684 0.519 8.25 2.47 13.37
11/10/2020 2:15:00 PM 10.47 50.846 0.52 8.28 2.56 13.5
11/10/2020 2:30:00 PM 10.53 50.954 0.519 8.29 2.62 13.57
11/10/2020 2:45:00 PM 10.62 51.116 0.519 8.29 2.31 13.62
11/10/2020 3:00:00 PM 10.7 51.26 0.519 8.3 2.39 13.61
11/10/2020 3:15:00 PM 10.77 51.386 0.519 8.31 2.66 13.7
11/10/2020 3:30:00 PM 10.82 51.476 0.519 8.32 2.46 13.72
11/10/2020 3:45:00 PM 10.89 51.602 0.518 8.33 2.39 13.76
11/10/2020 4:00:00 PM 10.94 51.692 0.518 8.33 2.28 13.79
11/10/2020 4:15:00 PM 10.96 51.728 0.518 8.33 2.4 13.81
11/10/2020 4:30:00 PM 10.99 51.782 0.518 8.35 2.23 13.82
11/10/2020 4:45:00 PM 11 51.8 0.518 8.35 2.85 13.82
11/10/2020 5:00:00 PM 11 51.8 0.517 8.35 2.21 13.76
11/10/2020 5:15:00 PM 10.99 51.782 0.518 8.35 2.21 13.8
11/10/2020 5:30:00 PM 10.99 51.782 0.518 8.35 2.47 13.79
11/10/2020 5:45:00 PM 10.99 51.782 0.517 8.35 2.38 13.73
11/10/2020 6:00:00 PM 10.98 51.764 0.518 8.35 2.47 13.69
11/10/2020 6:15:00 PM 10.97 51.746 0.518 8.34 2.48 13.61
11/10/2020 6:30:00 PM 10.95 51.71 0.518 8.34 2.45 13.6
11/10/2020 6:45:00 PM 10.95 51.71 0.518 8.34 2.43 13.55
11/10/2020 7:00:00 PM 10.93 51.674 0.518 8.33 2.51 13.4
11/10/2020 7:15:00 PM 10.91 51.638 0.518 8.33 2.55 13.36
11/10/2020 7:30:00 PM 10.89 51.602 0.518 8.32 2.58 13.28
11/10/2020 7:45:00 PM 10.87 51.566 0.519 8.31 2.79 13.17
11/10/2020 8:00:00 PM 10.84 51.512 0.519 8.3 2.83 13.09
11/10/2020 8:15:00 PM 10.81 51.458 0.519 8.28 2.8 12.98
11/10/2020 8:30:00 PM 10.78 51.404 0.519 8.27 2.93 12.9
11/10/2020 8:45:00 PM 10.75 51.35 0.519 8.26 2.94 12.81
11/10/2020 9:00:00 PM 10.72 51.296 0.52 8.25 2.8 12.7
11/10/2020 9:15:00 PM 10.68 51.224 0.52 8.24 2.91 12.6
11/10/2020 9:30:00 PM 10.65 51.17 0.52 8.22 3.37 12.51
11/10/2020 9:45:00 PM 10.62 51.116 0.52 8.21 3.87 12.43
11/10/2020 10:00:00 PM 10.59 51.062 0.521 8.2 3.19 12.34
11/10/2020 10:15:00 PM 10.56 51.008 0.521 8.19 2.89 12.27
11/10/2020 10:30:00 PM 10.51 50.918 0.521 8.18 2.78 12.2
11/10/2020 10:45:00 PM 10.47 50.846 0.521 8.17 2.84 12.1
11/10/2020 11:00:00 PM 10.43 50.774 0.522 8.15 3.36 12.02
11/10/2020 11:15:00 PM 10.39 50.702 0.522 8.14 3.25 11.92
11/10/2020 11:30:00 PM 10.34 50.612 0.522 8.12 2.93 11.82
11/10/2020 11:45:00 PM 10.3 50.54 0.523 8.11 3.02 11.79
11/11/2020 12:00:00 AM 10.26 50.468 0.523 8.11 2.85 11.71
11/11/2020 12:15:00 AM 10.22 50.396 0.523 8.1 2.81 11.62
11/11/2020 12:30:00 AM 10.19 50.342 0.523 8.09 2.81 11.56
11/11/2020 12:45:00 AM 10.16 50.288 0.523 8.09 2.75 11.5
11/11/2020 1:00:00 AM 10.13 50.234 0.524 8.07 3.09 11.44
11/11/2020 1:15:00 AM 10.1 50.18 0.524 8.06 2.79 11.37
11/11/2020 1:30:00 AM 10.09 50.162 0.524 8.05 2.75 11.3
11/11/2020 1:45:00 AM 10.06 50.108 0.524 8.04 2.75 11.24
11/11/2020 2:00:00 AM 10.05 50.09 0.524 8.03 2.7 11.21
11/11/2020 2:15:00 AM 10.04 50.072 0.524 8.03 3.05 11.14
11/11/2020 2:30:00 AM 10.03 50.054 0.524 8.02 3.02 11.1
11/11/2020 2:45:00 AM 10.03 50.054 0.525 8.02 3 11.07
11/11/2020 3:00:00 AM 10.03 50.054 0.525 8.01 2.99 11.02
11/11/2020 3:15:00 AM 10.03 50.054 0.525 8.01 2.83 11
11/11/2020 3:30:00 AM 10.03 50.054 0.525 8 2.97 10.97
11/11/2020 3:45:00 AM 10.04 50.072 0.525 8 2.84 10.93
11/11/2020 4:00:00 AM 10.06 50.108 0.525 8 2.93 10.88
11/11/2020 4:15:00 AM 10.07 50.126 0.525 7.99 2.78 10.84
11/11/2020 4:30:00 AM 10.09 50.162 0.525 8 2.8 10.84
11/11/2020 4:45:00 AM 10.09 50.162 0.525 7.99 2.95 10.81
11/11/2020 5:00:00 AM 10.11 50.198 0.525 7.99 2.85 10.77
11/11/2020 5:15:00 AM 10.13 50.234 0.525 7.99 2.72 10.76
11/11/2020 5:30:00 AM 10.14 50.252 0.525 7.98 2.61 10.73
11/11/2020 5:45:00 AM 10.16 50.288 0.525 7.98 2.81 10.69
11/11/2020 6:00:00 AM 10.19 50.342 0.525 7.98 2.73 10.6
11/11/2020 6:15:00 AM 10.22 50.396 0.525 7.98 2.68 10.64
11/11/2020 6:30:00 AM 10.25 50.45 0.525 7.98 2.69 10.59
11/11/2020 6:45:00 AM 10.28 50.504 0.525 7.97 2.69 10.6
11/11/2020 7:00:00 AM 10.31 50.558 0.525 7.97 2.85 10.54
11/11/2020 7:15:00 AM 10.33 50.594 0.525 7.96 3.09 10.51
11/11/2020 7:30:00 AM 10.37 50.666 0.525 7.96 2.83 10.45
11/11/2020 7:45:00 AM 10.4 50.72 0.525 7.95 2.82 10.5
11/11/2020 8:00:00 AM 10.43 50.774 0.524 7.95 2.85 10.47
11/11/2020 8:15:00 AM 10.47 50.846 0.521 7.94 2.9 10.43
11/11/2020 8:30:00 AM 10.51 50.918 0.519 7.94 2.9 10.45
11/11/2020 8:45:00 AM 10.56 51.008 0.517 7.93 3.9 10.4
11/11/2020 9:00:00 AM 10.61 51.098 0.516 7.93 3.31 10.36
11/11/2020 9:15:00 AM 10.63 51.134 0.515 7.93 3.01 10.43
11/11/2020 9:30:00 AM 10.66 51.188 0.516 7.93 3 10.43
11/11/2020 9:45:00 AM 10.69 51.242 0.515 7.92 2.99 10.44
11/11/2020 10:00:00 AM 10.7 51.26 0.514 7.93 3.1 10.44
11/11/2020 10:15:00 AM 10.74 51.332 0.513 7.92 3.09 10.44
11/11/2020 10:30:00 AM 10.78 51.404 0.511 7.93 3.16 10.45
11/11/2020 10:45:00 AM 10.8 51.44 0.51 7.92 3.06 10.5
11/11/2020 11:00:00 AM 10.82 51.476 0.509 7.92 3.12 10.48
11/11/2020 11:15:00 AM 10.87 51.566 0.506 7.92 3.26 10.53
11/11/2020 11:30:00 AM 10.9 51.62 0.505 7.92 3.39 10.53
11/11/2020 11:45:00 AM 10.91 51.638 0.504 7.91 4.78 10.53
11/11/2020 12:00:00 PM 10.92 51.656 0.502 7.89 7.01 10.57
11/11/2020 12:15:00 PM 10.92 51.656 0.499 7.87 11.29 10.52
11/11/2020 12:30:00 PM 10.92 51.656 0.496 7.84 16.1 10.51
11/11/2020 12:45:00 PM 10.94 51.692 0.491 7.8 18.28 10.44
11/11/2020 1:00:00 PM 10.97 51.746 0.487 7.76 24.76 10.44
11/11/2020 1:15:00 PM 10.99 51.782 0.489 7.76 21.45 10.47
11/11/2020 1:30:00 PM 11.01 51.818 0.487 7.76 20.94 10.44
11/11/2020 1:45:00 PM 11 51.8 0.48 7.73 27.18 10.46
11/11/2020 2:00:00 PM 11.01 51.818 0.474 7.71 37.03 10.5
11/11/2020 2:15:00 PM 11.02 51.836 0.462 7.69 47.64 10.44
11/11/2020 2:30:00 PM 11.02 51.836 0.454 7.67 55.16 10.46
11/11/2020 2:45:00 PM 11.06 51.908 0.446 7.65 70.87 10.43
11/11/2020 3:00:00 PM 11.08 51.944 0.438 7.63 64.21 10.42
11/11/2020 3:15:00 PM 11.09 51.962 0.433 7.62 63.63 10.42
11/11/2020 3:30:00 PM 11.1 51.98 0.428 7.61 64.76 10.44
11/11/2020 3:45:00 PM 11.1 51.98 0.427 7.59 60.53 10.39
11/11/2020 4:00:00 PM 11.11 51.998 0.428 7.57 53.17 10.35
11/11/2020 4:15:00 PM 11.14 52.052 0.43 7.57 47.94 10.37
11/11/2020 4:30:00 PM 11.15 52.07 0.432 7.59 43.02 10.37
11/11/2020 4:45:00 PM 11.16 52.088 0.435 7.58 36.99 10.38
11/11/2020 5:00:00 PM 11.17 52.106 0.438 7.58 36.31 10.38
11/11/2020 5:15:00 PM 11.17 52.106 0.441 7.58 32.93 10.36
11/11/2020 5:30:00 PM 11.18 52.124 0.444 7.58 28.13 10.29
11/11/2020 5:45:00 PM 11.19 52.142 0.448 7.58 25.44 10.33
11/11/2020 6:00:00 PM 11.2 52.16 0.451 7.57 21.23 10.29
11/11/2020 6:15:00 PM 11.2 52.16 0.456 7.58 69.34 10.3
11/11/2020 6:30:00 PM 11.19 52.142 0.459 7.57 19.32 10.21
11/11/2020 6:45:00 PM 11.19 52.142 0.461 7.56 17.2 10.17
11/11/2020 7:00:00 PM 11.19 52.142 0.466 7.57 14.92 10.14
11/11/2020 7:15:00 PM 11.19 52.142 0.47 7.58 14.2 10.11
11/11/2020 7:30:00 PM 11.19 52.142 0.473 7.58 12.52 10.07
11/11/2020 7:45:00 PM 11.19 52.142 0.476 7.58 13.01 10
11/11/2020 8:00:00 PM 11.19 52.142 0.48 7.59 18.81 9.99
11/11/2020 8:15:00 PM 11.19 52.142 0.482 7.59 11.05 9.93
11/11/2020 8:30:00 PM 11.21 52.178 0.485 7.59 9.33 9.98
11/11/2020 8:45:00 PM 11.23 52.214 0.489 7.61 7.81 10.01
11/11/2020 9:00:00 PM 11.25 52.25 0.49 7.61 7.55 9.98
11/11/2020 9:15:00 PM 11.27 52.286 0.491 7.61 7.21 9.97
11/11/2020 9:30:00 PM 11.27 52.286 0.492 7.61 7.02 9.95
11/11/2020 9:45:00 PM 11.27 52.286 0.493 7.6 7.16 9.92
11/11/2020 10:00:00 PM 11.28 52.304 0.494 7.6 6.48 9.91
11/11/2020 10:15:00 PM 11.29 52.322 0.495 7.61 6.23 9.89
11/11/2020 10:30:00 PM 11.3 52.34 0.496 7.6 6.01 9.83
11/11/2020 10:45:00 PM 11.3 52.34 0.496 7.59 5.61 9.81
11/11/2020 11:00:00 PM 11.31 52.358 0.497 7.6 5.37 9.81
11/11/2020 11:15:00 PM 11.31 52.358 0.497 7.6 5.45 9.76
11/11/2020 11:30:00 PM 11.32 52.376 0.498 7.61 5.28 9.76
11/11/2020 11:45:00 PM 11.31 52.358 0.498 7.6 4.99 9.72
11/12/2020 12:00:00 AM 11.32 52.376 0.5 7.61 5.33 9.73
11/12/2020 12:15:00 AM 11.31 52.358 0.5 7.62 4.89 9.71
11/12/2020 12:30:00 AM 11.31 52.358 0.5 7.61 4.62 9.68
11/12/2020 12:45:00 AM 11.29 52.322 0.5 7.61 4.69 9.67
11/12/2020 1:00:00 AM 11.27 52.286 0.501 7.6 4.25 9.64
11/12/2020 1:15:00 AM 11.25 52.25 0.501 7.61 4.15 9.61
11/12/2020 1:30:00 AM 11.23 52.214 0.501 7.61 4.1 9.6
11/12/2020 1:45:00 AM 11.22 52.196 0.502 7.62 4.1 9.62
11/12/2020 2:00:00 AM 11.21 52.178 0.503 7.62 3.99 9.62
11/12/2020 2:15:00 AM 11.19 52.142 0.503 7.63 3.95 9.62
11/12/2020 2:30:00 AM 11.17 52.106 0.504 7.63 3.85 9.61
11/12/2020 2:45:00 AM 11.15 52.07 0.504 7.64 3.76 9.65
11/12/2020 3:00:00 AM 11.12 52.016 0.504 7.63 3.65 9.6
11/12/2020 3:15:00 AM 11.1 51.98 0.504 7.62 5.09 9.59
11/12/2020 3:30:00 AM 11.08 51.944 0.505 7.64 3.85 9.6
11/12/2020 3:45:00 AM 11.06 51.908 0.505 7.64 4.03 9.57
11/12/2020 4:00:00 AM 11.03 51.854 0.505 7.64 4.13 9.56
11/12/2020 4:15:00 AM 11 51.8 0.506 7.63 4.11 9.52
11/12/2020 4:30:00 AM 10.97 51.746 0.506 7.63 3.96 9.53
11/12/2020 4:45:00 AM 10.94 51.692 0.507 7.63 3.81 9.51
11/12/2020 5:00:00 AM 10.92 51.656 0.507 7.63 3.63 9.51
11/12/2020 5:15:00 AM 10.9 51.62 0.508 7.63 3.73 9.49
11/12/2020 5:30:00 AM 10.87 51.566 0.508 7.64 3.74 9.48
11/12/2020 5:45:00 AM 10.85 51.53 0.509 7.63 3.88 9.47
11/12/2020 6:00:00 AM 10.81 51.458 0.509 7.63 3.88 9.47
11/12/2020 6:15:00 AM 10.79 51.422 0.509 7.63 3.68 9.46
11/12/2020 6:30:00 AM 10.77 51.386 0.51 7.63 3.84 9.43
11/12/2020 6:45:00 AM 10.73 51.314 0.51 7.64 3.79 9.45
11/12/2020 7:00:00 AM 10.7 51.26 0.51 7.63 4.18 9.43
11/12/2020 7:15:00 AM 10.69 51.242 0.511 7.63 3.69 9.44
11/12/2020 7:30:00 AM 10.66 51.188 0.511 7.63 3.98 9.43
11/12/2020 7:45:00 AM 10.64 51.152 0.512 7.64 3.7 9.42
11/12/2020 8:00:00 AM 10.63 51.134 0.512 7.64 4.58 9.45
11/12/2020 8:15:00 AM 10.62 51.116 0.512 7.64 5.25 9.47
11/12/2020 8:30:00 AM 10.6 51.08 0.512 7.64 3.41 9.49
11/12/2020 8:45:00 AM 10.58 51.044 0.512 7.64 3.88 9.51
11/12/2020 9:00:00 AM 10.56 51.008 0.513 7.65 3.79 9.54
11/12/2020 9:15:00 AM 10.55 50.99 0.513 7.66 3.51 9.6
11/12/2020 9:30:00 AM 10.54 50.972 0.513 7.67 3.14 9.67
11/12/2020 9:45:00 AM 10.54 50.972 0.513 7.68 3.16 9.76
11/12/2020 10:00:00 AM 10.53 50.954 0.513 7.69 3.31 9.8
11/12/2020 10:15:00 AM 10.53 50.954 0.513 7.7 4.89 9.91
11/12/2020 10:30:00 AM 10.53 50.954 0.514 7.71 3.06 9.99
11/12/2020 10:45:00 AM 10.53 50.954 0.514 7.74 3.51 10.11
11/12/2020 11:00:00 AM 10.53 50.954 0.514 7.75 3.35 10.23
11/12/2020 11:15:00 AM 10.53 50.954 0.514 7.77 3.22 10.32
11/12/2020 11:30:00 AM 10.52 50.936 0.514 7.79 3.16 10.43
11/12/2020 11:45:00 AM 10.51 50.918 0.514 7.82 3.12 10.56
11/12/2020 12:00:00 PM 10.51 50.918 0.514 7.82 2.98 10.61
11/12/2020 12:15:00 PM 10.54 50.972 0.514 7.85 3.18 10.77
11/12/2020 12:30:00 PM 10.56 51.008 0.514 7.87 2.96 10.87
11/12/2020 12:45:00 PM 10.58 51.044 0.514 7.9 3.86 11.01
11/12/2020 1:00:00 PM 10.59 51.062 0.514 7.91 3.04 11.1
11/12/2020 1:15:00 PM 10.61 51.098 0.514 7.93 3.32 11.24
11/12/2020 1:30:00 PM 10.62 51.116 0.514 7.96 3.31 11.32
11/12/2020 1:45:00 PM 10.63 51.134 0.515 7.97 3.09 11.4
11/12/2020 2:00:00 PM 10.65 51.17 0.515 7.98 3.05 11.52
11/12/2020 2:15:00 PM 10.65 51.17 0.515 8 3.21 11.61
11/12/2020 2:30:00 PM 10.66 51.188 0.515 8.02 3.23 11.76
11/12/2020 2:45:00 PM 10.66 51.188 0.515 8.03 3.08 11.85
11/12/2020 3:00:00 PM 10.66 51.188 0.515 8.05 3.06 11.94
11/12/2020 3:15:00 PM 10.64 51.152 0.515 8.08 3.41 12.03
11/12/2020 3:30:00 PM 10.62 51.116 0.515 8.08 2.91 12.07
11/12/2020 3:45:00 PM 10.6 51.08 0.515 8.09 4.54 12.09
11/12/2020 4:00:00 PM 10.58 51.044 0.515 8.1 3.21 12.12
11/12/2020 4:15:00 PM 10.56 51.008 0.514 8.09 3.1 12.15
11/12/2020 4:30:00 PM 10.53 50.954 0.514 8.1 3.19 12.15
11/12/2020 4:45:00 PM 10.49 50.882 0.514 8.1 3.01 12.12
11/12/2020 5:00:00 PM 10.46 50.828 0.513 8.1 3.05 12.1
11/12/2020 5:15:00 PM 10.42 50.756 0.513 8.09 3.45 12.04
11/12/2020 5:30:00 PM 10.37 50.666 0.513 8.08 3.41 11.98
11/12/2020 5:45:00 PM 10.33 50.594 0.512 8.07 3.37 11.92
11/12/2020 6:00:00 PM 10.3 50.54 0.512 8.07 3.33 11.85
11/12/2020 6:15:00 PM 10.25 50.45 0.511 8.06 3.8 11.74
11/12/2020 6:30:00 PM 10.21 50.378 0.51 8.04 3.91 11.63
11/12/2020 6:45:00 PM 10.17 50.306 0.51 8.02 3.78 11.55
11/12/2020 7:00:00 PM 10.14 50.252 0.509 8.02 3.82 11.48
11/12/2020 7:15:00 PM 10.11 50.198 0.508 8.02 4 11.39
11/12/2020 7:30:00 PM 10.07 50.126 0.507 8 3.95 11.33
11/12/2020 7:45:00 PM 10.03 50.054 0.506 7.99 3.79 11.27
11/12/2020 8:00:00 PM 9.98 49.964 0.505 7.98 4.02 11.21
11/12/2020 8:15:00 PM 9.93 49.874 0.504 7.97 3.91 11.16
11/12/2020 8:30:00 PM 9.88 49.784 0.503 7.96 4.19 11.11
11/12/2020 8:45:00 PM 9.82 49.676 0.503 7.95 4.16 11.07
11/12/2020 9:00:00 PM 9.78 49.604 0.502 7.94 4.04 11.04
11/12/2020 9:15:00 PM 9.72 49.496 0.501 7.94 4.29 11.02
11/12/2020 9:30:00 PM 9.66 49.388 0.5 7.93 4.33 10.99
11/12/2020 9:45:00 PM 9.61 49.298 0.5 7.93 4.26 10.97
11/12/2020 10:00:00 PM 9.56 49.208 0.5 7.92 4.17 10.96
11/12/2020 10:15:00 PM 9.51 49.118 0.499 7.91 4.29 10.94
11/12/2020 10:30:00 PM 9.47 49.046 0.5 7.91 4.41 10.92
11/12/2020 10:45:00 PM 9.43 48.974 0.499 7.9 4.19 10.89
11/12/2020 11:00:00 PM 9.39 48.902 0.5 7.9 4.32 10.88
11/12/2020 11:15:00 PM 9.33 48.794 0.5 7.89 4.45 10.87
11/12/2020 11:30:00 PM 9.3 48.74 0.5 7.89 4.48 10.84
11/12/2020 11:45:00 PM 9.25 48.65 0.5 7.89 4.4 10.81
11/13/2020 12:00:00 AM 9.23 48.614 0.501 7.88 4.15 10.8
11/13/2020 12:15:00 AM 9.2 48.56 0.501 7.88 4.41 10.78
11/13/2020 12:30:00 AM 9.16 48.488 0.5 7.88 4.26 10.77
11/13/2020 12:45:00 AM 9.14 48.452 0.5 7.87 4.31 10.76
11/13/2020 1:00:00 AM 9.1 48.38 0.5 7.87 4.21 10.74
11/13/2020 1:15:00 AM 9.06 48.308 0.499 7.86 4.38 10.72
11/13/2020 1:30:00 AM 9.03 48.254 0.499 7.86 5.01 10.72
11/13/2020 1:45:00 AM 9 48.2 0.498 7.86 4.34 10.7
11/13/2020 2:00:00 AM 8.98 48.164 0.497 7.86 4.37 10.72
11/13/2020 2:15:00 AM 8.95 48.11 0.495 7.86 4.2 10.71
11/13/2020 2:30:00 AM 8.93 48.074 0.494 7.86 4.14 10.69
11/13/2020 2:45:00 AM 8.92 48.056 0.493 7.86 4.51 10.71
11/13/2020 3:00:00 AM 8.9 48.02 0.491 7.86 4.24 10.7
11/13/2020 3:15:00 AM 8.87 47.966 0.49 7.86 4.76 10.69
11/13/2020 3:30:00 AM 8.85 47.93 0.488 7.86 4.61 10.72
11/13/2020 3:45:00 AM 8.82 47.876 0.486 7.86 4.31 10.71
11/13/2020 4:00:00 AM 8.79 47.822 0.484 7.86 4.1 10.73
11/13/2020 4:15:00 AM 8.77 47.786 0.482 7.86 4.18 10.74
11/13/2020 4:30:00 AM 8.75 47.75 0.48 7.86 4.23 10.72
11/13/2020 4:45:00 AM 8.72 47.696 0.478 7.86 4.2 10.75
11/13/2020 5:00:00 AM 8.69 47.642 0.475 7.86 4.48 10.75
11/13/2020 5:15:00 AM 8.64 47.552 0.473 7.86 4.45 10.75
11/13/2020 5:30:00 AM 8.6 47.48 0.471 7.86 4.37 10.75
11/13/2020 5:45:00 AM 8.56 47.408 0.468 7.85 4.8 10.74
11/13/2020 6:00:00 AM 8.53 47.354 0.465 7.85 4.84 10.75
11/13/2020 6:15:00 AM 8.5 47.3 0.463 7.85 4.44 10.73
11/13/2020 6:30:00 AM 8.48 47.264 0.46 7.84 4.58 10.73
11/13/2020 6:45:00 AM 8.45 47.21 0.458 7.84 4.47 10.72
11/13/2020 7:00:00 AM 8.43 47.174 0.455 7.84 4.6 10.72
11/13/2020 7:15:00 AM 8.4 47.12 0.453 7.84 4.51 10.71
11/13/2020 7:30:00 AM 8.39 47.102 0.45 7.83 6.47 10.71
11/13/2020 7:45:00 AM 8.37 47.066 0.448 7.83 4.63 10.75
11/13/2020 8:00:00 AM 8.35 47.03 0.448 7.83 4.97 10.75
11/13/2020 8:15:00 AM 8.33 46.994 0.437 7.83 5.16 10.78
11/13/2020 8:30:00 AM 8.31 46.958 0.436 7.83 8.6 10.83
11/13/2020 8:45:00 AM 8.3 46.94 0.433 7.84 4.26 10.88
11/13/2020 9:00:00 AM 8.28 46.904 0.431 7.85 6.06 10.93
11/13/2020 9:15:00 AM 8.25 46.85 0.428 7.85 4.27 10.96